<?xml version="1.0" encoding="UTF-8" standalone="no" ?>
<gpx xmlns="http://www.topografix.com/GPX/1/1" xmlns:xsi="http://www.w3.org/2001/XMLSchema-instance" xsi:schemaLocation="http://www.topografix.com/GPX/1/1 http://www.topografix.com/GPX/1/1/gpx.xsd" version="1.1" creator="VisuGPX - https://www.visugpx.com">
  <metadata>
    <name>Traces DPT 33</name>
    <desc><![CDATA[Total: 12.2km]]></desc>
  </metadata>
  <trk>
    <name><![CDATA[randogps33-548]]></name>
    <extensions>
      <line xmlns="http://www.topografix.com/GPX/gpx_style/0/2">
        <color>0000FF</color>
        <width>4</width>
      </line>
    </extensions>
    <trkseg>
      <trkpt lat="44.74918" lon="-0.07485">
        <ele>71.76</ele>
        <time>2014-11-23T08:21:07Z</time>
      </trkpt>
      <trkpt lat="44.74918" lon="-0.07485">
        <ele>73.2</ele>
        <time>2014-11-23T08:21:08Z</time>
      </trkpt>
      <trkpt lat="44.74919" lon="-0.07489">
        <ele>72.24</ele>
        <time>2014-11-23T08:21:35Z</time>
      </trkpt>
      <trkpt lat="44.74917" lon="-0.07487">
        <ele>72.24</ele>
        <time>2014-11-23T08:22:07Z</time>
      </trkpt>
      <trkpt lat="44.74916" lon="-0.0749">
        <ele>72.72</ele>
        <time>2014-11-23T08:22:37Z</time>
      </trkpt>
      <trkpt lat="44.74917" lon="-0.07491">
        <ele>72.72</ele>
        <time>2014-11-23T08:23:02Z</time>
      </trkpt>
      <trkpt lat="44.74919" lon="-0.07487">
        <ele>72.72</ele>
        <time>2014-11-23T08:23:21Z</time>
      </trkpt>
      <trkpt lat="44.7492" lon="-0.07485">
        <ele>73.2</ele>
        <time>2014-11-23T08:23:35Z</time>
      </trkpt>
      <trkpt lat="44.74922" lon="-0.07496">
        <ele>73.2</ele>
        <time>2014-11-23T08:23:48Z</time>
      </trkpt>
      <trkpt lat="44.7492" lon="-0.07501">
        <ele>73.2</ele>
        <time>2014-11-23T08:23:55Z</time>
      </trkpt>
      <trkpt lat="44.74915" lon="-0.07518">
        <ele>72.24</ele>
        <time>2014-11-23T08:24:11Z</time>
      </trkpt>
      <trkpt lat="44.74907" lon="-0.07532">
        <ele>71.76</ele>
        <time>2014-11-23T08:24:29Z</time>
      </trkpt>
      <trkpt lat="44.74909" lon="-0.07535">
        <ele>72.24</ele>
        <time>2014-11-23T08:24:48Z</time>
      </trkpt>
      <trkpt lat="44.74909" lon="-0.07537">
        <ele>71.27</ele>
        <time>2014-11-23T08:25:07Z</time>
      </trkpt>
      <trkpt lat="44.74911" lon="-0.0753">
        <ele>72.72</ele>
        <time>2014-11-23T08:25:22Z</time>
      </trkpt>
      <trkpt lat="44.74911" lon="-0.07531">
        <ele>72.24</ele>
        <time>2014-11-23T08:25:38Z</time>
      </trkpt>
      <trkpt lat="44.74911" lon="-0.0753">
        <ele>71.27</ele>
        <time>2014-11-23T08:26:02Z</time>
      </trkpt>
      <trkpt lat="44.74911" lon="-0.0753">
        <ele>71.76</ele>
        <time>2014-11-23T08:26:15Z</time>
      </trkpt>
      <trkpt lat="44.74911" lon="-0.0753">
        <ele>71.76</ele>
        <time>2014-11-23T08:26:33Z</time>
      </trkpt>
      <trkpt lat="44.74912" lon="-0.07527">
        <ele>71.27</ele>
        <time>2014-11-23T08:26:53Z</time>
      </trkpt>
      <trkpt lat="44.74911" lon="-0.07524">
        <ele>71.27</ele>
        <time>2014-11-23T08:27:19Z</time>
      </trkpt>
      <trkpt lat="44.7491" lon="-0.07526">
        <ele>71.27</ele>
        <time>2014-11-23T08:27:42Z</time>
      </trkpt>
      <trkpt lat="44.74909" lon="-0.07525">
        <ele>71.27</ele>
        <time>2014-11-23T08:28:10Z</time>
      </trkpt>
      <trkpt lat="44.7491" lon="-0.07521">
        <ele>71.76</ele>
        <time>2014-11-23T08:28:42Z</time>
      </trkpt>
      <trkpt lat="44.74911" lon="-0.07523">
        <ele>71.76</ele>
        <time>2014-11-23T08:29:03Z</time>
      </trkpt>
      <trkpt lat="44.7491" lon="-0.07521">
        <ele>71.27</ele>
        <time>2014-11-23T08:29:27Z</time>
      </trkpt>
      <trkpt lat="44.74912" lon="-0.07525">
        <ele>71.76</ele>
        <time>2014-11-23T08:29:55Z</time>
      </trkpt>
      <trkpt lat="44.74913" lon="-0.07523">
        <ele>72.24</ele>
        <time>2014-11-23T08:30:27Z</time>
      </trkpt>
      <trkpt lat="44.74917" lon="-0.07528">
        <ele>71.76</ele>
        <time>2014-11-23T08:30:57Z</time>
      </trkpt>
      <trkpt lat="44.74915" lon="-0.07529">
        <ele>72.72</ele>
        <time>2014-11-23T08:31:20Z</time>
      </trkpt>
      <trkpt lat="44.74911" lon="-0.07526">
        <ele>72.72</ele>
        <time>2014-11-23T08:31:44Z</time>
      </trkpt>
      <trkpt lat="44.74911" lon="-0.07525">
        <ele>72.24</ele>
        <time>2014-11-23T08:32:16Z</time>
      </trkpt>
      <trkpt lat="44.74908" lon="-0.07533">
        <ele>71.76</ele>
        <time>2014-11-23T08:32:28Z</time>
      </trkpt>
      <trkpt lat="44.74911" lon="-0.07533">
        <ele>71.76</ele>
        <time>2014-11-23T08:32:53Z</time>
      </trkpt>
      <trkpt lat="44.74913" lon="-0.07548">
        <ele>71.27</ele>
        <time>2014-11-23T08:33:12Z</time>
      </trkpt>
      <trkpt lat="44.74911" lon="-0.07559">
        <ele>71.27</ele>
        <time>2014-11-23T08:33:22Z</time>
      </trkpt>
      <trkpt lat="44.74919" lon="-0.07585">
        <ele>70.31</ele>
        <time>2014-11-23T08:33:41Z</time>
      </trkpt>
      <trkpt lat="44.74922" lon="-0.07608">
        <ele>69.35</ele>
        <time>2014-11-23T08:33:57Z</time>
      </trkpt>
      <trkpt lat="44.74933" lon="-0.07635">
        <ele>67.91</ele>
        <time>2014-11-23T08:34:17Z</time>
      </trkpt>
      <trkpt lat="44.74936" lon="-0.0767">
        <ele>66.47</ele>
        <time>2014-11-23T08:34:38Z</time>
      </trkpt>
      <trkpt lat="44.74926" lon="-0.07688">
        <ele>63.1</ele>
        <time>2014-11-23T08:34:52Z</time>
      </trkpt>
      <trkpt lat="44.7491" lon="-0.07716">
        <ele>59.74</ele>
        <time>2014-11-23T08:35:14Z</time>
      </trkpt>
      <trkpt lat="44.74893" lon="-0.07743">
        <ele>57.34</ele>
        <time>2014-11-23T08:35:35Z</time>
      </trkpt>
      <trkpt lat="44.74879" lon="-0.07778">
        <ele>55.41</ele>
        <time>2014-11-23T08:35:58Z</time>
      </trkpt>
      <trkpt lat="44.74871" lon="-0.0781">
        <ele>54.93</ele>
        <time>2014-11-23T08:36:19Z</time>
      </trkpt>
      <trkpt lat="44.74869" lon="-0.07842">
        <ele>55.41</ele>
        <time>2014-11-23T08:36:39Z</time>
      </trkpt>
      <trkpt lat="44.7487" lon="-0.07883">
        <ele>56.86</ele>
        <time>2014-11-23T08:37:03Z</time>
      </trkpt>
      <trkpt lat="44.74872" lon="-0.07924">
        <ele>58.3</ele>
        <time>2014-11-23T08:37:27Z</time>
      </trkpt>
      <trkpt lat="44.74874" lon="-0.07964">
        <ele>59.26</ele>
        <time>2014-11-23T08:37:51Z</time>
      </trkpt>
      <trkpt lat="44.74874" lon="-0.07987">
        <ele>60.22</ele>
        <time>2014-11-23T08:38:08Z</time>
      </trkpt>
      <trkpt lat="44.74878" lon="-0.08028">
        <ele>61.66</ele>
        <time>2014-11-23T08:38:31Z</time>
      </trkpt>
      <trkpt lat="44.74879" lon="-0.08072">
        <ele>62.62</ele>
        <time>2014-11-23T08:38:56Z</time>
      </trkpt>
      <trkpt lat="44.74879" lon="-0.08105">
        <ele>64.07</ele>
        <time>2014-11-23T08:39:16Z</time>
      </trkpt>
      <trkpt lat="44.7488" lon="-0.08142">
        <ele>65.03</ele>
        <time>2014-11-23T08:39:39Z</time>
      </trkpt>
      <trkpt lat="44.74878" lon="-0.08182">
        <ele>65.51</ele>
        <time>2014-11-23T08:40:04Z</time>
      </trkpt>
      <trkpt lat="44.74876" lon="-0.08217">
        <ele>65.51</ele>
        <time>2014-11-23T08:40:26Z</time>
      </trkpt>
      <trkpt lat="44.74875" lon="-0.08237">
        <ele>64.07</ele>
        <time>2014-11-23T08:40:38Z</time>
      </trkpt>
      <trkpt lat="44.74875" lon="-0.0824">
        <ele>65.51</ele>
        <time>2014-11-23T08:40:40Z</time>
      </trkpt>
      <trkpt lat="44.74872" lon="-0.08251">
        <ele>65.99</ele>
        <time>2014-11-23T08:40:48Z</time>
      </trkpt>
      <trkpt lat="44.7487" lon="-0.08258">
        <ele>61.66</ele>
        <time>2014-11-23T08:40:54Z</time>
      </trkpt>
      <trkpt lat="44.74869" lon="-0.08259">
        <ele>70.79</ele>
        <time>2014-11-23T08:40:55Z</time>
      </trkpt>
      <trkpt lat="44.74869" lon="-0.0826">
        <ele>65.51</ele>
        <time>2014-11-23T08:40:56Z</time>
      </trkpt>
      <trkpt lat="44.74851" lon="-0.08278">
        <ele>66.95</ele>
        <time>2014-11-23T08:41:16Z</time>
      </trkpt>
      <trkpt lat="44.74835" lon="-0.08296">
        <ele>68.39</ele>
        <time>2014-11-23T08:41:32Z</time>
      </trkpt>
      <trkpt lat="44.74811" lon="-0.08312">
        <ele>69.35</ele>
        <time>2014-11-23T08:41:54Z</time>
      </trkpt>
      <trkpt lat="44.74791" lon="-0.08326">
        <ele>71.27</ele>
        <time>2014-11-23T08:42:13Z</time>
      </trkpt>
      <trkpt lat="44.74767" lon="-0.08334">
        <ele>72.24</ele>
        <time>2014-11-23T08:42:35Z</time>
      </trkpt>
      <trkpt lat="44.74762" lon="-0.08322">
        <ele>67.91</ele>
        <time>2014-11-23T08:42:44Z</time>
      </trkpt>
      <trkpt lat="44.74762" lon="-0.08321">
        <ele>75.6</ele>
        <time>2014-11-23T08:42:45Z</time>
      </trkpt>
      <trkpt lat="44.74761" lon="-0.08317">
        <ele>72.24</ele>
        <time>2014-11-23T08:42:47Z</time>
      </trkpt>
      <trkpt lat="44.74753" lon="-0.08292">
        <ele>73.68</ele>
        <time>2014-11-23T08:43:04Z</time>
      </trkpt>
      <trkpt lat="44.74748" lon="-0.08277">
        <ele>70.79</ele>
        <time>2014-11-23T08:43:14Z</time>
      </trkpt>
      <trkpt lat="44.74748" lon="-0.08273">
        <ele>73.68</ele>
        <time>2014-11-23T08:43:16Z</time>
      </trkpt>
      <trkpt lat="44.74747" lon="-0.0827">
        <ele>72.72</ele>
        <time>2014-11-23T08:43:18Z</time>
      </trkpt>
      <trkpt lat="44.74744" lon="-0.0826">
        <ele>75.6</ele>
        <time>2014-11-23T08:43:25Z</time>
      </trkpt>
      <trkpt lat="44.74744" lon="-0.08257">
        <ele>71.27</ele>
        <time>2014-11-23T08:43:27Z</time>
      </trkpt>
      <trkpt lat="44.74743" lon="-0.08256">
        <ele>71.27</ele>
        <time>2014-11-23T08:43:28Z</time>
      </trkpt>
      <trkpt lat="44.74741" lon="-0.08245">
        <ele>69.35</ele>
        <time>2014-11-23T08:43:35Z</time>
      </trkpt>
      <trkpt lat="44.74737" lon="-0.08238">
        <ele>72.72</ele>
        <time>2014-11-23T08:43:40Z</time>
      </trkpt>
      <trkpt lat="44.74736" lon="-0.08231">
        <ele>69.35</ele>
        <time>2014-11-23T08:43:45Z</time>
      </trkpt>
      <trkpt lat="44.74735" lon="-0.08229">
        <ele>75.12</ele>
        <time>2014-11-23T08:43:46Z</time>
      </trkpt>
      <trkpt lat="44.74734" lon="-0.08226">
        <ele>71.27</ele>
        <time>2014-11-23T08:43:48Z</time>
      </trkpt>
      <trkpt lat="44.7473" lon="-0.08211">
        <ele>75.12</ele>
        <time>2014-11-23T08:43:58Z</time>
      </trkpt>
      <trkpt lat="44.74729" lon="-0.08209">
        <ele>72.24</ele>
        <time>2014-11-23T08:43:59Z</time>
      </trkpt>
      <trkpt lat="44.74728" lon="-0.08204">
        <ele>72.24</ele>
        <time>2014-11-23T08:44:03Z</time>
      </trkpt>
      <trkpt lat="44.74725" lon="-0.08195">
        <ele>72.72</ele>
        <time>2014-11-23T08:44:09Z</time>
      </trkpt>
      <trkpt lat="44.74725" lon="-0.08192">
        <ele>75.12</ele>
        <time>2014-11-23T08:44:11Z</time>
      </trkpt>
      <trkpt lat="44.74724" lon="-0.0819">
        <ele>71.27</ele>
        <time>2014-11-23T08:44:13Z</time>
      </trkpt>
      <trkpt lat="44.74714" lon="-0.08175">
        <ele>72.24</ele>
        <time>2014-11-23T08:44:28Z</time>
      </trkpt>
      <trkpt lat="44.74699" lon="-0.08166">
        <ele>71.76</ele>
        <time>2014-11-23T08:44:44Z</time>
      </trkpt>
      <trkpt lat="44.74697" lon="-0.08164">
        <ele>74.64</ele>
        <time>2014-11-23T08:44:46Z</time>
      </trkpt>
      <trkpt lat="44.74678" lon="-0.08145">
        <ele>73.2</ele>
        <time>2014-11-23T08:45:08Z</time>
      </trkpt>
      <trkpt lat="44.74677" lon="-0.08144">
        <ele>73.2</ele>
        <time>2014-11-23T08:45:10Z</time>
      </trkpt>
      <trkpt lat="44.7466" lon="-0.0813">
        <ele>73.68</ele>
        <time>2014-11-23T08:45:27Z</time>
      </trkpt>
      <trkpt lat="44.74642" lon="-0.0811">
        <ele>74.16</ele>
        <time>2014-11-23T08:45:49Z</time>
      </trkpt>
      <trkpt lat="44.74627" lon="-0.08095">
        <ele>74.64</ele>
        <time>2014-11-23T08:46:06Z</time>
      </trkpt>
      <trkpt lat="44.74609" lon="-0.08074">
        <ele>75.6</ele>
        <time>2014-11-23T08:46:26Z</time>
      </trkpt>
      <trkpt lat="44.74601" lon="-0.08062">
        <ele>74.64</ele>
        <time>2014-11-23T08:46:35Z</time>
      </trkpt>
      <trkpt lat="44.74589" lon="-0.08046">
        <ele>76.08</ele>
        <time>2014-11-23T08:46:50Z</time>
      </trkpt>
      <trkpt lat="44.74575" lon="-0.08021">
        <ele>75.6</ele>
        <time>2014-11-23T08:47:09Z</time>
      </trkpt>
      <trkpt lat="44.74558" lon="-0.07994">
        <ele>74.16</ele>
        <time>2014-11-23T08:47:31Z</time>
      </trkpt>
      <trkpt lat="44.74544" lon="-0.07973">
        <ele>75.12</ele>
        <time>2014-11-23T08:47:48Z</time>
      </trkpt>
      <trkpt lat="44.74532" lon="-0.0795">
        <ele>75.12</ele>
        <time>2014-11-23T08:48:05Z</time>
      </trkpt>
      <trkpt lat="44.74516" lon="-0.07925">
        <ele>75.6</ele>
        <time>2014-11-23T08:48:24Z</time>
      </trkpt>
      <trkpt lat="44.7451" lon="-0.07916">
        <ele>74.16</ele>
        <time>2014-11-23T08:48:31Z</time>
      </trkpt>
      <trkpt lat="44.74494" lon="-0.07894">
        <ele>74.64</ele>
        <time>2014-11-23T08:48:49Z</time>
      </trkpt>
      <trkpt lat="44.74483" lon="-0.07869">
        <ele>74.16</ele>
        <time>2014-11-23T08:49:06Z</time>
      </trkpt>
      <trkpt lat="44.74482" lon="-0.07866">
        <ele>73.2</ele>
        <time>2014-11-23T08:49:08Z</time>
      </trkpt>
      <trkpt lat="44.74471" lon="-0.0784">
        <ele>74.16</ele>
        <time>2014-11-23T08:49:27Z</time>
      </trkpt>
      <trkpt lat="44.74459" lon="-0.07812">
        <ele>74.16</ele>
        <time>2014-11-23T08:49:47Z</time>
      </trkpt>
      <trkpt lat="44.74458" lon="-0.07809">
        <ele>74.16</ele>
        <time>2014-11-23T08:49:49Z</time>
      </trkpt>
      <trkpt lat="44.74448" lon="-0.07784">
        <ele>74.64</ele>
        <time>2014-11-23T08:50:07Z</time>
      </trkpt>
      <trkpt lat="44.74439" lon="-0.07754">
        <ele>74.16</ele>
        <time>2014-11-23T08:50:27Z</time>
      </trkpt>
      <trkpt lat="44.74429" lon="-0.07715">
        <ele>74.16</ele>
        <time>2014-11-23T08:50:51Z</time>
      </trkpt>
      <trkpt lat="44.74423" lon="-0.07687">
        <ele>74.16</ele>
        <time>2014-11-23T08:51:08Z</time>
      </trkpt>
      <trkpt lat="44.74415" lon="-0.07649">
        <ele>73.2</ele>
        <time>2014-11-23T08:51:30Z</time>
      </trkpt>
      <trkpt lat="44.74413" lon="-0.07641">
        <ele>74.64</ele>
        <time>2014-11-23T08:51:35Z</time>
      </trkpt>
      <trkpt lat="44.74411" lon="-0.07622">
        <ele>74.16</ele>
        <time>2014-11-23T08:51:54Z</time>
      </trkpt>
      <trkpt lat="44.7441" lon="-0.07617">
        <ele>72.72</ele>
        <time>2014-11-23T08:51:58Z</time>
      </trkpt>
      <trkpt lat="44.74407" lon="-0.07616">
        <ele>74.16</ele>
        <time>2014-11-23T08:52:07Z</time>
      </trkpt>
      <trkpt lat="44.74393" lon="-0.07634">
        <ele>74.64</ele>
        <time>2014-11-23T08:52:24Z</time>
      </trkpt>
      <trkpt lat="44.74374" lon="-0.07644">
        <ele>74.64</ele>
        <time>2014-11-23T08:52:42Z</time>
      </trkpt>
      <trkpt lat="44.7436" lon="-0.07634">
        <ele>74.16</ele>
        <time>2014-11-23T08:52:57Z</time>
      </trkpt>
      <trkpt lat="44.74354" lon="-0.07625">
        <ele>75.6</ele>
        <time>2014-11-23T08:53:05Z</time>
      </trkpt>
      <trkpt lat="44.74353" lon="-0.07622">
        <ele>75.6</ele>
        <time>2014-11-23T08:53:07Z</time>
      </trkpt>
      <trkpt lat="44.7435" lon="-0.0761">
        <ele>75.6</ele>
        <time>2014-11-23T08:53:15Z</time>
      </trkpt>
      <trkpt lat="44.74337" lon="-0.07573">
        <ele>75.12</ele>
        <time>2014-11-23T08:53:39Z</time>
      </trkpt>
      <trkpt lat="44.74323" lon="-0.07542">
        <ele>74.16</ele>
        <time>2014-11-23T08:54:01Z</time>
      </trkpt>
      <trkpt lat="44.74302" lon="-0.07533">
        <ele>73.2</ele>
        <time>2014-11-23T08:54:20Z</time>
      </trkpt>
      <trkpt lat="44.74276" lon="-0.07534">
        <ele>71.27</ele>
        <time>2014-11-23T08:54:41Z</time>
      </trkpt>
      <trkpt lat="44.74249" lon="-0.07545">
        <ele>69.35</ele>
        <time>2014-11-23T08:55:04Z</time>
      </trkpt>
      <trkpt lat="44.74223" lon="-0.07557">
        <ele>67.91</ele>
        <time>2014-11-23T08:55:26Z</time>
      </trkpt>
      <trkpt lat="44.74189" lon="-0.07565">
        <ele>67.43</ele>
        <time>2014-11-23T08:55:54Z</time>
      </trkpt>
      <trkpt lat="44.74159" lon="-0.07576">
        <ele>66.95</ele>
        <time>2014-11-23T08:56:18Z</time>
      </trkpt>
      <trkpt lat="44.74129" lon="-0.07582">
        <ele>65.03</ele>
        <time>2014-11-23T08:56:42Z</time>
      </trkpt>
      <trkpt lat="44.741" lon="-0.07591">
        <ele>64.55</ele>
        <time>2014-11-23T08:57:05Z</time>
      </trkpt>
      <trkpt lat="44.74069" lon="-0.07597">
        <ele>63.58</ele>
        <time>2014-11-23T08:57:30Z</time>
      </trkpt>
      <trkpt lat="44.74042" lon="-0.07606">
        <ele>62.62</ele>
        <time>2014-11-23T08:57:54Z</time>
      </trkpt>
      <trkpt lat="44.74017" lon="-0.07618">
        <ele>62.62</ele>
        <time>2014-11-23T08:58:16Z</time>
      </trkpt>
      <trkpt lat="44.73993" lon="-0.07629">
        <ele>63.1</ele>
        <time>2014-11-23T08:58:38Z</time>
      </trkpt>
      <trkpt lat="44.7397" lon="-0.07642">
        <ele>63.58</ele>
        <time>2014-11-23T08:58:57Z</time>
      </trkpt>
      <trkpt lat="44.73944" lon="-0.07659">
        <ele>65.03</ele>
        <time>2014-11-23T08:59:20Z</time>
      </trkpt>
      <trkpt lat="44.73919" lon="-0.07671">
        <ele>66.95</ele>
        <time>2014-11-23T08:59:43Z</time>
      </trkpt>
      <trkpt lat="44.73908" lon="-0.0767">
        <ele>68.87</ele>
        <time>2014-11-23T08:59:59Z</time>
      </trkpt>
      <trkpt lat="44.73892" lon="-0.07681">
        <ele>69.35</ele>
        <time>2014-11-23T09:00:13Z</time>
      </trkpt>
      <trkpt lat="44.73869" lon="-0.07695">
        <ele>70.79</ele>
        <time>2014-11-23T09:00:33Z</time>
      </trkpt>
      <trkpt lat="44.73847" lon="-0.07707">
        <ele>71.27</ele>
        <time>2014-11-23T09:00:53Z</time>
      </trkpt>
      <trkpt lat="44.73823" lon="-0.0772">
        <ele>71.27</ele>
        <time>2014-11-23T09:01:14Z</time>
      </trkpt>
      <trkpt lat="44.73805" lon="-0.07729">
        <ele>71.76</ele>
        <time>2014-11-23T09:01:31Z</time>
      </trkpt>
      <trkpt lat="44.73782" lon="-0.0774">
        <ele>71.76</ele>
        <time>2014-11-23T09:01:54Z</time>
      </trkpt>
      <trkpt lat="44.73778" lon="-0.07744">
        <ele>71.76</ele>
        <time>2014-11-23T09:01:58Z</time>
      </trkpt>
      <trkpt lat="44.73765" lon="-0.07746">
        <ele>71.76</ele>
        <time>2014-11-23T09:02:13Z</time>
      </trkpt>
      <trkpt lat="44.73755" lon="-0.07732">
        <ele>70.79</ele>
        <time>2014-11-23T09:02:26Z</time>
      </trkpt>
      <trkpt lat="44.7375" lon="-0.07705">
        <ele>70.79</ele>
        <time>2014-11-23T09:02:44Z</time>
      </trkpt>
      <trkpt lat="44.73747" lon="-0.07669">
        <ele>69.83</ele>
        <time>2014-11-23T09:03:06Z</time>
      </trkpt>
      <trkpt lat="44.73743" lon="-0.07624">
        <ele>67.43</ele>
        <time>2014-11-23T09:03:32Z</time>
      </trkpt>
      <trkpt lat="44.73732" lon="-0.07584">
        <ele>65.03</ele>
        <time>2014-11-23T09:03:56Z</time>
      </trkpt>
      <trkpt lat="44.73723" lon="-0.07556">
        <ele>65.51</ele>
        <time>2014-11-23T09:04:16Z</time>
      </trkpt>
      <trkpt lat="44.73714" lon="-0.07529">
        <ele>66.95</ele>
        <time>2014-11-23T09:04:34Z</time>
      </trkpt>
      <trkpt lat="44.73708" lon="-0.07501">
        <ele>66.95</ele>
        <time>2014-11-23T09:04:52Z</time>
      </trkpt>
      <trkpt lat="44.73703" lon="-0.07474">
        <ele>68.39</ele>
        <time>2014-11-23T09:05:10Z</time>
      </trkpt>
      <trkpt lat="44.73698" lon="-0.07442">
        <ele>68.39</ele>
        <time>2014-11-23T09:05:29Z</time>
      </trkpt>
      <trkpt lat="44.73694" lon="-0.07416">
        <ele>69.35</ele>
        <time>2014-11-23T09:05:47Z</time>
      </trkpt>
      <trkpt lat="44.73693" lon="-0.07406">
        <ele>70.31</ele>
        <time>2014-11-23T09:05:54Z</time>
      </trkpt>
      <trkpt lat="44.73692" lon="-0.07403">
        <ele>69.83</ele>
        <time>2014-11-23T09:05:56Z</time>
      </trkpt>
      <trkpt lat="44.73688" lon="-0.07375">
        <ele>69.35</ele>
        <time>2014-11-23T09:06:14Z</time>
      </trkpt>
      <trkpt lat="44.73685" lon="-0.07347">
        <ele>69.83</ele>
        <time>2014-11-23T09:06:31Z</time>
      </trkpt>
      <trkpt lat="44.73684" lon="-0.07343">
        <ele>70.79</ele>
        <time>2014-11-23T09:06:33Z</time>
      </trkpt>
      <trkpt lat="44.73681" lon="-0.07323">
        <ele>70.79</ele>
        <time>2014-11-23T09:06:45Z</time>
      </trkpt>
      <trkpt lat="44.73673" lon="-0.07293">
        <ele>70.79</ele>
        <time>2014-11-23T09:07:04Z</time>
      </trkpt>
      <trkpt lat="44.73664" lon="-0.07263">
        <ele>71.27</ele>
        <time>2014-11-23T09:07:23Z</time>
      </trkpt>
      <trkpt lat="44.73652" lon="-0.07246">
        <ele>72.24</ele>
        <time>2014-11-23T09:07:40Z</time>
      </trkpt>
      <trkpt lat="44.7365" lon="-0.07248">
        <ele>72.72</ele>
        <time>2014-11-23T09:07:54Z</time>
      </trkpt>
      <trkpt lat="44.73649" lon="-0.07249">
        <ele>72.24</ele>
        <time>2014-11-23T09:08:27Z</time>
      </trkpt>
      <trkpt lat="44.73649" lon="-0.0725">
        <ele>71.76</ele>
        <time>2014-11-23T09:08:33Z</time>
      </trkpt>
      <trkpt lat="44.73657" lon="-0.0723">
        <ele>70.79</ele>
        <time>2014-11-23T09:08:45Z</time>
      </trkpt>
      <trkpt lat="44.73656" lon="-0.07227">
        <ele>69.83</ele>
        <time>2014-11-23T09:08:47Z</time>
      </trkpt>
      <trkpt lat="44.7365" lon="-0.07206">
        <ele>70.79</ele>
        <time>2014-11-23T09:09:04Z</time>
      </trkpt>
      <trkpt lat="44.73643" lon="-0.07182">
        <ele>70.79</ele>
        <time>2014-11-23T09:09:20Z</time>
      </trkpt>
      <trkpt lat="44.73642" lon="-0.07173">
        <ele>71.76</ele>
        <time>2014-11-23T09:09:27Z</time>
      </trkpt>
      <trkpt lat="44.73639" lon="-0.07162">
        <ele>71.27</ele>
        <time>2014-11-23T09:09:34Z</time>
      </trkpt>
      <trkpt lat="44.73634" lon="-0.07135">
        <ele>72.72</ele>
        <time>2014-11-23T09:09:51Z</time>
      </trkpt>
      <trkpt lat="44.73633" lon="-0.07119">
        <ele>73.2</ele>
        <time>2014-11-23T09:10:06Z</time>
      </trkpt>
      <trkpt lat="44.73633" lon="-0.07101">
        <ele>73.2</ele>
        <time>2014-11-23T09:10:18Z</time>
      </trkpt>
      <trkpt lat="44.73634" lon="-0.07069">
        <ele>73.68</ele>
        <time>2014-11-23T09:10:35Z</time>
      </trkpt>
      <trkpt lat="44.73637" lon="-0.07032">
        <ele>73.68</ele>
        <time>2014-11-23T09:10:56Z</time>
      </trkpt>
      <trkpt lat="44.73638" lon="-0.06993">
        <ele>73.68</ele>
        <time>2014-11-23T09:11:18Z</time>
      </trkpt>
      <trkpt lat="44.73641" lon="-0.06957">
        <ele>73.68</ele>
        <time>2014-11-23T09:11:39Z</time>
      </trkpt>
      <trkpt lat="44.7364" lon="-0.0693">
        <ele>73.2</ele>
        <time>2014-11-23T09:11:57Z</time>
      </trkpt>
      <trkpt lat="44.73639" lon="-0.06929">
        <ele>75.12</ele>
        <time>2014-11-23T09:11:59Z</time>
      </trkpt>
      <trkpt lat="44.73621" lon="-0.06933">
        <ele>72.72</ele>
        <time>2014-11-23T09:12:16Z</time>
      </trkpt>
      <trkpt lat="44.73619" lon="-0.06933">
        <ele>73.68</ele>
        <time>2014-11-23T09:12:18Z</time>
      </trkpt>
      <trkpt lat="44.73595" lon="-0.06942">
        <ele>74.64</ele>
        <time>2014-11-23T09:12:37Z</time>
      </trkpt>
      <trkpt lat="44.73578" lon="-0.06947">
        <ele>75.6</ele>
        <time>2014-11-23T09:12:52Z</time>
      </trkpt>
      <trkpt lat="44.73554" lon="-0.06954">
        <ele>76.08</ele>
        <time>2014-11-23T09:13:13Z</time>
      </trkpt>
      <trkpt lat="44.73529" lon="-0.06965">
        <ele>77.52</ele>
        <time>2014-11-23T09:13:33Z</time>
      </trkpt>
      <trkpt lat="44.73516" lon="-0.0697">
        <ele>78</ele>
        <time>2014-11-23T09:13:47Z</time>
      </trkpt>
      <trkpt lat="44.73493" lon="-0.0698">
        <ele>79.45</ele>
        <time>2014-11-23T09:14:07Z</time>
      </trkpt>
      <trkpt lat="44.73473" lon="-0.0699">
        <ele>80.89</ele>
        <time>2014-11-23T09:14:25Z</time>
      </trkpt>
      <trkpt lat="44.73454" lon="-0.06998">
        <ele>81.85</ele>
        <time>2014-11-23T09:14:43Z</time>
      </trkpt>
      <trkpt lat="44.73434" lon="-0.07007">
        <ele>83.77</ele>
        <time>2014-11-23T09:15:02Z</time>
      </trkpt>
      <trkpt lat="44.73434" lon="-0.07006">
        <ele>83.29</ele>
        <time>2014-11-23T09:15:17Z</time>
      </trkpt>
      <trkpt lat="44.7342" lon="-0.07013">
        <ele>83.77</ele>
        <time>2014-11-23T09:15:36Z</time>
      </trkpt>
      <trkpt lat="44.73397" lon="-0.07024">
        <ele>85.21</ele>
        <time>2014-11-23T09:15:56Z</time>
      </trkpt>
      <trkpt lat="44.73377" lon="-0.07031">
        <ele>86.66</ele>
        <time>2014-11-23T09:16:14Z</time>
      </trkpt>
      <trkpt lat="44.7336" lon="-0.07041">
        <ele>88.1</ele>
        <time>2014-11-23T09:16:30Z</time>
      </trkpt>
      <trkpt lat="44.73337" lon="-0.07051">
        <ele>90.5</ele>
        <time>2014-11-23T09:16:50Z</time>
      </trkpt>
      <trkpt lat="44.73315" lon="-0.07054">
        <ele>90.02</ele>
        <time>2014-11-23T09:17:11Z</time>
      </trkpt>
      <trkpt lat="44.73294" lon="-0.07048">
        <ele>89.06</ele>
        <time>2014-11-23T09:17:31Z</time>
      </trkpt>
      <trkpt lat="44.73269" lon="-0.07051">
        <ele>87.14</ele>
        <time>2014-11-23T09:17:52Z</time>
      </trkpt>
      <trkpt lat="44.7324" lon="-0.07061">
        <ele>87.62</ele>
        <time>2014-11-23T09:18:15Z</time>
      </trkpt>
      <trkpt lat="44.73216" lon="-0.07068">
        <ele>86.66</ele>
        <time>2014-11-23T09:18:36Z</time>
      </trkpt>
      <trkpt lat="44.73194" lon="-0.07074">
        <ele>86.18</ele>
        <time>2014-11-23T09:18:57Z</time>
      </trkpt>
      <trkpt lat="44.73175" lon="-0.07077">
        <ele>86.66</ele>
        <time>2014-11-23T09:19:16Z</time>
      </trkpt>
      <trkpt lat="44.73155" lon="-0.07081">
        <ele>87.14</ele>
        <time>2014-11-23T09:19:33Z</time>
      </trkpt>
      <trkpt lat="44.73133" lon="-0.07086">
        <ele>87.14</ele>
        <time>2014-11-23T09:19:53Z</time>
      </trkpt>
      <trkpt lat="44.7312" lon="-0.07091">
        <ele>87.62</ele>
        <time>2014-11-23T09:20:09Z</time>
      </trkpt>
      <trkpt lat="44.73109" lon="-0.07087">
        <ele>88.58</ele>
        <time>2014-11-23T09:20:26Z</time>
      </trkpt>
      <trkpt lat="44.73101" lon="-0.07094">
        <ele>88.58</ele>
        <time>2014-11-23T09:20:50Z</time>
      </trkpt>
      <trkpt lat="44.73081" lon="-0.07101">
        <ele>90.02</ele>
        <time>2014-11-23T09:21:08Z</time>
      </trkpt>
      <trkpt lat="44.73076" lon="-0.07105">
        <ele>90.02</ele>
        <time>2014-11-23T09:21:27Z</time>
      </trkpt>
      <trkpt lat="44.73079" lon="-0.07101">
        <ele>90.02</ele>
        <time>2014-11-23T09:21:53Z</time>
      </trkpt>
      <trkpt lat="44.73077" lon="-0.07106">
        <ele>89.54</ele>
        <time>2014-11-23T09:22:17Z</time>
      </trkpt>
      <trkpt lat="44.73077" lon="-0.07107">
        <ele>89.54</ele>
        <time>2014-11-23T09:22:43Z</time>
      </trkpt>
      <trkpt lat="44.73079" lon="-0.07107">
        <ele>90.5</ele>
        <time>2014-11-23T09:23:00Z</time>
      </trkpt>
      <trkpt lat="44.73074" lon="-0.07105">
        <ele>90.02</ele>
        <time>2014-11-23T09:23:21Z</time>
      </trkpt>
      <trkpt lat="44.73076" lon="-0.07106">
        <ele>90.5</ele>
        <time>2014-11-23T09:23:42Z</time>
      </trkpt>
      <trkpt lat="44.73076" lon="-0.07106">
        <ele>90.02</ele>
        <time>2014-11-23T09:24:04Z</time>
      </trkpt>
      <trkpt lat="44.7308" lon="-0.07107">
        <ele>90.5</ele>
        <time>2014-11-23T09:24:29Z</time>
      </trkpt>
      <trkpt lat="44.73078" lon="-0.0711">
        <ele>90.5</ele>
        <time>2014-11-23T09:24:48Z</time>
      </trkpt>
      <trkpt lat="44.73073" lon="-0.07108">
        <ele>90.98</ele>
        <time>2014-11-23T09:25:02Z</time>
      </trkpt>
      <trkpt lat="44.73074" lon="-0.07108">
        <ele>91.46</ele>
        <time>2014-11-23T09:25:18Z</time>
      </trkpt>
      <trkpt lat="44.7308" lon="-0.071">
        <ele>91.94</ele>
        <time>2014-11-23T09:25:46Z</time>
      </trkpt>
      <trkpt lat="44.73076" lon="-0.071">
        <ele>91.46</ele>
        <time>2014-11-23T09:26:11Z</time>
      </trkpt>
      <trkpt lat="44.73076" lon="-0.07095">
        <ele>92.42</ele>
        <time>2014-11-23T09:26:32Z</time>
      </trkpt>
      <trkpt lat="44.73062" lon="-0.07108">
        <ele>93.39</ele>
        <time>2014-11-23T09:26:50Z</time>
      </trkpt>
      <trkpt lat="44.7306" lon="-0.07108">
        <ele>93.39</ele>
        <time>2014-11-23T09:27:11Z</time>
      </trkpt>
      <trkpt lat="44.73061" lon="-0.07096">
        <ele>93.87</ele>
        <time>2014-11-23T09:27:28Z</time>
      </trkpt>
      <trkpt lat="44.73045" lon="-0.07107">
        <ele>94.83</ele>
        <time>2014-11-23T09:27:43Z</time>
      </trkpt>
      <trkpt lat="44.73038" lon="-0.07109">
        <ele>95.79</ele>
        <time>2014-11-23T09:27:51Z</time>
      </trkpt>
      <trkpt lat="44.73022" lon="-0.0711">
        <ele>97.71</ele>
        <time>2014-11-23T09:28:07Z</time>
      </trkpt>
      <trkpt lat="44.73008" lon="-0.07109">
        <ele>99.15</ele>
        <time>2014-11-23T09:28:23Z</time>
      </trkpt>
      <trkpt lat="44.72987" lon="-0.07106">
        <ele>101.08</ele>
        <time>2014-11-23T09:28:41Z</time>
      </trkpt>
      <trkpt lat="44.72968" lon="-0.07105">
        <ele>102.04</ele>
        <time>2014-11-23T09:28:59Z</time>
      </trkpt>
      <trkpt lat="44.7295" lon="-0.07113">
        <ele>102.04</ele>
        <time>2014-11-23T09:29:16Z</time>
      </trkpt>
      <trkpt lat="44.72931" lon="-0.07128">
        <ele>102.04</ele>
        <time>2014-11-23T09:29:37Z</time>
      </trkpt>
      <trkpt lat="44.72914" lon="-0.07151">
        <ele>101.08</ele>
        <time>2014-11-23T09:29:58Z</time>
      </trkpt>
      <trkpt lat="44.729" lon="-0.07171">
        <ele>101.56</ele>
        <time>2014-11-23T09:30:16Z</time>
      </trkpt>
      <trkpt lat="44.72886" lon="-0.07191">
        <ele>101.56</ele>
        <time>2014-11-23T09:30:32Z</time>
      </trkpt>
      <trkpt lat="44.72875" lon="-0.0721">
        <ele>101.56</ele>
        <time>2014-11-23T09:30:47Z</time>
      </trkpt>
      <trkpt lat="44.72866" lon="-0.07221">
        <ele>101.56</ele>
        <time>2014-11-23T09:31:00Z</time>
      </trkpt>
      <trkpt lat="44.72856" lon="-0.07235">
        <ele>101.08</ele>
        <time>2014-11-23T09:31:14Z</time>
      </trkpt>
      <trkpt lat="44.7284" lon="-0.0725">
        <ele>101.08</ele>
        <time>2014-11-23T09:31:31Z</time>
      </trkpt>
      <trkpt lat="44.72821" lon="-0.07264">
        <ele>101.08</ele>
        <time>2014-11-23T09:31:51Z</time>
      </trkpt>
      <trkpt lat="44.728" lon="-0.07278">
        <ele>101.08</ele>
        <time>2014-11-23T09:32:10Z</time>
      </trkpt>
      <trkpt lat="44.72781" lon="-0.07292">
        <ele>101.08</ele>
        <time>2014-11-23T09:32:27Z</time>
      </trkpt>
      <trkpt lat="44.72763" lon="-0.07303">
        <ele>101.56</ele>
        <time>2014-11-23T09:32:45Z</time>
      </trkpt>
      <trkpt lat="44.72743" lon="-0.0731">
        <ele>102.52</ele>
        <time>2014-11-23T09:33:02Z</time>
      </trkpt>
      <trkpt lat="44.72721" lon="-0.0732">
        <ele>101.08</ele>
        <time>2014-11-23T09:33:22Z</time>
      </trkpt>
      <trkpt lat="44.72704" lon="-0.07333">
        <ele>100.11</ele>
        <time>2014-11-23T09:33:42Z</time>
      </trkpt>
      <trkpt lat="44.72684" lon="-0.07342">
        <ele>98.67</ele>
        <time>2014-11-23T09:34:01Z</time>
      </trkpt>
      <trkpt lat="44.72665" lon="-0.07348">
        <ele>96.75</ele>
        <time>2014-11-23T09:34:20Z</time>
      </trkpt>
      <trkpt lat="44.72653" lon="-0.07352">
        <ele>95.31</ele>
        <time>2014-11-23T09:34:36Z</time>
      </trkpt>
      <trkpt lat="44.72633" lon="-0.07362">
        <ele>94.35</ele>
        <time>2014-11-23T09:34:53Z</time>
      </trkpt>
      <trkpt lat="44.72611" lon="-0.07371">
        <ele>91.94</ele>
        <time>2014-11-23T09:35:14Z</time>
      </trkpt>
      <trkpt lat="44.72594" lon="-0.07378">
        <ele>90.98</ele>
        <time>2014-11-23T09:35:31Z</time>
      </trkpt>
      <trkpt lat="44.72578" lon="-0.07388">
        <ele>89.54</ele>
        <time>2014-11-23T09:35:48Z</time>
      </trkpt>
      <trkpt lat="44.7256" lon="-0.07396">
        <ele>89.54</ele>
        <time>2014-11-23T09:36:04Z</time>
      </trkpt>
      <trkpt lat="44.72542" lon="-0.07403">
        <ele>88.1</ele>
        <time>2014-11-23T09:36:19Z</time>
      </trkpt>
      <trkpt lat="44.72524" lon="-0.0741">
        <ele>86.66</ele>
        <time>2014-11-23T09:36:36Z</time>
      </trkpt>
      <trkpt lat="44.72506" lon="-0.07415">
        <ele>85.69</ele>
        <time>2014-11-23T09:36:53Z</time>
      </trkpt>
      <trkpt lat="44.7249" lon="-0.07423">
        <ele>84.73</ele>
        <time>2014-11-23T09:37:10Z</time>
      </trkpt>
      <trkpt lat="44.72472" lon="-0.07435">
        <ele>83.77</ele>
        <time>2014-11-23T09:37:30Z</time>
      </trkpt>
      <trkpt lat="44.72452" lon="-0.07446">
        <ele>83.77</ele>
        <time>2014-11-23T09:37:46Z</time>
      </trkpt>
      <trkpt lat="44.7244" lon="-0.07449">
        <ele>82.81</ele>
        <time>2014-11-23T09:37:58Z</time>
      </trkpt>
      <trkpt lat="44.72418" lon="-0.07459">
        <ele>81.85</ele>
        <time>2014-11-23T09:38:16Z</time>
      </trkpt>
      <trkpt lat="44.72398" lon="-0.07464">
        <ele>82.81</ele>
        <time>2014-11-23T09:38:34Z</time>
      </trkpt>
      <trkpt lat="44.72379" lon="-0.07471">
        <ele>83.29</ele>
        <time>2014-11-23T09:38:50Z</time>
      </trkpt>
      <trkpt lat="44.72358" lon="-0.07477">
        <ele>83.77</ele>
        <time>2014-11-23T09:39:09Z</time>
      </trkpt>
      <trkpt lat="44.72336" lon="-0.07486">
        <ele>83.29</ele>
        <time>2014-11-23T09:39:28Z</time>
      </trkpt>
      <trkpt lat="44.72315" lon="-0.07489">
        <ele>82.33</ele>
        <time>2014-11-23T09:39:45Z</time>
      </trkpt>
      <trkpt lat="44.72297" lon="-0.0749">
        <ele>81.85</ele>
        <time>2014-11-23T09:39:59Z</time>
      </trkpt>
      <trkpt lat="44.72276" lon="-0.07494">
        <ele>81.37</ele>
        <time>2014-11-23T09:40:18Z</time>
      </trkpt>
      <trkpt lat="44.72259" lon="-0.07495">
        <ele>80.41</ele>
        <time>2014-11-23T09:40:35Z</time>
      </trkpt>
      <trkpt lat="44.72238" lon="-0.07501">
        <ele>80.41</ele>
        <time>2014-11-23T09:40:51Z</time>
      </trkpt>
      <trkpt lat="44.72215" lon="-0.07507">
        <ele>79.93</ele>
        <time>2014-11-23T09:41:10Z</time>
      </trkpt>
      <trkpt lat="44.72195" lon="-0.07511">
        <ele>79.45</ele>
        <time>2014-11-23T09:41:27Z</time>
      </trkpt>
      <trkpt lat="44.72178" lon="-0.07513">
        <ele>79.45</ele>
        <time>2014-11-23T09:41:43Z</time>
      </trkpt>
      <trkpt lat="44.72153" lon="-0.07521">
        <ele>79.45</ele>
        <time>2014-11-23T09:42:03Z</time>
      </trkpt>
      <trkpt lat="44.72132" lon="-0.07525">
        <ele>78</ele>
        <time>2014-11-23T09:42:21Z</time>
      </trkpt>
      <trkpt lat="44.72111" lon="-0.07526">
        <ele>77.04</ele>
        <time>2014-11-23T09:42:39Z</time>
      </trkpt>
      <trkpt lat="44.72101" lon="-0.07529">
        <ele>77.04</ele>
        <time>2014-11-23T09:42:50Z</time>
      </trkpt>
      <trkpt lat="44.72072" lon="-0.07536">
        <ele>75.6</ele>
        <time>2014-11-23T09:43:12Z</time>
      </trkpt>
      <trkpt lat="44.72054" lon="-0.0754">
        <ele>76.08</ele>
        <time>2014-11-23T09:43:28Z</time>
      </trkpt>
      <trkpt lat="44.72034" lon="-0.07548">
        <ele>72.72</ele>
        <time>2014-11-23T09:43:44Z</time>
      </trkpt>
      <trkpt lat="44.72015" lon="-0.07555">
        <ele>71.76</ele>
        <time>2014-11-23T09:43:59Z</time>
      </trkpt>
      <trkpt lat="44.71997" lon="-0.07561">
        <ele>70.31</ele>
        <time>2014-11-23T09:44:16Z</time>
      </trkpt>
      <trkpt lat="44.7198" lon="-0.07566">
        <ele>68.87</ele>
        <time>2014-11-23T09:44:34Z</time>
      </trkpt>
      <trkpt lat="44.71967" lon="-0.07579">
        <ele>67.43</ele>
        <time>2014-11-23T09:44:51Z</time>
      </trkpt>
      <trkpt lat="44.71962" lon="-0.07595">
        <ele>67.43</ele>
        <time>2014-11-23T09:45:07Z</time>
      </trkpt>
      <trkpt lat="44.71947" lon="-0.0761">
        <ele>66.47</ele>
        <time>2014-11-23T09:45:23Z</time>
      </trkpt>
      <trkpt lat="44.71932" lon="-0.07624">
        <ele>65.99</ele>
        <time>2014-11-23T09:45:39Z</time>
      </trkpt>
      <trkpt lat="44.71918" lon="-0.07637">
        <ele>65.99</ele>
        <time>2014-11-23T09:45:54Z</time>
      </trkpt>
      <trkpt lat="44.71903" lon="-0.07649">
        <ele>65.51</ele>
        <time>2014-11-23T09:46:07Z</time>
      </trkpt>
      <trkpt lat="44.71887" lon="-0.07657">
        <ele>65.99</ele>
        <time>2014-11-23T09:46:21Z</time>
      </trkpt>
      <trkpt lat="44.71886" lon="-0.07657">
        <ele>66.47</ele>
        <time>2014-11-23T09:46:22Z</time>
      </trkpt>
      <trkpt lat="44.71868" lon="-0.07667">
        <ele>66.95</ele>
        <time>2014-11-23T09:46:39Z</time>
      </trkpt>
      <trkpt lat="44.7185" lon="-0.07678">
        <ele>68.87</ele>
        <time>2014-11-23T09:46:58Z</time>
      </trkpt>
      <trkpt lat="44.71842" lon="-0.07684">
        <ele>68.39</ele>
        <time>2014-11-23T09:47:11Z</time>
      </trkpt>
      <trkpt lat="44.71826" lon="-0.07696">
        <ele>69.35</ele>
        <time>2014-11-23T09:47:25Z</time>
      </trkpt>
      <trkpt lat="44.71813" lon="-0.07703">
        <ele>69.83</ele>
        <time>2014-11-23T09:47:38Z</time>
      </trkpt>
      <trkpt lat="44.71795" lon="-0.07716">
        <ele>70.79</ele>
        <time>2014-11-23T09:47:54Z</time>
      </trkpt>
      <trkpt lat="44.71782" lon="-0.07725">
        <ele>71.27</ele>
        <time>2014-11-23T09:48:08Z</time>
      </trkpt>
      <trkpt lat="44.7178" lon="-0.07727">
        <ele>71.27</ele>
        <time>2014-11-23T09:48:10Z</time>
      </trkpt>
      <trkpt lat="44.71776" lon="-0.07729">
        <ele>71.27</ele>
        <time>2014-11-23T09:48:14Z</time>
      </trkpt>
      <trkpt lat="44.71759" lon="-0.07741">
        <ele>72.72</ele>
        <time>2014-11-23T09:48:31Z</time>
      </trkpt>
      <trkpt lat="44.71745" lon="-0.07749">
        <ele>72.24</ele>
        <time>2014-11-23T09:48:46Z</time>
      </trkpt>
      <trkpt lat="44.71745" lon="-0.07748">
        <ele>72.24</ele>
        <time>2014-11-23T09:49:02Z</time>
      </trkpt>
      <trkpt lat="44.71742" lon="-0.07748">
        <ele>72.72</ele>
        <time>2014-11-23T09:49:19Z</time>
      </trkpt>
      <trkpt lat="44.7174" lon="-0.07746">
        <ele>72.24</ele>
        <time>2014-11-23T09:49:22Z</time>
      </trkpt>
      <trkpt lat="44.71742" lon="-0.07736">
        <ele>73.68</ele>
        <time>2014-11-23T09:49:34Z</time>
      </trkpt>
      <trkpt lat="44.71742" lon="-0.07728">
        <ele>73.68</ele>
        <time>2014-11-23T09:49:44Z</time>
      </trkpt>
      <trkpt lat="44.71733" lon="-0.07725">
        <ele>74.64</ele>
        <time>2014-11-23T09:49:51Z</time>
      </trkpt>
      <trkpt lat="44.71727" lon="-0.07716">
        <ele>74.64</ele>
        <time>2014-11-23T09:50:04Z</time>
      </trkpt>
      <trkpt lat="44.71726" lon="-0.07717">
        <ele>74.64</ele>
        <time>2014-11-23T09:50:36Z</time>
      </trkpt>
      <trkpt lat="44.7173" lon="-0.07722">
        <ele>74.64</ele>
        <time>2014-11-23T09:50:57Z</time>
      </trkpt>
      <trkpt lat="44.71741" lon="-0.07729">
        <ele>74.16</ele>
        <time>2014-11-23T09:51:10Z</time>
      </trkpt>
      <trkpt lat="44.71751" lon="-0.07737">
        <ele>73.2</ele>
        <time>2014-11-23T09:51:24Z</time>
      </trkpt>
      <trkpt lat="44.71752" lon="-0.07741">
        <ele>72.72</ele>
        <time>2014-11-23T09:51:38Z</time>
      </trkpt>
      <trkpt lat="44.71752" lon="-0.07741">
        <ele>72.72</ele>
        <time>2014-11-23T09:51:57Z</time>
      </trkpt>
      <trkpt lat="44.71756" lon="-0.07739">
        <ele>71.76</ele>
        <time>2014-11-23T09:52:19Z</time>
      </trkpt>
      <trkpt lat="44.71758" lon="-0.0774">
        <ele>71.27</ele>
        <time>2014-11-23T09:52:31Z</time>
      </trkpt>
      <trkpt lat="44.71753" lon="-0.07739">
        <ele>72.72</ele>
        <time>2014-11-23T09:52:53Z</time>
      </trkpt>
      <trkpt lat="44.71744" lon="-0.07746">
        <ele>72.72</ele>
        <time>2014-11-23T09:53:07Z</time>
      </trkpt>
      <trkpt lat="44.71745" lon="-0.07748">
        <ele>72.72</ele>
        <time>2014-11-23T09:53:21Z</time>
      </trkpt>
      <trkpt lat="44.71746" lon="-0.07748">
        <ele>73.2</ele>
        <time>2014-11-23T09:53:45Z</time>
      </trkpt>
      <trkpt lat="44.71745" lon="-0.07748">
        <ele>70.31</ele>
        <time>2014-11-23T09:54:02Z</time>
      </trkpt>
      <trkpt lat="44.71745" lon="-0.07748">
        <ele>71.76</ele>
        <time>2014-11-23T09:54:03Z</time>
      </trkpt>
      <trkpt lat="44.71745" lon="-0.07747">
        <ele>77.04</ele>
        <time>2014-11-23T09:54:04Z</time>
      </trkpt>
      <trkpt lat="44.71745" lon="-0.07747">
        <ele>73.68</ele>
        <time>2014-11-23T09:54:05Z</time>
      </trkpt>
      <trkpt lat="44.71744" lon="-0.07749">
        <ele>73.2</ele>
        <time>2014-11-23T09:54:25Z</time>
      </trkpt>
      <trkpt lat="44.71744" lon="-0.0775">
        <ele>74.16</ele>
        <time>2014-11-23T09:54:43Z</time>
      </trkpt>
      <trkpt lat="44.71746" lon="-0.07749">
        <ele>73.2</ele>
        <time>2014-11-23T09:55:02Z</time>
      </trkpt>
      <trkpt lat="44.71745" lon="-0.07747">
        <ele>73.2</ele>
        <time>2014-11-23T09:55:19Z</time>
      </trkpt>
      <trkpt lat="44.71746" lon="-0.07745">
        <ele>73.68</ele>
        <time>2014-11-23T09:55:32Z</time>
      </trkpt>
      <trkpt lat="44.71733" lon="-0.07752">
        <ele>73.68</ele>
        <time>2014-11-23T09:55:44Z</time>
      </trkpt>
      <trkpt lat="44.71717" lon="-0.07765">
        <ele>72.72</ele>
        <time>2014-11-23T09:56:00Z</time>
      </trkpt>
      <trkpt lat="44.71694" lon="-0.07781">
        <ele>71.27</ele>
        <time>2014-11-23T09:56:22Z</time>
      </trkpt>
      <trkpt lat="44.71675" lon="-0.07795">
        <ele>69.83</ele>
        <time>2014-11-23T09:56:40Z</time>
      </trkpt>
      <trkpt lat="44.71656" lon="-0.0781">
        <ele>68.39</ele>
        <time>2014-11-23T09:56:59Z</time>
      </trkpt>
      <trkpt lat="44.71637" lon="-0.07822">
        <ele>67.43</ele>
        <time>2014-11-23T09:57:16Z</time>
      </trkpt>
      <trkpt lat="44.71631" lon="-0.07825">
        <ele>65.99</ele>
        <time>2014-11-23T09:57:22Z</time>
      </trkpt>
      <trkpt lat="44.71629" lon="-0.07827">
        <ele>67.43</ele>
        <time>2014-11-23T09:57:24Z</time>
      </trkpt>
      <trkpt lat="44.71609" lon="-0.07841">
        <ele>66.47</ele>
        <time>2014-11-23T09:57:42Z</time>
      </trkpt>
      <trkpt lat="44.71594" lon="-0.07853">
        <ele>66.47</ele>
        <time>2014-11-23T09:57:58Z</time>
      </trkpt>
      <trkpt lat="44.7157" lon="-0.07867">
        <ele>65.99</ele>
        <time>2014-11-23T09:58:20Z</time>
      </trkpt>
      <trkpt lat="44.71541" lon="-0.07882">
        <ele>66.95</ele>
        <time>2014-11-23T09:58:44Z</time>
      </trkpt>
      <trkpt lat="44.71517" lon="-0.07895">
        <ele>66.95</ele>
        <time>2014-11-23T09:59:05Z</time>
      </trkpt>
      <trkpt lat="44.71496" lon="-0.07909">
        <ele>66.95</ele>
        <time>2014-11-23T09:59:24Z</time>
      </trkpt>
      <trkpt lat="44.71479" lon="-0.07928">
        <ele>66.47</ele>
        <time>2014-11-23T09:59:43Z</time>
      </trkpt>
      <trkpt lat="44.71463" lon="-0.07948">
        <ele>65.99</ele>
        <time>2014-11-23T10:00:01Z</time>
      </trkpt>
      <trkpt lat="44.71463" lon="-0.07949">
        <ele>66.47</ele>
        <time>2014-11-23T10:00:02Z</time>
      </trkpt>
      <trkpt lat="44.71463" lon="-0.07958">
        <ele>66.47</ele>
        <time>2014-11-23T10:00:11Z</time>
      </trkpt>
      <trkpt lat="44.71465" lon="-0.07961">
        <ele>65.99</ele>
        <time>2014-11-23T10:00:13Z</time>
      </trkpt>
      <trkpt lat="44.71475" lon="-0.07978">
        <ele>65.51</ele>
        <time>2014-11-23T10:00:29Z</time>
      </trkpt>
      <trkpt lat="44.71495" lon="-0.08005">
        <ele>63.58</ele>
        <time>2014-11-23T10:00:53Z</time>
      </trkpt>
      <trkpt lat="44.71512" lon="-0.08033">
        <ele>62.62</ele>
        <time>2014-11-23T10:01:16Z</time>
      </trkpt>
      <trkpt lat="44.71524" lon="-0.08053">
        <ele>61.18</ele>
        <time>2014-11-23T10:01:34Z</time>
      </trkpt>
      <trkpt lat="44.71541" lon="-0.0808">
        <ele>59.74</ele>
        <time>2014-11-23T10:01:56Z</time>
      </trkpt>
      <trkpt lat="44.71556" lon="-0.08103">
        <ele>59.26</ele>
        <time>2014-11-23T10:02:14Z</time>
      </trkpt>
      <trkpt lat="44.71573" lon="-0.0813">
        <ele>60.22</ele>
        <time>2014-11-23T10:02:37Z</time>
      </trkpt>
      <trkpt lat="44.71584" lon="-0.08133">
        <ele>61.18</ele>
        <time>2014-11-23T10:02:55Z</time>
      </trkpt>
      <trkpt lat="44.71598" lon="-0.08134">
        <ele>61.18</ele>
        <time>2014-11-23T10:03:05Z</time>
      </trkpt>
      <trkpt lat="44.71633" lon="-0.08131">
        <ele>62.62</ele>
        <time>2014-11-23T10:03:30Z</time>
      </trkpt>
      <trkpt lat="44.71664" lon="-0.08124">
        <ele>63.1</ele>
        <time>2014-11-23T10:03:55Z</time>
      </trkpt>
      <trkpt lat="44.71687" lon="-0.08111">
        <ele>63.58</ele>
        <time>2014-11-23T10:04:16Z</time>
      </trkpt>
      <trkpt lat="44.71718" lon="-0.08097">
        <ele>64.55</ele>
        <time>2014-11-23T10:04:43Z</time>
      </trkpt>
      <trkpt lat="44.71742" lon="-0.08089">
        <ele>65.51</ele>
        <time>2014-11-23T10:05:05Z</time>
      </trkpt>
      <trkpt lat="44.71762" lon="-0.08104">
        <ele>67.43</ele>
        <time>2014-11-23T10:05:25Z</time>
      </trkpt>
      <trkpt lat="44.71776" lon="-0.08124">
        <ele>68.39</ele>
        <time>2014-11-23T10:05:44Z</time>
      </trkpt>
      <trkpt lat="44.71793" lon="-0.08138">
        <ele>69.83</ele>
        <time>2014-11-23T10:06:03Z</time>
      </trkpt>
      <trkpt lat="44.71815" lon="-0.08154">
        <ele>71.27</ele>
        <time>2014-11-23T10:06:25Z</time>
      </trkpt>
      <trkpt lat="44.71834" lon="-0.08167">
        <ele>72.24</ele>
        <time>2014-11-23T10:06:44Z</time>
      </trkpt>
      <trkpt lat="44.71852" lon="-0.08174">
        <ele>75.12</ele>
        <time>2014-11-23T10:07:03Z</time>
      </trkpt>
      <trkpt lat="44.71855" lon="-0.08175">
        <ele>75.12</ele>
        <time>2014-11-23T10:07:06Z</time>
      </trkpt>
      <trkpt lat="44.71872" lon="-0.08178">
        <ele>76.08</ele>
        <time>2014-11-23T10:07:23Z</time>
      </trkpt>
      <trkpt lat="44.71875" lon="-0.0818">
        <ele>76.08</ele>
        <time>2014-11-23T10:07:27Z</time>
      </trkpt>
      <trkpt lat="44.71904" lon="-0.0819">
        <ele>77.52</ele>
        <time>2014-11-23T10:07:49Z</time>
      </trkpt>
      <trkpt lat="44.71926" lon="-0.08207">
        <ele>77.52</ele>
        <time>2014-11-23T10:08:11Z</time>
      </trkpt>
      <trkpt lat="44.71934" lon="-0.08211">
        <ele>77.52</ele>
        <time>2014-11-23T10:08:25Z</time>
      </trkpt>
      <trkpt lat="44.71933" lon="-0.08214">
        <ele>77.52</ele>
        <time>2014-11-23T10:08:36Z</time>
      </trkpt>
      <trkpt lat="44.71944" lon="-0.08231">
        <ele>78</ele>
        <time>2014-11-23T10:08:53Z</time>
      </trkpt>
      <trkpt lat="44.71963" lon="-0.08259">
        <ele>78</ele>
        <time>2014-11-23T10:09:15Z</time>
      </trkpt>
      <trkpt lat="44.71976" lon="-0.08278">
        <ele>78.48</ele>
        <time>2014-11-23T10:09:31Z</time>
      </trkpt>
      <trkpt lat="44.71978" lon="-0.08282">
        <ele>78</ele>
        <time>2014-11-23T10:09:34Z</time>
      </trkpt>
      <trkpt lat="44.71992" lon="-0.08309">
        <ele>78.97</ele>
        <time>2014-11-23T10:09:56Z</time>
      </trkpt>
      <trkpt lat="44.72004" lon="-0.08325">
        <ele>79.45</ele>
        <time>2014-11-23T10:10:13Z</time>
      </trkpt>
      <trkpt lat="44.72011" lon="-0.08331">
        <ele>79.93</ele>
        <time>2014-11-23T10:10:28Z</time>
      </trkpt>
      <trkpt lat="44.72014" lon="-0.08331">
        <ele>80.41</ele>
        <time>2014-11-23T10:10:55Z</time>
      </trkpt>
      <trkpt lat="44.7201" lon="-0.08333">
        <ele>79.93</ele>
        <time>2014-11-23T10:11:11Z</time>
      </trkpt>
      <trkpt lat="44.72014" lon="-0.08334">
        <ele>79.45</ele>
        <time>2014-11-23T10:11:26Z</time>
      </trkpt>
      <trkpt lat="44.72035" lon="-0.08328">
        <ele>78.48</ele>
        <time>2014-11-23T10:11:44Z</time>
      </trkpt>
      <trkpt lat="44.72052" lon="-0.08319">
        <ele>80.89</ele>
        <time>2014-11-23T10:11:59Z</time>
      </trkpt>
      <trkpt lat="44.72062" lon="-0.08334">
        <ele>80.41</ele>
        <time>2014-11-23T10:12:14Z</time>
      </trkpt>
      <trkpt lat="44.72073" lon="-0.08356">
        <ele>79.93</ele>
        <time>2014-11-23T10:12:29Z</time>
      </trkpt>
      <trkpt lat="44.72085" lon="-0.08374">
        <ele>79.45</ele>
        <time>2014-11-23T10:12:44Z</time>
      </trkpt>
      <trkpt lat="44.72101" lon="-0.08396">
        <ele>79.45</ele>
        <time>2014-11-23T10:13:02Z</time>
      </trkpt>
      <trkpt lat="44.72115" lon="-0.08415">
        <ele>78.48</ele>
        <time>2014-11-23T10:13:19Z</time>
      </trkpt>
      <trkpt lat="44.72132" lon="-0.08428">
        <ele>77.52</ele>
        <time>2014-11-23T10:13:36Z</time>
      </trkpt>
      <trkpt lat="44.72145" lon="-0.08442">
        <ele>76.56</ele>
        <time>2014-11-23T10:13:54Z</time>
      </trkpt>
      <trkpt lat="44.72165" lon="-0.08457">
        <ele>75.12</ele>
        <time>2014-11-23T10:14:13Z</time>
      </trkpt>
      <trkpt lat="44.72184" lon="-0.08474">
        <ele>74.64</ele>
        <time>2014-11-23T10:14:31Z</time>
      </trkpt>
      <trkpt lat="44.72199" lon="-0.08489">
        <ele>73.2</ele>
        <time>2014-11-23T10:14:48Z</time>
      </trkpt>
      <trkpt lat="44.72215" lon="-0.08513">
        <ele>71.27</ele>
        <time>2014-11-23T10:15:07Z</time>
      </trkpt>
      <trkpt lat="44.72225" lon="-0.08533">
        <ele>70.79</ele>
        <time>2014-11-23T10:15:24Z</time>
      </trkpt>
      <trkpt lat="44.72234" lon="-0.08552">
        <ele>69.83</ele>
        <time>2014-11-23T10:15:42Z</time>
      </trkpt>
      <trkpt lat="44.72248" lon="-0.0856">
        <ele>69.83</ele>
        <time>2014-11-23T10:16:00Z</time>
      </trkpt>
      <trkpt lat="44.72266" lon="-0.08561">
        <ele>69.83</ele>
        <time>2014-11-23T10:16:14Z</time>
      </trkpt>
      <trkpt lat="44.72287" lon="-0.08563">
        <ele>69.83</ele>
        <time>2014-11-23T10:16:31Z</time>
      </trkpt>
      <trkpt lat="44.72309" lon="-0.08569">
        <ele>69.83</ele>
        <time>2014-11-23T10:16:51Z</time>
      </trkpt>
      <trkpt lat="44.72329" lon="-0.08573">
        <ele>70.31</ele>
        <time>2014-11-23T10:17:09Z</time>
      </trkpt>
      <trkpt lat="44.72347" lon="-0.08583">
        <ele>70.79</ele>
        <time>2014-11-23T10:17:26Z</time>
      </trkpt>
      <trkpt lat="44.72359" lon="-0.08593">
        <ele>70.79</ele>
        <time>2014-11-23T10:17:41Z</time>
      </trkpt>
      <trkpt lat="44.72366" lon="-0.08596">
        <ele>71.27</ele>
        <time>2014-11-23T10:17:48Z</time>
      </trkpt>
      <trkpt lat="44.72385" lon="-0.08602">
        <ele>71.76</ele>
        <time>2014-11-23T10:18:05Z</time>
      </trkpt>
      <trkpt lat="44.72386" lon="-0.08604">
        <ele>71.76</ele>
        <time>2014-11-23T10:18:20Z</time>
      </trkpt>
      <trkpt lat="44.72387" lon="-0.08607">
        <ele>71.27</ele>
        <time>2014-11-23T10:18:45Z</time>
      </trkpt>
      <trkpt lat="44.72387" lon="-0.08608">
        <ele>71.27</ele>
        <time>2014-11-23T10:19:08Z</time>
      </trkpt>
      <trkpt lat="44.72386" lon="-0.08604">
        <ele>71.76</ele>
        <time>2014-11-23T10:19:24Z</time>
      </trkpt>
      <trkpt lat="44.72394" lon="-0.08608">
        <ele>71.76</ele>
        <time>2014-11-23T10:19:33Z</time>
      </trkpt>
      <trkpt lat="44.72414" lon="-0.08609">
        <ele>71.27</ele>
        <time>2014-11-23T10:19:50Z</time>
      </trkpt>
      <trkpt lat="44.72428" lon="-0.08611">
        <ele>71.27</ele>
        <time>2014-11-23T10:20:03Z</time>
      </trkpt>
      <trkpt lat="44.72443" lon="-0.08615">
        <ele>71.76</ele>
        <time>2014-11-23T10:20:17Z</time>
      </trkpt>
      <trkpt lat="44.72461" lon="-0.08621">
        <ele>72.24</ele>
        <time>2014-11-23T10:20:33Z</time>
      </trkpt>
      <trkpt lat="44.7248" lon="-0.08625">
        <ele>72.24</ele>
        <time>2014-11-23T10:20:52Z</time>
      </trkpt>
      <trkpt lat="44.72494" lon="-0.0863">
        <ele>72.72</ele>
        <time>2014-11-23T10:21:08Z</time>
      </trkpt>
      <trkpt lat="44.72503" lon="-0.08634">
        <ele>73.2</ele>
        <time>2014-11-23T10:21:20Z</time>
      </trkpt>
      <trkpt lat="44.72525" lon="-0.08634">
        <ele>73.68</ele>
        <time>2014-11-23T10:21:35Z</time>
      </trkpt>
      <trkpt lat="44.7254" lon="-0.08636">
        <ele>74.64</ele>
        <time>2014-11-23T10:21:50Z</time>
      </trkpt>
      <trkpt lat="44.72545" lon="-0.08637">
        <ele>74.64</ele>
        <time>2014-11-23T10:21:54Z</time>
      </trkpt>
      <trkpt lat="44.72566" lon="-0.08641">
        <ele>75.6</ele>
        <time>2014-11-23T10:22:09Z</time>
      </trkpt>
      <trkpt lat="44.72586" lon="-0.08645">
        <ele>77.04</ele>
        <time>2014-11-23T10:22:26Z</time>
      </trkpt>
      <trkpt lat="44.72603" lon="-0.08648">
        <ele>78</ele>
        <time>2014-11-23T10:22:44Z</time>
      </trkpt>
      <trkpt lat="44.72624" lon="-0.08655">
        <ele>78.48</ele>
        <time>2014-11-23T10:23:01Z</time>
      </trkpt>
      <trkpt lat="44.72641" lon="-0.08662">
        <ele>78.97</ele>
        <time>2014-11-23T10:23:17Z</time>
      </trkpt>
      <trkpt lat="44.72661" lon="-0.08668">
        <ele>79.45</ele>
        <time>2014-11-23T10:23:36Z</time>
      </trkpt>
      <trkpt lat="44.72676" lon="-0.08678">
        <ele>80.41</ele>
        <time>2014-11-23T10:23:54Z</time>
      </trkpt>
      <trkpt lat="44.72697" lon="-0.08685">
        <ele>81.85</ele>
        <time>2014-11-23T10:24:14Z</time>
      </trkpt>
      <trkpt lat="44.72719" lon="-0.08693">
        <ele>82.81</ele>
        <time>2014-11-23T10:24:32Z</time>
      </trkpt>
      <trkpt lat="44.72738" lon="-0.087">
        <ele>83.77</ele>
        <time>2014-11-23T10:24:49Z</time>
      </trkpt>
      <trkpt lat="44.72754" lon="-0.08707">
        <ele>84.25</ele>
        <time>2014-11-23T10:25:06Z</time>
      </trkpt>
      <trkpt lat="44.72777" lon="-0.08718">
        <ele>84.73</ele>
        <time>2014-11-23T10:25:23Z</time>
      </trkpt>
      <trkpt lat="44.72794" lon="-0.08726">
        <ele>85.21</ele>
        <time>2014-11-23T10:25:42Z</time>
      </trkpt>
      <trkpt lat="44.72815" lon="-0.08731">
        <ele>86.18</ele>
        <time>2014-11-23T10:25:59Z</time>
      </trkpt>
      <trkpt lat="44.7284" lon="-0.08743">
        <ele>87.62</ele>
        <time>2014-11-23T10:26:19Z</time>
      </trkpt>
      <trkpt lat="44.72855" lon="-0.08745">
        <ele>88.58</ele>
        <time>2014-11-23T10:26:34Z</time>
      </trkpt>
      <trkpt lat="44.72874" lon="-0.0874">
        <ele>89.54</ele>
        <time>2014-11-23T10:26:51Z</time>
      </trkpt>
      <trkpt lat="44.72889" lon="-0.08738">
        <ele>90.02</ele>
        <time>2014-11-23T10:27:06Z</time>
      </trkpt>
      <trkpt lat="44.72909" lon="-0.08733">
        <ele>90.98</ele>
        <time>2014-11-23T10:27:24Z</time>
      </trkpt>
      <trkpt lat="44.72914" lon="-0.08732">
        <ele>90.5</ele>
        <time>2014-11-23T10:27:28Z</time>
      </trkpt>
      <trkpt lat="44.72932" lon="-0.08723">
        <ele>91.46</ele>
        <time>2014-11-23T10:27:47Z</time>
      </trkpt>
      <trkpt lat="44.72951" lon="-0.08709">
        <ele>91.46</ele>
        <time>2014-11-23T10:28:04Z</time>
      </trkpt>
      <trkpt lat="44.7297" lon="-0.08695">
        <ele>90.5</ele>
        <time>2014-11-23T10:28:23Z</time>
      </trkpt>
      <trkpt lat="44.72984" lon="-0.0869">
        <ele>90.5</ele>
        <time>2014-11-23T10:28:39Z</time>
      </trkpt>
      <trkpt lat="44.72982" lon="-0.08675">
        <ele>90.5</ele>
        <time>2014-11-23T10:28:55Z</time>
      </trkpt>
      <trkpt lat="44.7298" lon="-0.08672">
        <ele>90.5</ele>
        <time>2014-11-23T10:29:33Z</time>
      </trkpt>
      <trkpt lat="44.72984" lon="-0.08689">
        <ele>90.98</ele>
        <time>2014-11-23T10:30:01Z</time>
      </trkpt>
      <trkpt lat="44.72984" lon="-0.08696">
        <ele>90.98</ele>
        <time>2014-11-23T10:30:17Z</time>
      </trkpt>
      <trkpt lat="44.72985" lon="-0.08696">
        <ele>90.98</ele>
        <time>2014-11-23T10:30:39Z</time>
      </trkpt>
      <trkpt lat="44.72984" lon="-0.08695">
        <ele>90.98</ele>
        <time>2014-11-23T10:31:01Z</time>
      </trkpt>
      <trkpt lat="44.72985" lon="-0.08699">
        <ele>90.98</ele>
        <time>2014-11-23T10:31:25Z</time>
      </trkpt>
      <trkpt lat="44.72985" lon="-0.08699">
        <ele>90.98</ele>
        <time>2014-11-23T10:31:48Z</time>
      </trkpt>
      <trkpt lat="44.72986" lon="-0.08695">
        <ele>91.46</ele>
        <time>2014-11-23T10:32:09Z</time>
      </trkpt>
      <trkpt lat="44.72986" lon="-0.08695">
        <ele>90.98</ele>
        <time>2014-11-23T10:32:27Z</time>
      </trkpt>
      <trkpt lat="44.72986" lon="-0.08694">
        <ele>91.94</ele>
        <time>2014-11-23T10:32:53Z</time>
      </trkpt>
      <trkpt lat="44.72986" lon="-0.08698">
        <ele>91.94</ele>
        <time>2014-11-23T10:33:17Z</time>
      </trkpt>
      <trkpt lat="44.72987" lon="-0.087">
        <ele>91.94</ele>
        <time>2014-11-23T10:33:39Z</time>
      </trkpt>
      <trkpt lat="44.72988" lon="-0.08701">
        <ele>91.94</ele>
        <time>2014-11-23T10:34:01Z</time>
      </trkpt>
      <trkpt lat="44.72988" lon="-0.08701">
        <ele>91.94</ele>
        <time>2014-11-23T10:34:24Z</time>
      </trkpt>
      <trkpt lat="44.72985" lon="-0.08701">
        <ele>91.94</ele>
        <time>2014-11-23T10:34:40Z</time>
      </trkpt>
      <trkpt lat="44.72985" lon="-0.08701">
        <ele>92.42</ele>
        <time>2014-11-23T10:34:56Z</time>
      </trkpt>
      <trkpt lat="44.72984" lon="-0.08704">
        <ele>92.9</ele>
        <time>2014-11-23T10:35:19Z</time>
      </trkpt>
      <trkpt lat="44.72985" lon="-0.08705">
        <ele>91.94</ele>
        <time>2014-11-23T10:35:42Z</time>
      </trkpt>
      <trkpt lat="44.72987" lon="-0.08712">
        <ele>92.42</ele>
        <time>2014-11-23T10:35:58Z</time>
      </trkpt>
      <trkpt lat="44.72988" lon="-0.08729">
        <ele>92.9</ele>
        <time>2014-11-23T10:36:12Z</time>
      </trkpt>
      <trkpt lat="44.72988" lon="-0.08748">
        <ele>93.39</ele>
        <time>2014-11-23T10:36:26Z</time>
      </trkpt>
      <trkpt lat="44.72986" lon="-0.08768">
        <ele>93.39</ele>
        <time>2014-11-23T10:36:41Z</time>
      </trkpt>
      <trkpt lat="44.72986" lon="-0.08792">
        <ele>94.35</ele>
        <time>2014-11-23T10:36:58Z</time>
      </trkpt>
      <trkpt lat="44.72983" lon="-0.08817">
        <ele>94.83</ele>
        <time>2014-11-23T10:37:15Z</time>
      </trkpt>
      <trkpt lat="44.72982" lon="-0.08836">
        <ele>94.83</ele>
        <time>2014-11-23T10:37:28Z</time>
      </trkpt>
      <trkpt lat="44.72982" lon="-0.08861">
        <ele>95.31</ele>
        <time>2014-11-23T10:37:44Z</time>
      </trkpt>
      <trkpt lat="44.72981" lon="-0.08883">
        <ele>95.31</ele>
        <time>2014-11-23T10:37:59Z</time>
      </trkpt>
      <trkpt lat="44.72981" lon="-0.08907">
        <ele>94.83</ele>
        <time>2014-11-23T10:38:15Z</time>
      </trkpt>
      <trkpt lat="44.72978" lon="-0.08934">
        <ele>95.31</ele>
        <time>2014-11-23T10:38:33Z</time>
      </trkpt>
      <trkpt lat="44.72977" lon="-0.08962">
        <ele>94.83</ele>
        <time>2014-11-23T10:38:50Z</time>
      </trkpt>
      <trkpt lat="44.72976" lon="-0.08992">
        <ele>94.83</ele>
        <time>2014-11-23T10:39:09Z</time>
      </trkpt>
      <trkpt lat="44.72974" lon="-0.09018">
        <ele>93.87</ele>
        <time>2014-11-23T10:39:26Z</time>
      </trkpt>
      <trkpt lat="44.72972" lon="-0.09041">
        <ele>93.39</ele>
        <time>2014-11-23T10:39:42Z</time>
      </trkpt>
      <trkpt lat="44.7297" lon="-0.09067">
        <ele>92.9</ele>
        <time>2014-11-23T10:39:59Z</time>
      </trkpt>
      <trkpt lat="44.72974" lon="-0.0907">
        <ele>92.42</ele>
        <time>2014-11-23T10:40:12Z</time>
      </trkpt>
      <trkpt lat="44.72991" lon="-0.09062">
        <ele>91.46</ele>
        <time>2014-11-23T10:40:29Z</time>
      </trkpt>
      <trkpt lat="44.72992" lon="-0.09062">
        <ele>91.46</ele>
        <time>2014-11-23T10:40:30Z</time>
      </trkpt>
      <trkpt lat="44.7301" lon="-0.09052">
        <ele>91.46</ele>
        <time>2014-11-23T10:40:48Z</time>
      </trkpt>
      <trkpt lat="44.73034" lon="-0.09043">
        <ele>90.98</ele>
        <time>2014-11-23T10:41:07Z</time>
      </trkpt>
      <trkpt lat="44.73055" lon="-0.09033">
        <ele>90.5</ele>
        <time>2014-11-23T10:41:29Z</time>
      </trkpt>
      <trkpt lat="44.73078" lon="-0.09022">
        <ele>89.54</ele>
        <time>2014-11-23T10:41:50Z</time>
      </trkpt>
      <trkpt lat="44.73085" lon="-0.09019">
        <ele>89.54</ele>
        <time>2014-11-23T10:41:56Z</time>
      </trkpt>
      <trkpt lat="44.73104" lon="-0.09024">
        <ele>88.58</ele>
        <time>2014-11-23T10:42:12Z</time>
      </trkpt>
      <trkpt lat="44.73126" lon="-0.09028">
        <ele>87.62</ele>
        <time>2014-11-23T10:42:31Z</time>
      </trkpt>
      <trkpt lat="44.73152" lon="-0.09032">
        <ele>87.62</ele>
        <time>2014-11-23T10:42:50Z</time>
      </trkpt>
      <trkpt lat="44.73169" lon="-0.09039">
        <ele>86.66</ele>
        <time>2014-11-23T10:43:08Z</time>
      </trkpt>
      <trkpt lat="44.73189" lon="-0.09042">
        <ele>86.18</ele>
        <time>2014-11-23T10:43:26Z</time>
      </trkpt>
      <trkpt lat="44.73208" lon="-0.09049">
        <ele>84.73</ele>
        <time>2014-11-23T10:43:43Z</time>
      </trkpt>
      <trkpt lat="44.73225" lon="-0.09052">
        <ele>83.29</ele>
        <time>2014-11-23T10:43:59Z</time>
      </trkpt>
      <trkpt lat="44.73245" lon="-0.09057">
        <ele>81.85</ele>
        <time>2014-11-23T10:44:18Z</time>
      </trkpt>
      <trkpt lat="44.73266" lon="-0.09062">
        <ele>79.93</ele>
        <time>2014-11-23T10:44:36Z</time>
      </trkpt>
      <trkpt lat="44.73285" lon="-0.09066">
        <ele>78.48</ele>
        <time>2014-11-23T10:44:53Z</time>
      </trkpt>
      <trkpt lat="44.73307" lon="-0.09068">
        <ele>78</ele>
        <time>2014-11-23T10:45:12Z</time>
      </trkpt>
      <trkpt lat="44.73331" lon="-0.0907">
        <ele>78</ele>
        <time>2014-11-23T10:45:33Z</time>
      </trkpt>
      <trkpt lat="44.73359" lon="-0.0907">
        <ele>78</ele>
        <time>2014-11-23T10:45:56Z</time>
      </trkpt>
      <trkpt lat="44.73383" lon="-0.09071">
        <ele>77.04</ele>
        <time>2014-11-23T10:46:15Z</time>
      </trkpt>
      <trkpt lat="44.73405" lon="-0.09072">
        <ele>76.56</ele>
        <time>2014-11-23T10:46:34Z</time>
      </trkpt>
      <trkpt lat="44.73428" lon="-0.09075">
        <ele>77.52</ele>
        <time>2014-11-23T10:46:53Z</time>
      </trkpt>
      <trkpt lat="44.73452" lon="-0.09079">
        <ele>77.52</ele>
        <time>2014-11-23T10:47:14Z</time>
      </trkpt>
      <trkpt lat="44.73474" lon="-0.09084">
        <ele>77.04</ele>
        <time>2014-11-23T10:47:32Z</time>
      </trkpt>
      <trkpt lat="44.73494" lon="-0.09091">
        <ele>76.56</ele>
        <time>2014-11-23T10:47:49Z</time>
      </trkpt>
      <trkpt lat="44.73516" lon="-0.09109">
        <ele>76.56</ele>
        <time>2014-11-23T10:48:09Z</time>
      </trkpt>
      <trkpt lat="44.73519" lon="-0.09116">
        <ele>76.08</ele>
        <time>2014-11-23T10:48:14Z</time>
      </trkpt>
      <trkpt lat="44.73535" lon="-0.09149">
        <ele>76.08</ele>
        <time>2014-11-23T10:48:38Z</time>
      </trkpt>
      <trkpt lat="44.73548" lon="-0.09177">
        <ele>75.12</ele>
        <time>2014-11-23T10:48:59Z</time>
      </trkpt>
      <trkpt lat="44.73559" lon="-0.09203">
        <ele>74.16</ele>
        <time>2014-11-23T10:49:19Z</time>
      </trkpt>
      <trkpt lat="44.73561" lon="-0.09206">
        <ele>74.64</ele>
        <time>2014-11-23T10:49:21Z</time>
      </trkpt>
      <trkpt lat="44.7357" lon="-0.09228">
        <ele>73.68</ele>
        <time>2014-11-23T10:49:38Z</time>
      </trkpt>
      <trkpt lat="44.73581" lon="-0.09257">
        <ele>73.2</ele>
        <time>2014-11-23T10:49:59Z</time>
      </trkpt>
      <trkpt lat="44.7359" lon="-0.09281">
        <ele>72.72</ele>
        <time>2014-11-23T10:50:17Z</time>
      </trkpt>
      <trkpt lat="44.73604" lon="-0.09309">
        <ele>71.76</ele>
        <time>2014-11-23T10:50:37Z</time>
      </trkpt>
      <trkpt lat="44.73608" lon="-0.09335">
        <ele>70.79</ele>
        <time>2014-11-23T10:50:55Z</time>
      </trkpt>
      <trkpt lat="44.73604" lon="-0.0934">
        <ele>71.76</ele>
        <time>2014-11-23T10:51:00Z</time>
      </trkpt>
      <trkpt lat="44.73599" lon="-0.09347">
        <ele>71.27</ele>
        <time>2014-11-23T10:51:05Z</time>
      </trkpt>
      <trkpt lat="44.73574" lon="-0.09373">
        <ele>69.83</ele>
        <time>2014-11-23T10:51:29Z</time>
      </trkpt>
      <trkpt lat="44.73564" lon="-0.09384">
        <ele>70.31</ele>
        <time>2014-11-23T10:51:44Z</time>
      </trkpt>
      <trkpt lat="44.73544" lon="-0.09411">
        <ele>69.35</ele>
        <time>2014-11-23T10:52:06Z</time>
      </trkpt>
      <trkpt lat="44.73527" lon="-0.09432">
        <ele>68.87</ele>
        <time>2014-11-23T10:52:25Z</time>
      </trkpt>
      <trkpt lat="44.73512" lon="-0.09452">
        <ele>68.87</ele>
        <time>2014-11-23T10:52:42Z</time>
      </trkpt>
      <trkpt lat="44.73496" lon="-0.09477">
        <ele>68.39</ele>
        <time>2014-11-23T10:53:02Z</time>
      </trkpt>
      <trkpt lat="44.73481" lon="-0.09506">
        <ele>67.43</ele>
        <time>2014-11-23T10:53:23Z</time>
      </trkpt>
      <trkpt lat="44.73472" lon="-0.09531">
        <ele>66.95</ele>
        <time>2014-11-23T10:53:41Z</time>
      </trkpt>
      <trkpt lat="44.73467" lon="-0.09547">
        <ele>67.43</ele>
        <time>2014-11-23T10:53:54Z</time>
      </trkpt>
      <trkpt lat="44.7347" lon="-0.0955">
        <ele>67.43</ele>
        <time>2014-11-23T10:53:58Z</time>
      </trkpt>
      <trkpt lat="44.73494" lon="-0.09551">
        <ele>67.43</ele>
        <time>2014-11-23T10:54:19Z</time>
      </trkpt>
      <trkpt lat="44.73506" lon="-0.09552">
        <ele>67.43</ele>
        <time>2014-11-23T10:54:33Z</time>
      </trkpt>
      <trkpt lat="44.73507" lon="-0.09552">
        <ele>67.43</ele>
        <time>2014-11-23T10:54:35Z</time>
      </trkpt>
      <trkpt lat="44.7351" lon="-0.09552">
        <ele>67.43</ele>
        <time>2014-11-23T10:54:37Z</time>
      </trkpt>
      <trkpt lat="44.73511" lon="-0.09551">
        <ele>67.43</ele>
        <time>2014-11-23T10:54:39Z</time>
      </trkpt>
      <trkpt lat="44.73536" lon="-0.09563">
        <ele>67.91</ele>
        <time>2014-11-23T10:55:01Z</time>
      </trkpt>
      <trkpt lat="44.73559" lon="-0.0958">
        <ele>68.39</ele>
        <time>2014-11-23T10:55:20Z</time>
      </trkpt>
      <trkpt lat="44.73575" lon="-0.0959">
        <ele>67.91</ele>
        <time>2014-11-23T10:55:34Z</time>
      </trkpt>
      <trkpt lat="44.73599" lon="-0.09597">
        <ele>67.43</ele>
        <time>2014-11-23T10:55:55Z</time>
      </trkpt>
      <trkpt lat="44.73623" lon="-0.096">
        <ele>68.39</ele>
        <time>2014-11-23T10:56:15Z</time>
      </trkpt>
      <trkpt lat="44.73632" lon="-0.09602">
        <ele>68.39</ele>
        <time>2014-11-23T10:56:27Z</time>
      </trkpt>
      <trkpt lat="44.73648" lon="-0.09606">
        <ele>69.35</ele>
        <time>2014-11-23T10:56:41Z</time>
      </trkpt>
      <trkpt lat="44.73672" lon="-0.09613">
        <ele>68.39</ele>
        <time>2014-11-23T10:57:00Z</time>
      </trkpt>
      <trkpt lat="44.73692" lon="-0.09619">
        <ele>68.39</ele>
        <time>2014-11-23T10:57:17Z</time>
      </trkpt>
      <trkpt lat="44.73717" lon="-0.09626">
        <ele>68.39</ele>
        <time>2014-11-23T10:57:35Z</time>
      </trkpt>
      <trkpt lat="44.73737" lon="-0.09645">
        <ele>68.39</ele>
        <time>2014-11-23T10:57:55Z</time>
      </trkpt>
      <trkpt lat="44.73757" lon="-0.09665">
        <ele>68.39</ele>
        <time>2014-11-23T10:58:16Z</time>
      </trkpt>
      <trkpt lat="44.73784" lon="-0.0968">
        <ele>69.35</ele>
        <time>2014-11-23T10:58:38Z</time>
      </trkpt>
      <trkpt lat="44.73805" lon="-0.09696">
        <ele>69.83</ele>
        <time>2014-11-23T10:58:57Z</time>
      </trkpt>
      <trkpt lat="44.73823" lon="-0.09719">
        <ele>70.79</ele>
        <time>2014-11-23T10:59:16Z</time>
      </trkpt>
      <trkpt lat="44.7384" lon="-0.09741">
        <ele>70.31</ele>
        <time>2014-11-23T10:59:35Z</time>
      </trkpt>
      <trkpt lat="44.73861" lon="-0.09757">
        <ele>71.76</ele>
        <time>2014-11-23T10:59:55Z</time>
      </trkpt>
      <trkpt lat="44.73879" lon="-0.09764">
        <ele>72.24</ele>
        <time>2014-11-23T11:00:11Z</time>
      </trkpt>
      <trkpt lat="44.73886" lon="-0.09774">
        <ele>71.76</ele>
        <time>2014-11-23T11:00:26Z</time>
      </trkpt>
      <trkpt lat="44.73885" lon="-0.09772">
        <ele>72.72</ele>
        <time>2014-11-23T11:00:43Z</time>
      </trkpt>
      <trkpt lat="44.7389" lon="-0.09775">
        <ele>72.24</ele>
        <time>2014-11-23T11:00:54Z</time>
      </trkpt>
      <trkpt lat="44.739" lon="-0.09777">
        <ele>72.72</ele>
        <time>2014-11-23T11:01:11Z</time>
      </trkpt>
      <trkpt lat="44.73922" lon="-0.09788">
        <ele>72.72</ele>
        <time>2014-11-23T11:01:31Z</time>
      </trkpt>
      <trkpt lat="44.73949" lon="-0.09802">
        <ele>72.24</ele>
        <time>2014-11-23T11:01:55Z</time>
      </trkpt>
      <trkpt lat="44.73971" lon="-0.09813">
        <ele>71.76</ele>
        <time>2014-11-23T11:02:13Z</time>
      </trkpt>
      <trkpt lat="44.7399" lon="-0.09825">
        <ele>71.27</ele>
        <time>2014-11-23T11:02:31Z</time>
      </trkpt>
      <trkpt lat="44.74003" lon="-0.09832">
        <ele>71.27</ele>
        <time>2014-11-23T11:02:52Z</time>
      </trkpt>
      <trkpt lat="44.74015" lon="-0.09838">
        <ele>70.31</ele>
        <time>2014-11-23T11:03:08Z</time>
      </trkpt>
      <trkpt lat="44.74036" lon="-0.09846">
        <ele>69.83</ele>
        <time>2014-11-23T11:03:28Z</time>
      </trkpt>
      <trkpt lat="44.74059" lon="-0.09855">
        <ele>68.87</ele>
        <time>2014-11-23T11:03:48Z</time>
      </trkpt>
      <trkpt lat="44.74076" lon="-0.0986">
        <ele>69.83</ele>
        <time>2014-11-23T11:04:04Z</time>
      </trkpt>
      <trkpt lat="44.74082" lon="-0.09861">
        <ele>69.35</ele>
        <time>2014-11-23T11:04:19Z</time>
      </trkpt>
      <trkpt lat="44.74089" lon="-0.09864">
        <ele>68.87</ele>
        <time>2014-11-23T11:04:26Z</time>
      </trkpt>
      <trkpt lat="44.74104" lon="-0.09867">
        <ele>67.91</ele>
        <time>2014-11-23T11:04:43Z</time>
      </trkpt>
      <trkpt lat="44.74104" lon="-0.09867">
        <ele>68.87</ele>
        <time>2014-11-23T11:04:57Z</time>
      </trkpt>
      <trkpt lat="44.74107" lon="-0.09867">
        <ele>69.35</ele>
        <time>2014-11-23T11:05:15Z</time>
      </trkpt>
      <trkpt lat="44.74111" lon="-0.09866">
        <ele>68.87</ele>
        <time>2014-11-23T11:05:34Z</time>
      </trkpt>
      <trkpt lat="44.74136" lon="-0.09876">
        <ele>69.35</ele>
        <time>2014-11-23T11:05:52Z</time>
      </trkpt>
      <trkpt lat="44.74161" lon="-0.09884">
        <ele>68.87</ele>
        <time>2014-11-23T11:06:09Z</time>
      </trkpt>
      <trkpt lat="44.74185" lon="-0.09892">
        <ele>68.39</ele>
        <time>2014-11-23T11:06:28Z</time>
      </trkpt>
      <trkpt lat="44.74193" lon="-0.099">
        <ele>67.91</ele>
        <time>2014-11-23T11:06:42Z</time>
      </trkpt>
      <trkpt lat="44.74208" lon="-0.09921">
        <ele>65.99</ele>
        <time>2014-11-23T11:06:59Z</time>
      </trkpt>
      <trkpt lat="44.74224" lon="-0.09949">
        <ele>64.55</ele>
        <time>2014-11-23T11:07:20Z</time>
      </trkpt>
      <trkpt lat="44.74233" lon="-0.09965">
        <ele>63.1</ele>
        <time>2014-11-23T11:07:37Z</time>
      </trkpt>
      <trkpt lat="44.74235" lon="-0.09967">
        <ele>63.58</ele>
        <time>2014-11-23T11:07:39Z</time>
      </trkpt>
      <trkpt lat="44.74251" lon="-0.09998">
        <ele>62.62</ele>
        <time>2014-11-23T11:08:01Z</time>
      </trkpt>
      <trkpt lat="44.74266" lon="-0.10009">
        <ele>62.62</ele>
        <time>2014-11-23T11:08:17Z</time>
      </trkpt>
      <trkpt lat="44.74274" lon="-0.1001">
        <ele>64.07</ele>
        <time>2014-11-23T11:08:31Z</time>
      </trkpt>
      <trkpt lat="44.74273" lon="-0.10002">
        <ele>63.1</ele>
        <time>2014-11-23T11:08:43Z</time>
      </trkpt>
      <trkpt lat="44.74275" lon="-0.10006">
        <ele>63.58</ele>
        <time>2014-11-23T11:09:02Z</time>
      </trkpt>
      <trkpt lat="44.74281" lon="-0.10004">
        <ele>63.58</ele>
        <time>2014-11-23T11:09:22Z</time>
      </trkpt>
      <trkpt lat="44.74283" lon="-0.10004">
        <ele>62.62</ele>
        <time>2014-11-23T11:09:43Z</time>
      </trkpt>
      <trkpt lat="44.74278" lon="-0.10007">
        <ele>63.58</ele>
        <time>2014-11-23T11:10:01Z</time>
      </trkpt>
      <trkpt lat="44.74275" lon="-0.10008">
        <ele>63.58</ele>
        <time>2014-11-23T11:10:26Z</time>
      </trkpt>
      <trkpt lat="44.74273" lon="-0.10009">
        <ele>63.58</ele>
        <time>2014-11-23T11:10:45Z</time>
      </trkpt>
      <trkpt lat="44.74274" lon="-0.10008">
        <ele>63.58</ele>
        <time>2014-11-23T11:11:02Z</time>
      </trkpt>
      <trkpt lat="44.74274" lon="-0.10009">
        <ele>63.1</ele>
        <time>2014-11-23T11:11:20Z</time>
      </trkpt>
      <trkpt lat="44.74273" lon="-0.1001">
        <ele>63.1</ele>
        <time>2014-11-23T11:11:40Z</time>
      </trkpt>
      <trkpt lat="44.74277" lon="-0.1001">
        <ele>63.58</ele>
        <time>2014-11-23T11:11:58Z</time>
      </trkpt>
      <trkpt lat="44.74274" lon="-0.10016">
        <ele>64.07</ele>
        <time>2014-11-23T11:12:30Z</time>
      </trkpt>
      <trkpt lat="44.74274" lon="-0.10015">
        <ele>63.58</ele>
        <time>2014-11-23T11:12:53Z</time>
      </trkpt>
      <trkpt lat="44.74272" lon="-0.10011">
        <ele>63.58</ele>
        <time>2014-11-23T11:13:16Z</time>
      </trkpt>
      <trkpt lat="44.74274" lon="-0.10011">
        <ele>63.1</ele>
        <time>2014-11-23T11:13:38Z</time>
      </trkpt>
      <trkpt lat="44.74275" lon="-0.10014">
        <ele>64.55</ele>
        <time>2014-11-23T11:14:01Z</time>
      </trkpt>
      <trkpt lat="44.74273" lon="-0.10013">
        <ele>63.58</ele>
        <time>2014-11-23T11:14:23Z</time>
      </trkpt>
      <trkpt lat="44.74274" lon="-0.10016">
        <ele>64.07</ele>
        <time>2014-11-23T11:14:45Z</time>
      </trkpt>
      <trkpt lat="44.74275" lon="-0.10016">
        <ele>64.07</ele>
        <time>2014-11-23T11:15:09Z</time>
      </trkpt>
      <trkpt lat="44.74275" lon="-0.10013">
        <ele>64.55</ele>
        <time>2014-11-23T11:15:29Z</time>
      </trkpt>
      <trkpt lat="44.74274" lon="-0.10005">
        <ele>64.55</ele>
        <time>2014-11-23T11:15:48Z</time>
      </trkpt>
      <trkpt lat="44.74273" lon="-0.1001">
        <ele>64.55</ele>
        <time>2014-11-23T11:16:05Z</time>
      </trkpt>
      <trkpt lat="44.74273" lon="-0.10016">
        <ele>64.55</ele>
        <time>2014-11-23T11:16:19Z</time>
      </trkpt>
      <trkpt lat="44.74266" lon="-0.1002">
        <ele>64.07</ele>
        <time>2014-11-23T11:16:36Z</time>
      </trkpt>
      <trkpt lat="44.74263" lon="-0.10019">
        <ele>64.07</ele>
        <time>2014-11-23T11:16:38Z</time>
      </trkpt>
      <trkpt lat="44.74256" lon="-0.10012">
        <ele>63.58</ele>
        <time>2014-11-23T11:16:51Z</time>
      </trkpt>
      <trkpt lat="44.74252" lon="-0.10007">
        <ele>63.58</ele>
        <time>2014-11-23T11:16:57Z</time>
      </trkpt>
      <trkpt lat="44.74238" lon="-0.0998">
        <ele>63.58</ele>
        <time>2014-11-23T11:17:18Z</time>
      </trkpt>
      <trkpt lat="44.74227" lon="-0.09961">
        <ele>64.55</ele>
        <time>2014-11-23T11:17:35Z</time>
      </trkpt>
      <trkpt lat="44.74213" lon="-0.09942">
        <ele>65.51</ele>
        <time>2014-11-23T11:17:53Z</time>
      </trkpt>
      <trkpt lat="44.74201" lon="-0.09925">
        <ele>66.95</ele>
        <time>2014-11-23T11:18:10Z</time>
      </trkpt>
      <trkpt lat="44.74188" lon="-0.09903">
        <ele>68.39</ele>
        <time>2014-11-23T11:18:29Z</time>
      </trkpt>
      <trkpt lat="44.74171" lon="-0.09894">
        <ele>69.83</ele>
        <time>2014-11-23T11:18:48Z</time>
      </trkpt>
      <trkpt lat="44.74154" lon="-0.09889">
        <ele>70.31</ele>
        <time>2014-11-23T11:19:05Z</time>
      </trkpt>
      <trkpt lat="44.74137" lon="-0.0988">
        <ele>70.79</ele>
        <time>2014-11-23T11:19:24Z</time>
      </trkpt>
      <trkpt lat="44.74117" lon="-0.09876">
        <ele>70.79</ele>
        <time>2014-11-23T11:19:43Z</time>
      </trkpt>
      <trkpt lat="44.74109" lon="-0.09859">
        <ele>68.39</ele>
        <time>2014-11-23T11:19:59Z</time>
      </trkpt>
      <trkpt lat="44.74112" lon="-0.09826">
        <ele>66.95</ele>
        <time>2014-11-23T11:20:18Z</time>
      </trkpt>
      <trkpt lat="44.74114" lon="-0.09799">
        <ele>67.91</ele>
        <time>2014-11-23T11:20:37Z</time>
      </trkpt>
      <trkpt lat="44.74114" lon="-0.09773">
        <ele>67.43</ele>
        <time>2014-11-23T11:20:54Z</time>
      </trkpt>
      <trkpt lat="44.7411" lon="-0.09741">
        <ele>66.95</ele>
        <time>2014-11-23T11:21:14Z</time>
      </trkpt>
      <trkpt lat="44.74109" lon="-0.09732">
        <ele>66.47</ele>
        <time>2014-11-23T11:21:19Z</time>
      </trkpt>
      <trkpt lat="44.74104" lon="-0.09696">
        <ele>65.99</ele>
        <time>2014-11-23T11:21:39Z</time>
      </trkpt>
      <trkpt lat="44.74098" lon="-0.09661">
        <ele>65.99</ele>
        <time>2014-11-23T11:21:58Z</time>
      </trkpt>
      <trkpt lat="44.74094" lon="-0.0963">
        <ele>65.99</ele>
        <time>2014-11-23T11:22:16Z</time>
      </trkpt>
      <trkpt lat="44.74091" lon="-0.096">
        <ele>64.07</ele>
        <time>2014-11-23T11:22:34Z</time>
      </trkpt>
      <trkpt lat="44.74087" lon="-0.09568">
        <ele>63.1</ele>
        <time>2014-11-23T11:22:52Z</time>
      </trkpt>
      <trkpt lat="44.74078" lon="-0.09537">
        <ele>60.7</ele>
        <time>2014-11-23T11:23:13Z</time>
      </trkpt>
      <trkpt lat="44.74072" lon="-0.09512">
        <ele>58.78</ele>
        <time>2014-11-23T11:23:29Z</time>
      </trkpt>
      <trkpt lat="44.74072" lon="-0.09476">
        <ele>57.34</ele>
        <time>2014-11-23T11:23:50Z</time>
      </trkpt>
      <trkpt lat="44.74076" lon="-0.09459">
        <ele>58.3</ele>
        <time>2014-11-23T11:24:02Z</time>
      </trkpt>
      <trkpt lat="44.74088" lon="-0.0943">
        <ele>58.3</ele>
        <time>2014-11-23T11:24:21Z</time>
      </trkpt>
      <trkpt lat="44.74097" lon="-0.094">
        <ele>58.3</ele>
        <time>2014-11-23T11:24:40Z</time>
      </trkpt>
      <trkpt lat="44.74105" lon="-0.09374">
        <ele>60.22</ele>
        <time>2014-11-23T11:24:57Z</time>
      </trkpt>
      <trkpt lat="44.74111" lon="-0.09346">
        <ele>60.22</ele>
        <time>2014-11-23T11:25:15Z</time>
      </trkpt>
      <trkpt lat="44.74117" lon="-0.09318">
        <ele>61.66</ele>
        <time>2014-11-23T11:25:33Z</time>
      </trkpt>
      <trkpt lat="44.74121" lon="-0.09292">
        <ele>64.07</ele>
        <time>2014-11-23T11:25:50Z</time>
      </trkpt>
      <trkpt lat="44.74125" lon="-0.09269">
        <ele>65.51</ele>
        <time>2014-11-23T11:26:06Z</time>
      </trkpt>
      <trkpt lat="44.74126" lon="-0.09244">
        <ele>65.03</ele>
        <time>2014-11-23T11:26:22Z</time>
      </trkpt>
      <trkpt lat="44.74124" lon="-0.09219">
        <ele>66.95</ele>
        <time>2014-11-23T11:26:38Z</time>
      </trkpt>
      <trkpt lat="44.74126" lon="-0.09211">
        <ele>66.95</ele>
        <time>2014-11-23T11:26:43Z</time>
      </trkpt>
      <trkpt lat="44.74139" lon="-0.09195">
        <ele>68.39</ele>
        <time>2014-11-23T11:26:59Z</time>
      </trkpt>
      <trkpt lat="44.74153" lon="-0.09178">
        <ele>69.35</ele>
        <time>2014-11-23T11:27:17Z</time>
      </trkpt>
      <trkpt lat="44.74167" lon="-0.09159">
        <ele>70.79</ele>
        <time>2014-11-23T11:27:36Z</time>
      </trkpt>
      <trkpt lat="44.74183" lon="-0.09139">
        <ele>71.76</ele>
        <time>2014-11-23T11:27:54Z</time>
      </trkpt>
      <trkpt lat="44.74196" lon="-0.09116">
        <ele>72.72</ele>
        <time>2014-11-23T11:28:14Z</time>
      </trkpt>
      <trkpt lat="44.74207" lon="-0.09097">
        <ele>73.68</ele>
        <time>2014-11-23T11:28:31Z</time>
      </trkpt>
      <trkpt lat="44.74216" lon="-0.09074">
        <ele>73.2</ele>
        <time>2014-11-23T11:28:47Z</time>
      </trkpt>
      <trkpt lat="44.74225" lon="-0.0905">
        <ele>72.24</ele>
        <time>2014-11-23T11:29:04Z</time>
      </trkpt>
      <trkpt lat="44.74235" lon="-0.09022">
        <ele>70.79</ele>
        <time>2014-11-23T11:29:23Z</time>
      </trkpt>
      <trkpt lat="44.74242" lon="-0.08993">
        <ele>71.27</ele>
        <time>2014-11-23T11:29:42Z</time>
      </trkpt>
      <trkpt lat="44.74243" lon="-0.08958">
        <ele>69.83</ele>
        <time>2014-11-23T11:30:03Z</time>
      </trkpt>
      <trkpt lat="44.74244" lon="-0.08932">
        <ele>69.83</ele>
        <time>2014-11-23T11:30:18Z</time>
      </trkpt>
      <trkpt lat="44.7425" lon="-0.08904">
        <ele>68.87</ele>
        <time>2014-11-23T11:30:35Z</time>
      </trkpt>
      <trkpt lat="44.74257" lon="-0.08879">
        <ele>68.87</ele>
        <time>2014-11-23T11:30:52Z</time>
      </trkpt>
      <trkpt lat="44.74264" lon="-0.08858">
        <ele>66.95</ele>
        <time>2014-11-23T11:31:08Z</time>
      </trkpt>
      <trkpt lat="44.74274" lon="-0.08831">
        <ele>65.51</ele>
        <time>2014-11-23T11:31:26Z</time>
      </trkpt>
      <trkpt lat="44.74289" lon="-0.08813">
        <ele>64.07</ele>
        <time>2014-11-23T11:31:44Z</time>
      </trkpt>
      <trkpt lat="44.74299" lon="-0.0879">
        <ele>62.62</ele>
        <time>2014-11-23T11:32:01Z</time>
      </trkpt>
      <trkpt lat="44.74312" lon="-0.08769">
        <ele>60.22</ele>
        <time>2014-11-23T11:32:20Z</time>
      </trkpt>
      <trkpt lat="44.7432" lon="-0.08758">
        <ele>59.26</ele>
        <time>2014-11-23T11:32:35Z</time>
      </trkpt>
      <trkpt lat="44.7434" lon="-0.08734">
        <ele>56.86</ele>
        <time>2014-11-23T11:32:57Z</time>
      </trkpt>
      <trkpt lat="44.74348" lon="-0.08722">
        <ele>56.37</ele>
        <time>2014-11-23T11:33:07Z</time>
      </trkpt>
      <trkpt lat="44.74361" lon="-0.08707">
        <ele>55.89</ele>
        <time>2014-11-23T11:33:24Z</time>
      </trkpt>
      <trkpt lat="44.7437" lon="-0.08682">
        <ele>53.97</ele>
        <time>2014-11-23T11:33:43Z</time>
      </trkpt>
      <trkpt lat="44.7437" lon="-0.08658">
        <ele>52.53</ele>
        <time>2014-11-23T11:34:00Z</time>
      </trkpt>
      <trkpt lat="44.74372" lon="-0.0863">
        <ele>52.05</ele>
        <time>2014-11-23T11:34:20Z</time>
      </trkpt>
      <trkpt lat="44.74372" lon="-0.08606">
        <ele>50.13</ele>
        <time>2014-11-23T11:34:36Z</time>
      </trkpt>
      <trkpt lat="44.74371" lon="-0.08584">
        <ele>49.65</ele>
        <time>2014-11-23T11:34:49Z</time>
      </trkpt>
      <trkpt lat="44.74375" lon="-0.08577">
        <ele>49.16</ele>
        <time>2014-11-23T11:34:55Z</time>
      </trkpt>
      <trkpt lat="44.74384" lon="-0.08555">
        <ele>49.16</ele>
        <time>2014-11-23T11:35:13Z</time>
      </trkpt>
      <trkpt lat="44.74386" lon="-0.08554">
        <ele>50.13</ele>
        <time>2014-11-23T11:35:32Z</time>
      </trkpt>
      <trkpt lat="44.74385" lon="-0.08561">
        <ele>49.65</ele>
        <time>2014-11-23T11:35:49Z</time>
      </trkpt>
      <trkpt lat="44.74387" lon="-0.08564">
        <ele>50.61</ele>
        <time>2014-11-23T11:36:14Z</time>
      </trkpt>
      <trkpt lat="44.74385" lon="-0.08559">
        <ele>50.13</ele>
        <time>2014-11-23T11:36:38Z</time>
      </trkpt>
      <trkpt lat="44.74385" lon="-0.08558">
        <ele>50.13</ele>
        <time>2014-11-23T11:37:02Z</time>
      </trkpt>
      <trkpt lat="44.74384" lon="-0.08562">
        <ele>50.13</ele>
        <time>2014-11-23T11:37:33Z</time>
      </trkpt>
      <trkpt lat="44.74384" lon="-0.08555">
        <ele>50.61</ele>
        <time>2014-11-23T11:37:59Z</time>
      </trkpt>
      <trkpt lat="44.74385" lon="-0.08558">
        <ele>51.09</ele>
        <time>2014-11-23T11:38:23Z</time>
      </trkpt>
      <trkpt lat="44.74386" lon="-0.0856">
        <ele>51.57</ele>
        <time>2014-11-23T11:38:42Z</time>
      </trkpt>
      <trkpt lat="44.74387" lon="-0.08561">
        <ele>51.57</ele>
        <time>2014-11-23T11:38:59Z</time>
      </trkpt>
      <trkpt lat="44.74388" lon="-0.08559">
        <ele>51.57</ele>
        <time>2014-11-23T11:39:22Z</time>
      </trkpt>
      <trkpt lat="44.74392" lon="-0.08551">
        <ele>51.57</ele>
        <time>2014-11-23T11:39:36Z</time>
      </trkpt>
      <trkpt lat="44.74404" lon="-0.08549">
        <ele>52.05</ele>
        <time>2014-11-23T11:39:54Z</time>
      </trkpt>
      <trkpt lat="44.74405" lon="-0.0855">
        <ele>52.05</ele>
        <time>2014-11-23T11:39:55Z</time>
      </trkpt>
      <trkpt lat="44.74424" lon="-0.08554">
        <ele>53.97</ele>
        <time>2014-11-23T11:40:11Z</time>
      </trkpt>
      <trkpt lat="44.7444" lon="-0.08557">
        <ele>55.89</ele>
        <time>2014-11-23T11:40:25Z</time>
      </trkpt>
      <trkpt lat="44.74449" lon="-0.08553">
        <ele>56.86</ele>
        <time>2014-11-23T11:40:38Z</time>
      </trkpt>
      <trkpt lat="44.74458" lon="-0.08544">
        <ele>57.82</ele>
        <time>2014-11-23T11:40:54Z</time>
      </trkpt>
      <trkpt lat="44.74466" lon="-0.08535">
        <ele>58.3</ele>
        <time>2014-11-23T11:41:05Z</time>
      </trkpt>
      <trkpt lat="44.74479" lon="-0.08525">
        <ele>59.74</ele>
        <time>2014-11-23T11:41:21Z</time>
      </trkpt>
      <trkpt lat="44.74498" lon="-0.08504">
        <ele>60.22</ele>
        <time>2014-11-23T11:41:42Z</time>
      </trkpt>
      <trkpt lat="44.74509" lon="-0.08491">
        <ele>60.7</ele>
        <time>2014-11-23T11:41:56Z</time>
      </trkpt>
      <trkpt lat="44.74528" lon="-0.08468">
        <ele>60.7</ele>
        <time>2014-11-23T11:42:17Z</time>
      </trkpt>
      <trkpt lat="44.74543" lon="-0.08447">
        <ele>61.18</ele>
        <time>2014-11-23T11:42:36Z</time>
      </trkpt>
      <trkpt lat="44.74552" lon="-0.08435">
        <ele>62.14</ele>
        <time>2014-11-23T11:42:50Z</time>
      </trkpt>
      <trkpt lat="44.74573" lon="-0.08399">
        <ele>62.14</ele>
        <time>2014-11-23T11:43:17Z</time>
      </trkpt>
      <trkpt lat="44.74591" lon="-0.08373">
        <ele>63.1</ele>
        <time>2014-11-23T11:43:38Z</time>
      </trkpt>
      <trkpt lat="44.74614" lon="-0.08354">
        <ele>64.07</ele>
        <time>2014-11-23T11:44:02Z</time>
      </trkpt>
      <trkpt lat="44.74638" lon="-0.08342">
        <ele>65.51</ele>
        <time>2014-11-23T11:44:24Z</time>
      </trkpt>
      <trkpt lat="44.74661" lon="-0.08332">
        <ele>66.95</ele>
        <time>2014-11-23T11:44:46Z</time>
      </trkpt>
      <trkpt lat="44.74687" lon="-0.08322">
        <ele>66.95</ele>
        <time>2014-11-23T11:45:10Z</time>
      </trkpt>
      <trkpt lat="44.74714" lon="-0.0832">
        <ele>67.43</ele>
        <time>2014-11-23T11:45:33Z</time>
      </trkpt>
      <trkpt lat="44.74739" lon="-0.08325">
        <ele>67.91</ele>
        <time>2014-11-23T11:45:54Z</time>
      </trkpt>
      <trkpt lat="44.74765" lon="-0.08331">
        <ele>66.95</ele>
        <time>2014-11-23T11:46:17Z</time>
      </trkpt>
      <trkpt lat="44.7479" lon="-0.08321">
        <ele>65.51</ele>
        <time>2014-11-23T11:46:41Z</time>
      </trkpt>
      <trkpt lat="44.74804" lon="-0.08309">
        <ele>64.55</ele>
        <time>2014-11-23T11:47:00Z</time>
      </trkpt>
      <trkpt lat="44.74829" lon="-0.08294">
        <ele>62.62</ele>
        <time>2014-11-23T11:47:23Z</time>
      </trkpt>
      <trkpt lat="44.74846" lon="-0.08279">
        <ele>61.18</ele>
        <time>2014-11-23T11:47:42Z</time>
      </trkpt>
      <trkpt lat="44.7487" lon="-0.08259">
        <ele>59.74</ele>
        <time>2014-11-23T11:48:08Z</time>
      </trkpt>
      <trkpt lat="44.74872" lon="-0.08255">
        <ele>58.78</ele>
        <time>2014-11-23T11:48:20Z</time>
      </trkpt>
      <trkpt lat="44.74873" lon="-0.0825">
        <ele>58.78</ele>
        <time>2014-11-23T11:48:26Z</time>
      </trkpt>
      <trkpt lat="44.74874" lon="-0.08207">
        <ele>57.82</ele>
        <time>2014-11-23T11:48:50Z</time>
      </trkpt>
      <trkpt lat="44.74878" lon="-0.08171">
        <ele>57.82</ele>
        <time>2014-11-23T11:49:11Z</time>
      </trkpt>
      <trkpt lat="44.7488" lon="-0.08136">
        <ele>57.34</ele>
        <time>2014-11-23T11:49:30Z</time>
      </trkpt>
      <trkpt lat="44.7488" lon="-0.08108">
        <ele>56.86</ele>
        <time>2014-11-23T11:49:48Z</time>
      </trkpt>
      <trkpt lat="44.74878" lon="-0.08078">
        <ele>55.89</ele>
        <time>2014-11-23T11:50:08Z</time>
      </trkpt>
      <trkpt lat="44.74878" lon="-0.08057">
        <ele>55.41</ele>
        <time>2014-11-23T11:50:23Z</time>
      </trkpt>
      <trkpt lat="44.74876" lon="-0.08017">
        <ele>53.49</ele>
        <time>2014-11-23T11:50:46Z</time>
      </trkpt>
      <trkpt lat="44.74874" lon="-0.07976">
        <ele>52.05</ele>
        <time>2014-11-23T11:51:10Z</time>
      </trkpt>
      <trkpt lat="44.74871" lon="-0.07934">
        <ele>50.61</ele>
        <time>2014-11-23T11:51:35Z</time>
      </trkpt>
      <trkpt lat="44.74869" lon="-0.07893">
        <ele>48.2</ele>
        <time>2014-11-23T11:51:59Z</time>
      </trkpt>
      <trkpt lat="44.74868" lon="-0.0785">
        <ele>46.28</ele>
        <time>2014-11-23T11:52:24Z</time>
      </trkpt>
      <trkpt lat="44.74868" lon="-0.07807">
        <ele>46.76</ele>
        <time>2014-11-23T11:52:48Z</time>
      </trkpt>
      <trkpt lat="44.74876" lon="-0.07773">
        <ele>45.8</ele>
        <time>2014-11-23T11:53:08Z</time>
      </trkpt>
      <trkpt lat="44.74879" lon="-0.0776">
        <ele>46.28</ele>
        <time>2014-11-23T11:53:16Z</time>
      </trkpt>
      <trkpt lat="44.7489" lon="-0.07738">
        <ele>48.68</ele>
        <time>2014-11-23T11:53:30Z</time>
      </trkpt>
      <trkpt lat="44.74905" lon="-0.07718">
        <ele>50.61</ele>
        <time>2014-11-23T11:53:51Z</time>
      </trkpt>
      <trkpt lat="44.74917" lon="-0.07695">
        <ele>53.49</ele>
        <time>2014-11-23T11:54:12Z</time>
      </trkpt>
      <trkpt lat="44.74928" lon="-0.07677">
        <ele>55.41</ele>
        <time>2014-11-23T11:54:29Z</time>
      </trkpt>
      <trkpt lat="44.74936" lon="-0.07657">
        <ele>58.3</ele>
        <time>2014-11-23T11:54:46Z</time>
      </trkpt>
      <trkpt lat="44.7493" lon="-0.07636">
        <ele>58.78</ele>
        <time>2014-11-23T11:55:04Z</time>
      </trkpt>
      <trkpt lat="44.74928" lon="-0.07631">
        <ele>59.74</ele>
        <time>2014-11-23T11:55:08Z</time>
      </trkpt>
      <trkpt lat="44.7492" lon="-0.07601">
        <ele>61.18</ele>
        <time>2014-11-23T11:55:28Z</time>
      </trkpt>
      <trkpt lat="44.74913" lon="-0.07574">
        <ele>62.14</ele>
        <time>2014-11-23T11:55:47Z</time>
      </trkpt>
      <trkpt lat="44.74908" lon="-0.07548">
        <ele>61.66</ele>
        <time>2014-11-23T11:56:04Z</time>
      </trkpt>
      <trkpt lat="44.74908" lon="-0.07541">
        <ele>62.14</ele>
        <time>2014-11-23T11:56:20Z</time>
      </trkpt>
      <trkpt lat="44.74913" lon="-0.07516">
        <ele>63.1</ele>
        <time>2014-11-23T11:56:38Z</time>
      </trkpt>
      <trkpt lat="44.74918" lon="-0.07492">
        <ele>64.07</ele>
        <time>2014-11-23T11:56:56Z</time>
      </trkpt>
      <trkpt lat="44.74918" lon="-0.07485">
        <ele>64.07</ele>
        <time>2014-11-23T11:57:10Z</time>
      </trkpt>
      <trkpt lat="44.7492" lon="-0.07487">
        <ele>63.1</ele>
        <time>2014-11-23T11:57:28Z</time>
      </trkpt>
      <trkpt lat="44.74921" lon="-0.07487">
        <ele>61.18</ele>
        <time>2014-11-23T11:57:49Z</time>
      </trkpt>
      <trkpt lat="44.74919" lon="-0.07487">
        <ele>74.16</ele>
        <time>2014-11-23T12:57:56Z</time>
      </trkpt>
      <trkpt lat="44.74924" lon="-0.07433">
        <ele>73.68</ele>
        <time>2014-11-23T12:57:57Z</time>
      </trkpt>
      <trkpt lat="44.7492" lon="-0.07483">
        <ele>70.79</ele>
        <time>2014-11-23T12:58:16Z</time>
      </trkpt>
      <trkpt lat="44.74921" lon="-0.07484">
        <ele>69.35</ele>
        <time>2014-11-23T12:58:20Z</time>
      </trkpt>
      <trkpt lat="44.74923" lon="-0.07486">
        <ele>66.95</ele>
        <time>2014-11-23T12:58:39Z</time>
      </trkpt>
      <trkpt lat="44.74922" lon="-0.07482">
        <ele>65.03</ele>
        <time>2014-11-23T12:59:06Z</time>
      </trkpt>
      <trkpt lat="44.74923" lon="-0.07485">
        <ele>65.51</ele>
        <time>2014-11-23T12:59:31Z</time>
      </trkpt>
      <trkpt lat="44.74922" lon="-0.07485">
        <ele>65.03</ele>
        <time>2014-11-23T12:59:49Z</time>
      </trkpt>
      <trkpt lat="44.74924" lon="-0.07487">
        <ele>65.51</ele>
        <time>2014-11-23T13:00:05Z</time>
      </trkpt>
      <trkpt lat="44.74923" lon="-0.07487">
        <ele>65.51</ele>
        <time>2014-11-23T13:00:12Z</time>
      </trkpt>
      <trkpt lat="44.74915" lon="-0.0749">
        <ele>65.51</ele>
        <time>2014-11-23T13:00:44Z</time>
      </trkpt>
      <trkpt lat="44.74916" lon="-0.07489">
        <ele>65.03</ele>
        <time>2014-11-23T13:01:05Z</time>
      </trkpt>
      <trkpt lat="44.74917" lon="-0.07489">
        <ele>66.47</ele>
        <time>2014-11-23T13:01:20Z</time>
      </trkpt>
      <trkpt lat="44.74919" lon="-0.07495">
        <ele>65.99</ele>
        <time>2014-11-23T13:01:37Z</time>
      </trkpt>
      <trkpt lat="44.74916" lon="-0.0751">
        <ele>65.51</ele>
        <time>2014-11-23T13:01:52Z</time>
      </trkpt>
      <trkpt lat="44.74917" lon="-0.07521">
        <ele>65.03</ele>
        <time>2014-11-23T13:02:06Z</time>
      </trkpt>
      <trkpt lat="44.74908" lon="-0.07532">
        <ele>64.07</ele>
        <time>2014-11-23T13:02:21Z</time>
      </trkpt>
      <trkpt lat="44.74895" lon="-0.07554">
        <ele>62.62</ele>
        <time>2014-11-23T13:02:39Z</time>
      </trkpt>
      <trkpt lat="44.74879" lon="-0.07554">
        <ele>62.62</ele>
        <time>2014-11-23T13:02:55Z</time>
      </trkpt>
      <trkpt lat="44.74878" lon="-0.07527">
        <ele>64.07</ele>
        <time>2014-11-23T13:03:13Z</time>
      </trkpt>
      <trkpt lat="44.74882" lon="-0.07511">
        <ele>63.58</ele>
        <time>2014-11-23T13:03:35Z</time>
      </trkpt>
      <trkpt lat="44.74896" lon="-0.07504">
        <ele>62.62</ele>
        <time>2014-11-23T13:04:05Z</time>
      </trkpt>
      <trkpt lat="44.7489" lon="-0.07512">
        <ele>63.1</ele>
        <time>2014-11-23T13:04:28Z</time>
      </trkpt>
      <trkpt lat="44.74886" lon="-0.07516">
        <ele>63.1</ele>
        <time>2014-11-23T13:04:31Z</time>
      </trkpt>
      <trkpt lat="44.74883" lon="-0.07542">
        <ele>61.66</ele>
        <time>2014-11-23T13:04:48Z</time>
      </trkpt>
      <trkpt lat="44.74889" lon="-0.07553">
        <ele>61.18</ele>
        <time>2014-11-23T13:05:03Z</time>
      </trkpt>
      <trkpt lat="44.74892" lon="-0.07551">
        <ele>61.66</ele>
        <time>2014-11-23T13:05:06Z</time>
      </trkpt>
      <trkpt lat="44.74907" lon="-0.07541">
        <ele>61.18</ele>
        <time>2014-11-23T13:05:23Z</time>
      </trkpt>
      <trkpt lat="44.74917" lon="-0.07535">
        <ele>62.62</ele>
        <time>2014-11-23T13:05:39Z</time>
      </trkpt>
      <trkpt lat="44.74917" lon="-0.07528">
        <ele>62.62</ele>
        <time>2014-11-23T13:05:53Z</time>
      </trkpt>
      <trkpt lat="44.74918" lon="-0.07522">
        <ele>62.62</ele>
        <time>2014-11-23T13:06:03Z</time>
      </trkpt>
      <trkpt lat="44.7492" lon="-0.07523">
        <ele>62.62</ele>
        <time>2014-11-23T13:06:24Z</time>
      </trkpt>
      <trkpt lat="44.74919" lon="-0.07521">
        <ele>63.1</ele>
        <time>2014-11-23T13:06:49Z</time>
      </trkpt>
      <trkpt lat="44.74917" lon="-0.07521">
        <ele>62.62</ele>
        <time>2014-11-23T13:07:10Z</time>
      </trkpt>
      <trkpt lat="44.74918" lon="-0.07522">
        <ele>62.62</ele>
        <time>2014-11-23T13:07:32Z</time>
      </trkpt>
      <trkpt lat="44.74917" lon="-0.07518">
        <ele>62.62</ele>
        <time>2014-11-23T13:07:54Z</time>
      </trkpt>
      <trkpt lat="44.74919" lon="-0.07519">
        <ele>62.14</ele>
        <time>2014-11-23T13:08:11Z</time>
      </trkpt>
      <trkpt lat="44.74919" lon="-0.07519">
        <ele>62.62</ele>
        <time>2014-11-23T13:08:28Z</time>
      </trkpt>
      <trkpt lat="44.7492" lon="-0.07522">
        <ele>61.66</ele>
        <time>2014-11-23T13:08:47Z</time>
      </trkpt>
      <trkpt lat="44.74916" lon="-0.07526">
        <ele>62.62</ele>
        <time>2014-11-23T13:09:03Z</time>
      </trkpt>
      <trkpt lat="44.74917" lon="-0.07522">
        <ele>62.14</ele>
        <time>2014-11-23T13:09:23Z</time>
      </trkpt>
      <trkpt lat="44.74915" lon="-0.0752">
        <ele>62.14</ele>
        <time>2014-11-23T13:09:36Z</time>
      </trkpt>
      <trkpt lat="44.74913" lon="-0.0752">
        <ele>62.62</ele>
        <time>2014-11-23T13:10:04Z</time>
      </trkpt>
      <trkpt lat="44.74913" lon="-0.07521">
        <ele>62.14</ele>
        <time>2014-11-23T13:10:18Z</time>
      </trkpt>
      <trkpt lat="44.74916" lon="-0.07519">
        <ele>62.62</ele>
        <time>2014-11-23T13:10:37Z</time>
      </trkpt>
      <trkpt lat="44.74916" lon="-0.07517">
        <ele>62.14</ele>
        <time>2014-11-23T13:11:05Z</time>
      </trkpt>
      <trkpt lat="44.74912" lon="-0.07518">
        <ele>62.62</ele>
        <time>2014-11-23T13:11:24Z</time>
      </trkpt>
      <trkpt lat="44.74912" lon="-0.07519">
        <ele>62.62</ele>
        <time>2014-11-23T13:11:50Z</time>
      </trkpt>
      <trkpt lat="44.74913" lon="-0.07517">
        <ele>62.14</ele>
        <time>2014-11-23T13:12:05Z</time>
      </trkpt>
      <trkpt lat="44.74915" lon="-0.07519">
        <ele>62.62</ele>
        <time>2014-11-23T13:12:20Z</time>
      </trkpt>
      <trkpt lat="44.74922" lon="-0.07523">
        <ele>62.14</ele>
        <time>2014-11-23T13:12:34Z</time>
      </trkpt>
      <trkpt lat="44.74932" lon="-0.0753">
        <ele>62.62</ele>
        <time>2014-11-23T13:12:47Z</time>
      </trkpt>
      <trkpt lat="44.74944" lon="-0.07529">
        <ele>62.62</ele>
        <time>2014-11-23T13:13:03Z</time>
      </trkpt>
      <trkpt lat="44.74947" lon="-0.0753">
        <ele>62.14</ele>
        <time>2014-11-23T13:13:25Z</time>
      </trkpt>
      <trkpt lat="44.7495" lon="-0.07528">
        <ele>62.62</ele>
        <time>2014-11-23T13:13:39Z</time>
      </trkpt>
      <trkpt lat="44.74954" lon="-0.07539">
        <ele>62.14</ele>
        <time>2014-11-23T13:13:53Z</time>
      </trkpt>
      <trkpt lat="44.74955" lon="-0.07543">
        <ele>62.14</ele>
        <time>2014-11-23T13:13:56Z</time>
      </trkpt>
      <trkpt lat="44.74966" lon="-0.07565">
        <ele>61.18</ele>
        <time>2014-11-23T13:14:15Z</time>
      </trkpt>
      <trkpt lat="44.74976" lon="-0.07588">
        <ele>60.7</ele>
        <time>2014-11-23T13:14:32Z</time>
      </trkpt>
      <trkpt lat="44.74985" lon="-0.07604">
        <ele>59.74</ele>
        <time>2014-11-23T13:14:49Z</time>
      </trkpt>
      <trkpt lat="44.74989" lon="-0.0761">
        <ele>59.74</ele>
        <time>2014-11-23T13:14:54Z</time>
      </trkpt>
      <trkpt lat="44.7499" lon="-0.07622">
        <ele>59.26</ele>
        <time>2014-11-23T13:15:04Z</time>
      </trkpt>
      <trkpt lat="44.74994" lon="-0.07634">
        <ele>58.78</ele>
        <time>2014-11-23T13:15:17Z</time>
      </trkpt>
      <trkpt lat="44.75009" lon="-0.07666">
        <ele>57.82</ele>
        <time>2014-11-23T13:15:40Z</time>
      </trkpt>
      <trkpt lat="44.75017" lon="-0.07678">
        <ele>57.34</ele>
        <time>2014-11-23T13:15:55Z</time>
      </trkpt>
      <trkpt lat="44.75032" lon="-0.07689">
        <ele>54.45</ele>
        <time>2014-11-23T13:16:14Z</time>
      </trkpt>
      <trkpt lat="44.7504" lon="-0.07702">
        <ele>52.53</ele>
        <time>2014-11-23T13:16:29Z</time>
      </trkpt>
      <trkpt lat="44.75046" lon="-0.07716">
        <ele>51.57</ele>
        <time>2014-11-23T13:16:43Z</time>
      </trkpt>
      <trkpt lat="44.75054" lon="-0.07735">
        <ele>49.16</ele>
        <time>2014-11-23T13:17:00Z</time>
      </trkpt>
      <trkpt lat="44.75058" lon="-0.07764">
        <ele>46.76</ele>
        <time>2014-11-23T13:17:21Z</time>
      </trkpt>
      <trkpt lat="44.75062" lon="-0.0779">
        <ele>44.36</ele>
        <time>2014-11-23T13:17:39Z</time>
      </trkpt>
      <trkpt lat="44.75063" lon="-0.07818">
        <ele>42.92</ele>
        <time>2014-11-23T13:17:58Z</time>
      </trkpt>
      <trkpt lat="44.75062" lon="-0.07824">
        <ele>42.44</ele>
        <time>2014-11-23T13:18:02Z</time>
      </trkpt>
      <trkpt lat="44.75067" lon="-0.07851">
        <ele>41.95</ele>
        <time>2014-11-23T13:18:22Z</time>
      </trkpt>
      <trkpt lat="44.75073" lon="-0.07866">
        <ele>40.51</ele>
        <time>2014-11-23T13:18:39Z</time>
      </trkpt>
      <trkpt lat="44.75077" lon="-0.07862">
        <ele>40.03</ele>
        <time>2014-11-23T13:18:48Z</time>
      </trkpt>
      <trkpt lat="44.75094" lon="-0.07863">
        <ele>37.15</ele>
        <time>2014-11-23T13:19:05Z</time>
      </trkpt>
      <trkpt lat="44.75113" lon="-0.07869">
        <ele>34.74</ele>
        <time>2014-11-23T13:19:26Z</time>
      </trkpt>
      <trkpt lat="44.75132" lon="-0.07876">
        <ele>31.86</ele>
        <time>2014-11-23T13:19:46Z</time>
      </trkpt>
      <trkpt lat="44.75134" lon="-0.07877">
        <ele>31.38</ele>
        <time>2014-11-23T13:19:48Z</time>
      </trkpt>
      <trkpt lat="44.75149" lon="-0.07904">
        <ele>29.94</ele>
        <time>2014-11-23T13:20:08Z</time>
      </trkpt>
      <trkpt lat="44.75159" lon="-0.07925">
        <ele>29.46</ele>
        <time>2014-11-23T13:20:25Z</time>
      </trkpt>
      <trkpt lat="44.75161" lon="-0.07947">
        <ele>29.94</ele>
        <time>2014-11-23T13:20:42Z</time>
      </trkpt>
      <trkpt lat="44.75151" lon="-0.07976">
        <ele>30.42</ele>
        <time>2014-11-23T13:21:00Z</time>
      </trkpt>
      <trkpt lat="44.75144" lon="-0.07996">
        <ele>29.46</ele>
        <time>2014-11-23T13:21:17Z</time>
      </trkpt>
      <trkpt lat="44.75153" lon="-0.08031">
        <ele>29.46</ele>
        <time>2014-11-23T13:21:39Z</time>
      </trkpt>
      <trkpt lat="44.75166" lon="-0.08062">
        <ele>28.98</ele>
        <time>2014-11-23T13:21:58Z</time>
      </trkpt>
      <trkpt lat="44.75169" lon="-0.08088">
        <ele>29.94</ele>
        <time>2014-11-23T13:22:19Z</time>
      </trkpt>
      <trkpt lat="44.75164" lon="-0.08106">
        <ele>28.98</ele>
        <time>2014-11-23T13:22:36Z</time>
      </trkpt>
      <trkpt lat="44.75164" lon="-0.08107">
        <ele>28.98</ele>
        <time>2014-11-23T13:23:01Z</time>
      </trkpt>
      <trkpt lat="44.75167" lon="-0.08107">
        <ele>29.46</ele>
        <time>2014-11-23T13:23:25Z</time>
      </trkpt>
      <trkpt lat="44.7516" lon="-0.08104">
        <ele>29.46</ele>
        <time>2014-11-23T13:23:44Z</time>
      </trkpt>
      <trkpt lat="44.75157" lon="-0.08105">
        <ele>29.46</ele>
        <time>2014-11-23T13:24:04Z</time>
      </trkpt>
      <trkpt lat="44.75159" lon="-0.08104">
        <ele>29.94</ele>
        <time>2014-11-23T13:24:34Z</time>
      </trkpt>
      <trkpt lat="44.75159" lon="-0.08105">
        <ele>30.42</ele>
        <time>2014-11-23T13:25:00Z</time>
      </trkpt>
      <trkpt lat="44.75161" lon="-0.08108">
        <ele>30.42</ele>
        <time>2014-11-23T13:25:20Z</time>
      </trkpt>
      <trkpt lat="44.7516" lon="-0.08122">
        <ele>30.9</ele>
        <time>2014-11-23T13:25:34Z</time>
      </trkpt>
      <trkpt lat="44.75159" lon="-0.08132">
        <ele>31.38</ele>
        <time>2014-11-23T13:25:44Z</time>
      </trkpt>
      <trkpt lat="44.75158" lon="-0.08142">
        <ele>31.86</ele>
        <time>2014-11-23T13:25:57Z</time>
      </trkpt>
      <trkpt lat="44.75155" lon="-0.0815">
        <ele>32.34</ele>
        <time>2014-11-23T13:26:13Z</time>
      </trkpt>
      <trkpt lat="44.75161" lon="-0.08164">
        <ele>32.82</ele>
        <time>2014-11-23T13:26:27Z</time>
      </trkpt>
      <trkpt lat="44.75165" lon="-0.08185">
        <ele>33.78</ele>
        <time>2014-11-23T13:26:45Z</time>
      </trkpt>
      <trkpt lat="44.75167" lon="-0.08197">
        <ele>34.26</ele>
        <time>2014-11-23T13:27:03Z</time>
      </trkpt>
      <trkpt lat="44.75175" lon="-0.08227">
        <ele>34.74</ele>
        <time>2014-11-23T13:27:21Z</time>
      </trkpt>
      <trkpt lat="44.75175" lon="-0.08239">
        <ele>34.74</ele>
        <time>2014-11-23T13:27:28Z</time>
      </trkpt>
      <trkpt lat="44.75172" lon="-0.08269">
        <ele>34.74</ele>
        <time>2014-11-23T13:27:46Z</time>
      </trkpt>
      <trkpt lat="44.75161" lon="-0.08296">
        <ele>37.15</ele>
        <time>2014-11-23T13:28:06Z</time>
      </trkpt>
      <trkpt lat="44.75153" lon="-0.08307">
        <ele>39.07</ele>
        <time>2014-11-23T13:28:20Z</time>
      </trkpt>
      <trkpt lat="44.75154" lon="-0.08314">
        <ele>39.07</ele>
        <time>2014-11-23T13:28:34Z</time>
      </trkpt>
      <trkpt lat="44.75155" lon="-0.08334">
        <ele>38.59</ele>
        <time>2014-11-23T13:28:47Z</time>
      </trkpt>
      <trkpt lat="44.75157" lon="-0.08344">
        <ele>39.07</ele>
        <time>2014-11-23T13:29:02Z</time>
      </trkpt>
      <trkpt lat="44.75159" lon="-0.08348">
        <ele>38.59</ele>
        <time>2014-11-23T13:29:11Z</time>
      </trkpt>
      <trkpt lat="44.75165" lon="-0.08376">
        <ele>38.59</ele>
        <time>2014-11-23T13:29:30Z</time>
      </trkpt>
      <trkpt lat="44.7517" lon="-0.08399">
        <ele>38.11</ele>
        <time>2014-11-23T13:29:45Z</time>
      </trkpt>
      <trkpt lat="44.75174" lon="-0.08419">
        <ele>37.63</ele>
        <time>2014-11-23T13:30:00Z</time>
      </trkpt>
      <trkpt lat="44.75179" lon="-0.08435">
        <ele>37.63</ele>
        <time>2014-11-23T13:30:15Z</time>
      </trkpt>
      <trkpt lat="44.75181" lon="-0.08457">
        <ele>37.15</ele>
        <time>2014-11-23T13:30:32Z</time>
      </trkpt>
      <trkpt lat="44.75178" lon="-0.08471">
        <ele>37.63</ele>
        <time>2014-11-23T13:30:42Z</time>
      </trkpt>
      <trkpt lat="44.75168" lon="-0.08493">
        <ele>37.15</ele>
        <time>2014-11-23T13:31:01Z</time>
      </trkpt>
      <trkpt lat="44.75175" lon="-0.08521">
        <ele>36.67</ele>
        <time>2014-11-23T13:31:24Z</time>
      </trkpt>
      <trkpt lat="44.7515" lon="-0.08547">
        <ele>36.19</ele>
        <time>2014-11-23T13:31:45Z</time>
      </trkpt>
      <trkpt lat="44.75126" lon="-0.08571">
        <ele>36.67</ele>
        <time>2014-11-23T13:32:05Z</time>
      </trkpt>
      <trkpt lat="44.75119" lon="-0.08582">
        <ele>37.15</ele>
        <time>2014-11-23T13:32:23Z</time>
      </trkpt>
      <trkpt lat="44.75113" lon="-0.08594">
        <ele>36.19</ele>
        <time>2014-11-23T13:32:38Z</time>
      </trkpt>
      <trkpt lat="44.75109" lon="-0.08622">
        <ele>36.67</ele>
        <time>2014-11-23T13:32:56Z</time>
      </trkpt>
      <trkpt lat="44.7511" lon="-0.08636">
        <ele>36.67</ele>
        <time>2014-11-23T13:33:04Z</time>
      </trkpt>
      <trkpt lat="44.75119" lon="-0.08666">
        <ele>36.67</ele>
        <time>2014-11-23T13:33:25Z</time>
      </trkpt>
      <trkpt lat="44.75124" lon="-0.08695">
        <ele>37.15</ele>
        <time>2014-11-23T13:33:45Z</time>
      </trkpt>
      <trkpt lat="44.75126" lon="-0.08729">
        <ele>36.67</ele>
        <time>2014-11-23T13:34:06Z</time>
      </trkpt>
      <trkpt lat="44.75118" lon="-0.08762">
        <ele>36.67</ele>
        <time>2014-11-23T13:34:27Z</time>
      </trkpt>
      <trkpt lat="44.75102" lon="-0.08793">
        <ele>37.15</ele>
        <time>2014-11-23T13:34:46Z</time>
      </trkpt>
      <trkpt lat="44.75096" lon="-0.08822">
        <ele>36.67</ele>
        <time>2014-11-23T13:35:05Z</time>
      </trkpt>
      <trkpt lat="44.75093" lon="-0.08834">
        <ele>36.19</ele>
        <time>2014-11-23T13:35:15Z</time>
      </trkpt>
      <trkpt lat="44.75094" lon="-0.08836">
        <ele>36.19</ele>
        <time>2014-11-23T13:35:31Z</time>
      </trkpt>
      <trkpt lat="44.75102" lon="-0.08838">
        <ele>36.19</ele>
        <time>2014-11-23T13:35:44Z</time>
      </trkpt>
      <trkpt lat="44.75114" lon="-0.08833">
        <ele>36.19</ele>
        <time>2014-11-23T13:36:00Z</time>
      </trkpt>
      <trkpt lat="44.75118" lon="-0.08821">
        <ele>36.19</ele>
        <time>2014-11-23T13:36:12Z</time>
      </trkpt>
      <trkpt lat="44.75129" lon="-0.08799">
        <ele>37.63</ele>
        <time>2014-11-23T13:36:30Z</time>
      </trkpt>
      <trkpt lat="44.75131" lon="-0.08791">
        <ele>37.15</ele>
        <time>2014-11-23T13:36:36Z</time>
      </trkpt>
      <trkpt lat="44.7514" lon="-0.08769">
        <ele>38.11</ele>
        <time>2014-11-23T13:36:53Z</time>
      </trkpt>
      <trkpt lat="44.7514" lon="-0.08768">
        <ele>37.63</ele>
        <time>2014-11-23T13:36:54Z</time>
      </trkpt>
      <trkpt lat="44.75144" lon="-0.08738">
        <ele>37.63</ele>
        <time>2014-11-23T13:37:14Z</time>
      </trkpt>
      <trkpt lat="44.75145" lon="-0.08715">
        <ele>37.63</ele>
        <time>2014-11-23T13:37:29Z</time>
      </trkpt>
      <trkpt lat="44.75148" lon="-0.08691">
        <ele>37.15</ele>
        <time>2014-11-23T13:37:44Z</time>
      </trkpt>
      <trkpt lat="44.75149" lon="-0.08671">
        <ele>36.67</ele>
        <time>2014-11-23T13:37:58Z</time>
      </trkpt>
      <trkpt lat="44.75151" lon="-0.08643">
        <ele>36.67</ele>
        <time>2014-11-23T13:38:16Z</time>
      </trkpt>
      <trkpt lat="44.7516" lon="-0.08624">
        <ele>37.63</ele>
        <time>2014-11-23T13:38:31Z</time>
      </trkpt>
      <trkpt lat="44.75164" lon="-0.08619">
        <ele>37.63</ele>
        <time>2014-11-23T13:38:35Z</time>
      </trkpt>
      <trkpt lat="44.75177" lon="-0.08609">
        <ele>37.63</ele>
        <time>2014-11-23T13:38:49Z</time>
      </trkpt>
      <trkpt lat="44.75192" lon="-0.08609">
        <ele>40.03</ele>
        <time>2014-11-23T13:39:04Z</time>
      </trkpt>
      <trkpt lat="44.75205" lon="-0.08613">
        <ele>42.92</ele>
        <time>2014-11-23T13:39:19Z</time>
      </trkpt>
      <trkpt lat="44.75218" lon="-0.08611">
        <ele>45.32</ele>
        <time>2014-11-23T13:39:34Z</time>
      </trkpt>
      <trkpt lat="44.75223" lon="-0.08611">
        <ele>46.76</ele>
        <time>2014-11-23T13:39:49Z</time>
      </trkpt>
      <trkpt lat="44.75227" lon="-0.08613">
        <ele>46.28</ele>
        <time>2014-11-23T13:40:06Z</time>
      </trkpt>
      <trkpt lat="44.75225" lon="-0.08613">
        <ele>45.32</ele>
        <time>2014-11-23T13:40:33Z</time>
      </trkpt>
      <trkpt lat="44.75224" lon="-0.08617">
        <ele>45.8</ele>
        <time>2014-11-23T13:41:00Z</time>
      </trkpt>
      <trkpt lat="44.75224" lon="-0.08617">
        <ele>45.32</ele>
        <time>2014-11-23T13:41:28Z</time>
      </trkpt>
      <trkpt lat="44.75219" lon="-0.08619">
        <ele>45.8</ele>
        <time>2014-11-23T13:41:50Z</time>
      </trkpt>
      <trkpt lat="44.75223" lon="-0.08617">
        <ele>45.32</ele>
        <time>2014-11-23T13:42:12Z</time>
      </trkpt>
      <trkpt lat="44.7522" lon="-0.08621">
        <ele>45.8</ele>
        <time>2014-11-23T13:42:31Z</time>
      </trkpt>
      <trkpt lat="44.75218" lon="-0.08627">
        <ele>46.28</ele>
        <time>2014-11-23T13:42:57Z</time>
      </trkpt>
      <trkpt lat="44.75217" lon="-0.08624">
        <ele>45.8</ele>
        <time>2014-11-23T13:43:31Z</time>
      </trkpt>
      <trkpt lat="44.75218" lon="-0.08623">
        <ele>46.28</ele>
        <time>2014-11-23T13:44:08Z</time>
      </trkpt>
      <trkpt lat="44.75221" lon="-0.08613">
        <ele>45.8</ele>
        <time>2014-11-23T13:44:32Z</time>
      </trkpt>
      <trkpt lat="44.75213" lon="-0.08619">
        <ele>45.8</ele>
        <time>2014-11-23T13:44:51Z</time>
      </trkpt>
      <trkpt lat="44.752" lon="-0.08618">
        <ele>42.44</ele>
        <time>2014-11-23T13:45:07Z</time>
      </trkpt>
      <trkpt lat="44.75183" lon="-0.08617">
        <ele>39.07</ele>
        <time>2014-11-23T13:45:26Z</time>
      </trkpt>
      <trkpt lat="44.75175" lon="-0.08613">
        <ele>37.15</ele>
        <time>2014-11-23T13:45:38Z</time>
      </trkpt>
      <trkpt lat="44.75194" lon="-0.08594">
        <ele>36.67</ele>
        <time>2014-11-23T13:45:55Z</time>
      </trkpt>
      <trkpt lat="44.75201" lon="-0.0859">
        <ele>37.15</ele>
        <time>2014-11-23T13:46:10Z</time>
      </trkpt>
      <trkpt lat="44.75215" lon="-0.08583">
        <ele>37.15</ele>
        <time>2014-11-23T13:46:24Z</time>
      </trkpt>
      <trkpt lat="44.75225" lon="-0.0858">
        <ele>36.67</ele>
        <time>2014-11-23T13:46:33Z</time>
      </trkpt>
      <trkpt lat="44.75231" lon="-0.08576">
        <ele>36.67</ele>
        <time>2014-11-23T13:46:41Z</time>
      </trkpt>
      <trkpt lat="44.75248" lon="-0.08598">
        <ele>36.19</ele>
        <time>2014-11-23T13:46:57Z</time>
      </trkpt>
      <trkpt lat="44.75264" lon="-0.08612">
        <ele>36.67</ele>
        <time>2014-11-23T13:47:14Z</time>
      </trkpt>
      <trkpt lat="44.75274" lon="-0.08626">
        <ele>36.19</ele>
        <time>2014-11-23T13:47:29Z</time>
      </trkpt>
      <trkpt lat="44.75287" lon="-0.08635">
        <ele>36.19</ele>
        <time>2014-11-23T13:47:45Z</time>
      </trkpt>
      <trkpt lat="44.75295" lon="-0.0864">
        <ele>36.67</ele>
        <time>2014-11-23T13:47:54Z</time>
      </trkpt>
      <trkpt lat="44.75314" lon="-0.08643">
        <ele>35.71</ele>
        <time>2014-11-23T13:48:11Z</time>
      </trkpt>
      <trkpt lat="44.75328" lon="-0.08647">
        <ele>35.23</ele>
        <time>2014-11-23T13:48:25Z</time>
      </trkpt>
      <trkpt lat="44.75335" lon="-0.08654">
        <ele>35.23</ele>
        <time>2014-11-23T13:48:44Z</time>
      </trkpt>
      <trkpt lat="44.75344" lon="-0.08654">
        <ele>35.23</ele>
        <time>2014-11-23T13:49:04Z</time>
      </trkpt>
      <trkpt lat="44.7535" lon="-0.08655">
        <ele>35.23</ele>
        <time>2014-11-23T13:49:18Z</time>
      </trkpt>
      <trkpt lat="44.75362" lon="-0.08659">
        <ele>35.23</ele>
        <time>2014-11-23T13:49:34Z</time>
      </trkpt>
      <trkpt lat="44.75377" lon="-0.08657">
        <ele>35.23</ele>
        <time>2014-11-23T13:49:54Z</time>
      </trkpt>
      <trkpt lat="44.75394" lon="-0.08671">
        <ele>35.71</ele>
        <time>2014-11-23T13:50:12Z</time>
      </trkpt>
      <trkpt lat="44.75416" lon="-0.08684">
        <ele>34.74</ele>
        <time>2014-11-23T13:50:37Z</time>
      </trkpt>
      <trkpt lat="44.75413" lon="-0.08691">
        <ele>35.71</ele>
        <time>2014-11-23T13:50:55Z</time>
      </trkpt>
      <trkpt lat="44.75417" lon="-0.08689">
        <ele>35.23</ele>
        <time>2014-11-23T13:51:11Z</time>
      </trkpt>
      <trkpt lat="44.75413" lon="-0.08691">
        <ele>35.23</ele>
        <time>2014-11-23T13:51:36Z</time>
      </trkpt>
      <trkpt lat="44.75414" lon="-0.08694">
        <ele>35.23</ele>
        <time>2014-11-23T13:51:55Z</time>
      </trkpt>
      <trkpt lat="44.75412" lon="-0.0869">
        <ele>34.74</ele>
        <time>2014-11-23T13:52:12Z</time>
      </trkpt>
      <trkpt lat="44.75417" lon="-0.08683">
        <ele>34.74</ele>
        <time>2014-11-23T13:52:36Z</time>
      </trkpt>
      <trkpt lat="44.75417" lon="-0.08691">
        <ele>34.74</ele>
        <time>2014-11-23T13:52:59Z</time>
      </trkpt>
      <trkpt lat="44.75415" lon="-0.0869">
        <ele>35.23</ele>
        <time>2014-11-23T13:53:16Z</time>
      </trkpt>
      <trkpt lat="44.75411" lon="-0.08698">
        <ele>34.74</ele>
        <time>2014-11-23T13:53:35Z</time>
      </trkpt>
      <trkpt lat="44.75408" lon="-0.08701">
        <ele>35.71</ele>
        <time>2014-11-23T13:54:00Z</time>
      </trkpt>
      <trkpt lat="44.75418" lon="-0.08691">
        <ele>34.74</ele>
        <time>2014-11-23T13:54:12Z</time>
      </trkpt>
      <trkpt lat="44.75431" lon="-0.08707">
        <ele>35.71</ele>
        <time>2014-11-23T13:54:29Z</time>
      </trkpt>
      <trkpt lat="44.7545" lon="-0.08726">
        <ele>36.19</ele>
        <time>2014-11-23T13:54:49Z</time>
      </trkpt>
      <trkpt lat="44.75455" lon="-0.0873">
        <ele>36.67</ele>
        <time>2014-11-23T13:54:54Z</time>
      </trkpt>
      <trkpt lat="44.75473" lon="-0.08747">
        <ele>36.67</ele>
        <time>2014-11-23T13:55:15Z</time>
      </trkpt>
      <trkpt lat="44.75486" lon="-0.08758">
        <ele>36.67</ele>
        <time>2014-11-23T13:55:29Z</time>
      </trkpt>
      <trkpt lat="44.75505" lon="-0.08754">
        <ele>35.23</ele>
        <time>2014-11-23T13:55:46Z</time>
      </trkpt>
      <trkpt lat="44.75507" lon="-0.0875">
        <ele>35.71</ele>
        <time>2014-11-23T13:55:50Z</time>
      </trkpt>
      <trkpt lat="44.7551" lon="-0.0874">
        <ele>35.71</ele>
        <time>2014-11-23T13:55:57Z</time>
      </trkpt>
      <trkpt lat="44.75514" lon="-0.08723">
        <ele>36.19</ele>
        <time>2014-11-23T13:56:07Z</time>
      </trkpt>
      <trkpt lat="44.7552" lon="-0.08704">
        <ele>36.19</ele>
        <time>2014-11-23T13:56:17Z</time>
      </trkpt>
      <trkpt lat="44.75532" lon="-0.08685">
        <ele>39.07</ele>
        <time>2014-11-23T13:56:34Z</time>
      </trkpt>
      <trkpt lat="44.75532" lon="-0.08676">
        <ele>39.07</ele>
        <time>2014-11-23T13:56:41Z</time>
      </trkpt>
      <trkpt lat="44.75535" lon="-0.08651">
        <ele>40.99</ele>
        <time>2014-11-23T13:56:58Z</time>
      </trkpt>
      <trkpt lat="44.75536" lon="-0.08647">
        <ele>41.47</ele>
        <time>2014-11-23T13:57:01Z</time>
      </trkpt>
      <trkpt lat="44.75544" lon="-0.08629">
        <ele>44.84</ele>
        <time>2014-11-23T13:57:16Z</time>
      </trkpt>
      <trkpt lat="44.75555" lon="-0.08613">
        <ele>46.76</ele>
        <time>2014-11-23T13:57:32Z</time>
      </trkpt>
      <trkpt lat="44.75567" lon="-0.08603">
        <ele>48.2</ele>
        <time>2014-11-23T13:57:47Z</time>
      </trkpt>
      <trkpt lat="44.75583" lon="-0.08588">
        <ele>50.13</ele>
        <time>2014-11-23T13:58:04Z</time>
      </trkpt>
      <trkpt lat="44.75602" lon="-0.08576">
        <ele>51.57</ele>
        <time>2014-11-23T13:58:24Z</time>
      </trkpt>
      <trkpt lat="44.7562" lon="-0.08562">
        <ele>52.53</ele>
        <time>2014-11-23T13:58:44Z</time>
      </trkpt>
      <trkpt lat="44.75625" lon="-0.08558">
        <ele>53.49</ele>
        <time>2014-11-23T13:58:49Z</time>
      </trkpt>
      <trkpt lat="44.7564" lon="-0.08543">
        <ele>55.41</ele>
        <time>2014-11-23T13:59:07Z</time>
      </trkpt>
      <trkpt lat="44.7565" lon="-0.08531">
        <ele>56.86</ele>
        <time>2014-11-23T13:59:24Z</time>
      </trkpt>
      <trkpt lat="44.75646" lon="-0.08532">
        <ele>56.86</ele>
        <time>2014-11-23T13:59:41Z</time>
      </trkpt>
      <trkpt lat="44.75647" lon="-0.08539">
        <ele>56.86</ele>
        <time>2014-11-23T14:00:11Z</time>
      </trkpt>
      <trkpt lat="44.75652" lon="-0.08535">
        <ele>56.86</ele>
        <time>2014-11-23T14:00:30Z</time>
      </trkpt>
      <trkpt lat="44.7565" lon="-0.08539">
        <ele>57.34</ele>
        <time>2014-11-23T14:00:48Z</time>
      </trkpt>
      <trkpt lat="44.75651" lon="-0.0854">
        <ele>57.34</ele>
        <time>2014-11-23T14:01:14Z</time>
      </trkpt>
      <trkpt lat="44.75647" lon="-0.08537">
        <ele>56.86</ele>
        <time>2014-11-23T14:01:39Z</time>
      </trkpt>
      <trkpt lat="44.75648" lon="-0.08535">
        <ele>57.82</ele>
        <time>2014-11-23T14:02:18Z</time>
      </trkpt>
      <trkpt lat="44.75649" lon="-0.08536">
        <ele>57.82</ele>
        <time>2014-11-23T14:02:43Z</time>
      </trkpt>
      <trkpt lat="44.7565" lon="-0.08531">
        <ele>57.34</ele>
        <time>2014-11-23T14:03:17Z</time>
      </trkpt>
      <trkpt lat="44.75647" lon="-0.08534">
        <ele>57.34</ele>
        <time>2014-11-23T14:03:33Z</time>
      </trkpt>
      <trkpt lat="44.75645" lon="-0.08523">
        <ele>56.86</ele>
        <time>2014-11-23T14:03:38Z</time>
      </trkpt>
      <trkpt lat="44.75645" lon="-0.08515">
        <ele>56.86</ele>
        <time>2014-11-23T14:03:42Z</time>
      </trkpt>
      <trkpt lat="44.75653" lon="-0.08521">
        <ele>57.34</ele>
        <time>2014-11-23T14:03:55Z</time>
      </trkpt>
      <trkpt lat="44.75659" lon="-0.08531">
        <ele>57.34</ele>
        <time>2014-11-23T14:04:05Z</time>
      </trkpt>
      <trkpt lat="44.75673" lon="-0.0855">
        <ele>56.86</ele>
        <time>2014-11-23T14:04:24Z</time>
      </trkpt>
      <trkpt lat="44.75682" lon="-0.08568">
        <ele>57.34</ele>
        <time>2014-11-23T14:04:38Z</time>
      </trkpt>
      <trkpt lat="44.75694" lon="-0.08596">
        <ele>57.34</ele>
        <time>2014-11-23T14:04:59Z</time>
      </trkpt>
      <trkpt lat="44.75701" lon="-0.08618">
        <ele>57.34</ele>
        <time>2014-11-23T14:05:15Z</time>
      </trkpt>
      <trkpt lat="44.75712" lon="-0.08643">
        <ele>57.82</ele>
        <time>2014-11-23T14:05:33Z</time>
      </trkpt>
      <trkpt lat="44.75716" lon="-0.08658">
        <ele>57.82</ele>
        <time>2014-11-23T14:05:43Z</time>
      </trkpt>
      <trkpt lat="44.75721" lon="-0.0868">
        <ele>57.34</ele>
        <time>2014-11-23T14:05:58Z</time>
      </trkpt>
      <trkpt lat="44.75728" lon="-0.08709">
        <ele>56.86</ele>
        <time>2014-11-23T14:06:17Z</time>
      </trkpt>
      <trkpt lat="44.75734" lon="-0.08741">
        <ele>55.89</ele>
        <time>2014-11-23T14:06:38Z</time>
      </trkpt>
      <trkpt lat="44.75739" lon="-0.08775">
        <ele>53.97</ele>
        <time>2014-11-23T14:06:59Z</time>
      </trkpt>
      <trkpt lat="44.7574" lon="-0.08778">
        <ele>53.97</ele>
        <time>2014-11-23T14:07:01Z</time>
      </trkpt>
      <trkpt lat="44.75745" lon="-0.08784">
        <ele>53.97</ele>
        <time>2014-11-23T14:07:07Z</time>
      </trkpt>
      <trkpt lat="44.75747" lon="-0.08783">
        <ele>53.97</ele>
        <time>2014-11-23T14:07:11Z</time>
      </trkpt>
      <trkpt lat="44.75764" lon="-0.08769">
        <ele>54.93</ele>
        <time>2014-11-23T14:07:28Z</time>
      </trkpt>
      <trkpt lat="44.75781" lon="-0.08751">
        <ele>54.93</ele>
        <time>2014-11-23T14:07:46Z</time>
      </trkpt>
      <trkpt lat="44.75799" lon="-0.08739">
        <ele>56.37</ele>
        <time>2014-11-23T14:08:03Z</time>
      </trkpt>
      <trkpt lat="44.75816" lon="-0.08725">
        <ele>57.34</ele>
        <time>2014-11-23T14:08:20Z</time>
      </trkpt>
      <trkpt lat="44.75834" lon="-0.08713">
        <ele>59.26</ele>
        <time>2014-11-23T14:08:38Z</time>
      </trkpt>
      <trkpt lat="44.75852" lon="-0.087">
        <ele>60.7</ele>
        <time>2014-11-23T14:08:56Z</time>
      </trkpt>
      <trkpt lat="44.75856" lon="-0.08697">
        <ele>61.18</ele>
        <time>2014-11-23T14:09:00Z</time>
      </trkpt>
      <trkpt lat="44.75863" lon="-0.08691">
        <ele>62.62</ele>
        <time>2014-11-23T14:09:07Z</time>
      </trkpt>
      <trkpt lat="44.75879" lon="-0.08681">
        <ele>64.07</ele>
        <time>2014-11-23T14:09:23Z</time>
      </trkpt>
      <trkpt lat="44.75895" lon="-0.08669">
        <ele>65.99</ele>
        <time>2014-11-23T14:09:40Z</time>
      </trkpt>
      <trkpt lat="44.75912" lon="-0.08659">
        <ele>66.47</ele>
        <time>2014-11-23T14:09:57Z</time>
      </trkpt>
      <trkpt lat="44.7593" lon="-0.08647">
        <ele>68.39</ele>
        <time>2014-11-23T14:10:16Z</time>
      </trkpt>
      <trkpt lat="44.75947" lon="-0.08637">
        <ele>69.35</ele>
        <time>2014-11-23T14:10:33Z</time>
      </trkpt>
      <trkpt lat="44.75966" lon="-0.08624">
        <ele>70.79</ele>
        <time>2014-11-23T14:10:53Z</time>
      </trkpt>
      <trkpt lat="44.75974" lon="-0.08621">
        <ele>71.27</ele>
        <time>2014-11-23T14:11:00Z</time>
      </trkpt>
      <trkpt lat="44.75994" lon="-0.08607">
        <ele>72.24</ele>
        <time>2014-11-23T14:11:20Z</time>
      </trkpt>
      <trkpt lat="44.76012" lon="-0.08598">
        <ele>73.68</ele>
        <time>2014-11-23T14:11:37Z</time>
      </trkpt>
      <trkpt lat="44.7603" lon="-0.08586">
        <ele>74.16</ele>
        <time>2014-11-23T14:11:55Z</time>
      </trkpt>
      <trkpt lat="44.76049" lon="-0.08572">
        <ele>75.6</ele>
        <time>2014-11-23T14:12:14Z</time>
      </trkpt>
      <trkpt lat="44.7607" lon="-0.08558">
        <ele>77.04</ele>
        <time>2014-11-23T14:12:35Z</time>
      </trkpt>
      <trkpt lat="44.76092" lon="-0.08544">
        <ele>78</ele>
        <time>2014-11-23T14:12:55Z</time>
      </trkpt>
      <trkpt lat="44.76112" lon="-0.08534">
        <ele>78</ele>
        <time>2014-11-23T14:13:13Z</time>
      </trkpt>
      <trkpt lat="44.76127" lon="-0.08529">
        <ele>78.97</ele>
        <time>2014-11-23T14:13:27Z</time>
      </trkpt>
      <trkpt lat="44.76151" lon="-0.0852">
        <ele>79.45</ele>
        <time>2014-11-23T14:13:48Z</time>
      </trkpt>
      <trkpt lat="44.76158" lon="-0.08518">
        <ele>79.45</ele>
        <time>2014-11-23T14:13:54Z</time>
      </trkpt>
      <trkpt lat="44.76179" lon="-0.08509">
        <ele>80.41</ele>
        <time>2014-11-23T14:14:12Z</time>
      </trkpt>
      <trkpt lat="44.76198" lon="-0.085">
        <ele>80.41</ele>
        <time>2014-11-23T14:14:30Z</time>
      </trkpt>
      <trkpt lat="44.76217" lon="-0.08496">
        <ele>81.37</ele>
        <time>2014-11-23T14:14:47Z</time>
      </trkpt>
      <trkpt lat="44.76219" lon="-0.08491">
        <ele>80.89</ele>
        <time>2014-11-23T14:15:00Z</time>
      </trkpt>
      <trkpt lat="44.76221" lon="-0.08493">
        <ele>80.89</ele>
        <time>2014-11-23T14:15:23Z</time>
      </trkpt>
      <trkpt lat="44.76218" lon="-0.08496">
        <ele>80.89</ele>
        <time>2014-11-23T14:15:48Z</time>
      </trkpt>
      <trkpt lat="44.76218" lon="-0.08489">
        <ele>80.89</ele>
        <time>2014-11-23T14:16:05Z</time>
      </trkpt>
      <trkpt lat="44.76215" lon="-0.08461">
        <ele>80.89</ele>
        <time>2014-11-23T14:16:23Z</time>
      </trkpt>
      <trkpt lat="44.76215" lon="-0.08457">
        <ele>80.89</ele>
        <time>2014-11-23T14:16:47Z</time>
      </trkpt>
      <trkpt lat="44.76217" lon="-0.08458">
        <ele>81.37</ele>
        <time>2014-11-23T14:17:16Z</time>
      </trkpt>
      <trkpt lat="44.76216" lon="-0.0846">
        <ele>81.37</ele>
        <time>2014-11-23T14:17:37Z</time>
      </trkpt>
      <trkpt lat="44.76216" lon="-0.08459">
        <ele>81.37</ele>
        <time>2014-11-23T14:17:57Z</time>
      </trkpt>
      <trkpt lat="44.76217" lon="-0.08458">
        <ele>81.37</ele>
        <time>2014-11-23T14:18:12Z</time>
      </trkpt>
      <trkpt lat="44.76219" lon="-0.08458">
        <ele>81.37</ele>
        <time>2014-11-23T14:18:36Z</time>
      </trkpt>
      <trkpt lat="44.76219" lon="-0.08457">
        <ele>82.33</ele>
        <time>2014-11-23T14:18:55Z</time>
      </trkpt>
      <trkpt lat="44.76212" lon="-0.08445">
        <ele>80.89</ele>
        <time>2014-11-23T14:19:14Z</time>
      </trkpt>
      <trkpt lat="44.76206" lon="-0.08419">
        <ele>80.89</ele>
        <time>2014-11-23T14:19:30Z</time>
      </trkpt>
      <trkpt lat="44.76199" lon="-0.08385">
        <ele>80.41</ele>
        <time>2014-11-23T14:19:50Z</time>
      </trkpt>
      <trkpt lat="44.7619" lon="-0.0835">
        <ele>80.41</ele>
        <time>2014-11-23T14:20:12Z</time>
      </trkpt>
      <trkpt lat="44.76183" lon="-0.08319">
        <ele>79.93</ele>
        <time>2014-11-23T14:20:30Z</time>
      </trkpt>
      <trkpt lat="44.76174" lon="-0.08286">
        <ele>79.45</ele>
        <time>2014-11-23T14:20:50Z</time>
      </trkpt>
      <trkpt lat="44.76166" lon="-0.08253">
        <ele>79.45</ele>
        <time>2014-11-23T14:21:11Z</time>
      </trkpt>
      <trkpt lat="44.76159" lon="-0.08227">
        <ele>78.97</ele>
        <time>2014-11-23T14:21:27Z</time>
      </trkpt>
      <trkpt lat="44.7615" lon="-0.08196">
        <ele>77.52</ele>
        <time>2014-11-23T14:21:48Z</time>
      </trkpt>
      <trkpt lat="44.76141" lon="-0.08168">
        <ele>77.04</ele>
        <time>2014-11-23T14:22:06Z</time>
      </trkpt>
      <trkpt lat="44.76132" lon="-0.0814">
        <ele>75.6</ele>
        <time>2014-11-23T14:22:25Z</time>
      </trkpt>
      <trkpt lat="44.76122" lon="-0.08118">
        <ele>74.64</ele>
        <time>2014-11-23T14:22:42Z</time>
      </trkpt>
      <trkpt lat="44.76112" lon="-0.08091">
        <ele>72.24</ele>
        <time>2014-11-23T14:23:02Z</time>
      </trkpt>
      <trkpt lat="44.76102" lon="-0.08064">
        <ele>70.31</ele>
        <time>2014-11-23T14:23:21Z</time>
      </trkpt>
      <trkpt lat="44.76091" lon="-0.08037">
        <ele>68.87</ele>
        <time>2014-11-23T14:23:40Z</time>
      </trkpt>
      <trkpt lat="44.76086" lon="-0.08025">
        <ele>68.87</ele>
        <time>2014-11-23T14:23:49Z</time>
      </trkpt>
      <trkpt lat="44.76076" lon="-0.07999">
        <ele>67.43</ele>
        <time>2014-11-23T14:24:08Z</time>
      </trkpt>
      <trkpt lat="44.76063" lon="-0.07975">
        <ele>66.47</ele>
        <time>2014-11-23T14:24:27Z</time>
      </trkpt>
      <trkpt lat="44.76052" lon="-0.0795">
        <ele>65.99</ele>
        <time>2014-11-23T14:24:44Z</time>
      </trkpt>
      <trkpt lat="44.7604" lon="-0.07924">
        <ele>64.55</ele>
        <time>2014-11-23T14:25:03Z</time>
      </trkpt>
      <trkpt lat="44.76028" lon="-0.07892">
        <ele>63.58</ele>
        <time>2014-11-23T14:25:24Z</time>
      </trkpt>
      <trkpt lat="44.76017" lon="-0.07865">
        <ele>63.58</ele>
        <time>2014-11-23T14:25:42Z</time>
      </trkpt>
      <trkpt lat="44.76007" lon="-0.07834">
        <ele>62.62</ele>
        <time>2014-11-23T14:26:02Z</time>
      </trkpt>
      <trkpt lat="44.75997" lon="-0.07812">
        <ele>63.58</ele>
        <time>2014-11-23T14:26:18Z</time>
      </trkpt>
      <trkpt lat="44.75996" lon="-0.07811">
        <ele>63.58</ele>
        <time>2014-11-23T14:26:19Z</time>
      </trkpt>
      <trkpt lat="44.75989" lon="-0.07787">
        <ele>63.1</ele>
        <time>2014-11-23T14:26:36Z</time>
      </trkpt>
      <trkpt lat="44.75982" lon="-0.07763">
        <ele>63.58</ele>
        <time>2014-11-23T14:26:52Z</time>
      </trkpt>
      <trkpt lat="44.75979" lon="-0.07748">
        <ele>64.07</ele>
        <time>2014-11-23T14:27:02Z</time>
      </trkpt>
      <trkpt lat="44.75977" lon="-0.07725">
        <ele>65.03</ele>
        <time>2014-11-23T14:27:18Z</time>
      </trkpt>
      <trkpt lat="44.75978" lon="-0.07703">
        <ele>65.51</ele>
        <time>2014-11-23T14:27:35Z</time>
      </trkpt>
      <trkpt lat="44.75978" lon="-0.07691">
        <ele>66.47</ele>
        <time>2014-11-23T14:27:43Z</time>
      </trkpt>
      <trkpt lat="44.75982" lon="-0.07684">
        <ele>66.47</ele>
        <time>2014-11-23T14:27:47Z</time>
      </trkpt>
      <trkpt lat="44.75981" lon="-0.07664">
        <ele>65.51</ele>
        <time>2014-11-23T14:28:02Z</time>
      </trkpt>
      <trkpt lat="44.75973" lon="-0.07642">
        <ele>65.99</ele>
        <time>2014-11-23T14:28:18Z</time>
      </trkpt>
      <trkpt lat="44.7597" lon="-0.07629">
        <ele>65.51</ele>
        <time>2014-11-23T14:28:31Z</time>
      </trkpt>
      <trkpt lat="44.7597" lon="-0.07624">
        <ele>65.51</ele>
        <time>2014-11-23T14:28:46Z</time>
      </trkpt>
      <trkpt lat="44.7597" lon="-0.07621">
        <ele>65.51</ele>
        <time>2014-11-23T14:28:58Z</time>
      </trkpt>
      <trkpt lat="44.75974" lon="-0.07624">
        <ele>65.51</ele>
        <time>2014-11-23T14:29:27Z</time>
      </trkpt>
      <trkpt lat="44.75973" lon="-0.07625">
        <ele>65.51</ele>
        <time>2014-11-23T14:29:46Z</time>
      </trkpt>
      <trkpt lat="44.75973" lon="-0.07621">
        <ele>65.51</ele>
        <time>2014-11-23T14:30:05Z</time>
      </trkpt>
      <trkpt lat="44.75966" lon="-0.07617">
        <ele>65.51</ele>
        <time>2014-11-23T14:30:18Z</time>
      </trkpt>
      <trkpt lat="44.75965" lon="-0.07615">
        <ele>65.51</ele>
        <time>2014-11-23T14:30:38Z</time>
      </trkpt>
      <trkpt lat="44.75968" lon="-0.07614">
        <ele>65.51</ele>
        <time>2014-11-23T14:30:56Z</time>
      </trkpt>
      <trkpt lat="44.7596" lon="-0.07614">
        <ele>65.03</ele>
        <time>2014-11-23T14:31:13Z</time>
      </trkpt>
      <trkpt lat="44.75938" lon="-0.07613">
        <ele>64.55</ele>
        <time>2014-11-23T14:31:30Z</time>
      </trkpt>
      <trkpt lat="44.75916" lon="-0.0761">
        <ele>64.07</ele>
        <time>2014-11-23T14:31:48Z</time>
      </trkpt>
      <trkpt lat="44.75909" lon="-0.07608">
        <ele>63.58</ele>
        <time>2014-11-23T14:31:55Z</time>
      </trkpt>
      <trkpt lat="44.7589" lon="-0.0761">
        <ele>63.1</ele>
        <time>2014-11-23T14:32:12Z</time>
      </trkpt>
      <trkpt lat="44.75869" lon="-0.07608">
        <ele>62.14</ele>
        <time>2014-11-23T14:32:29Z</time>
      </trkpt>
      <trkpt lat="44.75866" lon="-0.07609">
        <ele>62.14</ele>
        <time>2014-11-23T14:32:31Z</time>
      </trkpt>
      <trkpt lat="44.75853" lon="-0.07605">
        <ele>61.18</ele>
        <time>2014-11-23T14:32:46Z</time>
      </trkpt>
      <trkpt lat="44.75838" lon="-0.07603">
        <ele>60.7</ele>
        <time>2014-11-23T14:33:00Z</time>
      </trkpt>
      <trkpt lat="44.75821" lon="-0.07605">
        <ele>60.7</ele>
        <time>2014-11-23T14:33:16Z</time>
      </trkpt>
      <trkpt lat="44.75803" lon="-0.07608">
        <ele>59.74</ele>
        <time>2014-11-23T14:33:34Z</time>
      </trkpt>
      <trkpt lat="44.75782" lon="-0.07612">
        <ele>58.78</ele>
        <time>2014-11-23T14:33:54Z</time>
      </trkpt>
      <trkpt lat="44.75756" lon="-0.07617">
        <ele>57.82</ele>
        <time>2014-11-23T14:34:17Z</time>
      </trkpt>
      <trkpt lat="44.7574" lon="-0.07622">
        <ele>56.86</ele>
        <time>2014-11-23T14:34:31Z</time>
      </trkpt>
      <trkpt lat="44.7572" lon="-0.07625">
        <ele>55.89</ele>
        <time>2014-11-23T14:34:48Z</time>
      </trkpt>
      <trkpt lat="44.75713" lon="-0.07624">
        <ele>55.41</ele>
        <time>2014-11-23T14:35:01Z</time>
      </trkpt>
      <trkpt lat="44.75713" lon="-0.07624">
        <ele>54.93</ele>
        <time>2014-11-23T14:35:02Z</time>
      </trkpt>
      <trkpt lat="44.75694" lon="-0.07633">
        <ele>53.49</ele>
        <time>2014-11-23T14:35:20Z</time>
      </trkpt>
      <trkpt lat="44.75672" lon="-0.07637">
        <ele>51.09</ele>
        <time>2014-11-23T14:35:41Z</time>
      </trkpt>
      <trkpt lat="44.75657" lon="-0.07649">
        <ele>49.65</ele>
        <time>2014-11-23T14:35:59Z</time>
      </trkpt>
      <trkpt lat="44.75656" lon="-0.0765">
        <ele>48.68</ele>
        <time>2014-11-23T14:36:00Z</time>
      </trkpt>
      <trkpt lat="44.75637" lon="-0.07676">
        <ele>46.28</ele>
        <time>2014-11-23T14:36:24Z</time>
      </trkpt>
      <trkpt lat="44.75623" lon="-0.07696">
        <ele>45.8</ele>
        <time>2014-11-23T14:36:44Z</time>
      </trkpt>
      <trkpt lat="44.75607" lon="-0.07711">
        <ele>43.88</ele>
        <time>2014-11-23T14:37:02Z</time>
      </trkpt>
      <trkpt lat="44.75589" lon="-0.0771">
        <ele>42.44</ele>
        <time>2014-11-23T14:37:19Z</time>
      </trkpt>
      <trkpt lat="44.75577" lon="-0.07704">
        <ele>41.47</ele>
        <time>2014-11-23T14:37:38Z</time>
      </trkpt>
      <trkpt lat="44.75562" lon="-0.07696">
        <ele>40.03</ele>
        <time>2014-11-23T14:37:55Z</time>
      </trkpt>
      <trkpt lat="44.75555" lon="-0.07689">
        <ele>38.59</ele>
        <time>2014-11-23T14:38:03Z</time>
      </trkpt>
      <trkpt lat="44.75539" lon="-0.07677">
        <ele>36.67</ele>
        <time>2014-11-23T14:38:21Z</time>
      </trkpt>
      <trkpt lat="44.75522" lon="-0.07662">
        <ele>33.78</ele>
        <time>2014-11-23T14:38:39Z</time>
      </trkpt>
      <trkpt lat="44.75503" lon="-0.07648">
        <ele>30.42</ele>
        <time>2014-11-23T14:38:58Z</time>
      </trkpt>
      <trkpt lat="44.75492" lon="-0.07641">
        <ele>30.42</ele>
        <time>2014-11-23T14:39:14Z</time>
      </trkpt>
      <trkpt lat="44.75476" lon="-0.07648">
        <ele>29.46</ele>
        <time>2014-11-23T14:39:32Z</time>
      </trkpt>
      <trkpt lat="44.75464" lon="-0.07654">
        <ele>28.5</ele>
        <time>2014-11-23T14:39:44Z</time>
      </trkpt>
      <trkpt lat="44.75444" lon="-0.0766">
        <ele>28.02</ele>
        <time>2014-11-23T14:40:00Z</time>
      </trkpt>
      <trkpt lat="44.75435" lon="-0.07666">
        <ele>28.02</ele>
        <time>2014-11-23T14:40:09Z</time>
      </trkpt>
      <trkpt lat="44.75429" lon="-0.07658">
        <ele>27.53</ele>
        <time>2014-11-23T14:40:25Z</time>
      </trkpt>
      <trkpt lat="44.7543" lon="-0.07654">
        <ele>27.05</ele>
        <time>2014-11-23T14:40:55Z</time>
      </trkpt>
      <trkpt lat="44.75429" lon="-0.07652">
        <ele>27.05</ele>
        <time>2014-11-23T14:41:24Z</time>
      </trkpt>
      <trkpt lat="44.75426" lon="-0.07654">
        <ele>26.09</ele>
        <time>2014-11-23T14:41:35Z</time>
      </trkpt>
      <trkpt lat="44.75423" lon="-0.07625">
        <ele>25.61</ele>
        <time>2014-11-23T14:41:55Z</time>
      </trkpt>
      <trkpt lat="44.75413" lon="-0.07596">
        <ele>25.61</ele>
        <time>2014-11-23T14:42:15Z</time>
      </trkpt>
      <trkpt lat="44.75398" lon="-0.07575">
        <ele>25.61</ele>
        <time>2014-11-23T14:42:33Z</time>
      </trkpt>
      <trkpt lat="44.75383" lon="-0.0756">
        <ele>25.61</ele>
        <time>2014-11-23T14:42:50Z</time>
      </trkpt>
      <trkpt lat="44.75376" lon="-0.07549">
        <ele>25.13</ele>
        <time>2014-11-23T14:43:03Z</time>
      </trkpt>
      <trkpt lat="44.75375" lon="-0.07547">
        <ele>24.65</ele>
        <time>2014-11-23T14:43:05Z</time>
      </trkpt>
      <trkpt lat="44.75375" lon="-0.0754">
        <ele>24.65</ele>
        <time>2014-11-23T14:43:10Z</time>
      </trkpt>
      <trkpt lat="44.75377" lon="-0.07518">
        <ele>24.65</ele>
        <time>2014-11-23T14:43:24Z</time>
      </trkpt>
      <trkpt lat="44.75378" lon="-0.07496">
        <ele>24.17</ele>
        <time>2014-11-23T14:43:41Z</time>
      </trkpt>
      <trkpt lat="44.75376" lon="-0.07493">
        <ele>24.65</ele>
        <time>2014-11-23T14:43:57Z</time>
      </trkpt>
      <trkpt lat="44.75374" lon="-0.07492">
        <ele>23.69</ele>
        <time>2014-11-23T14:44:17Z</time>
      </trkpt>
      <trkpt lat="44.75373" lon="-0.07488">
        <ele>23.69</ele>
        <time>2014-11-23T14:44:37Z</time>
      </trkpt>
      <trkpt lat="44.75369" lon="-0.07486">
        <ele>23.69</ele>
        <time>2014-11-23T14:45:07Z</time>
      </trkpt>
      <trkpt lat="44.75374" lon="-0.07488">
        <ele>24.17</ele>
        <time>2014-11-23T14:45:22Z</time>
      </trkpt>
      <trkpt lat="44.75384" lon="-0.07483">
        <ele>23.69</ele>
        <time>2014-11-23T14:45:43Z</time>
      </trkpt>
      <trkpt lat="44.75379" lon="-0.07484">
        <ele>24.17</ele>
        <time>2014-11-23T14:46:02Z</time>
      </trkpt>
      <trkpt lat="44.75379" lon="-0.07485">
        <ele>24.17</ele>
        <time>2014-11-23T14:46:15Z</time>
      </trkpt>
      <trkpt lat="44.75381" lon="-0.07481">
        <ele>24.17</ele>
        <time>2014-11-23T14:46:38Z</time>
      </trkpt>
      <trkpt lat="44.75383" lon="-0.07479">
        <ele>24.17</ele>
        <time>2014-11-23T14:46:55Z</time>
      </trkpt>
      <trkpt lat="44.75383" lon="-0.07482">
        <ele>24.17</ele>
        <time>2014-11-23T14:47:15Z</time>
      </trkpt>
      <trkpt lat="44.75382" lon="-0.07481">
        <ele>24.17</ele>
        <time>2014-11-23T14:47:32Z</time>
      </trkpt>
      <trkpt lat="44.75385" lon="-0.07484">
        <ele>23.69</ele>
        <time>2014-11-23T14:48:00Z</time>
      </trkpt>
      <trkpt lat="44.75383" lon="-0.07477">
        <ele>24.65</ele>
        <time>2014-11-23T14:48:15Z</time>
      </trkpt>
      <trkpt lat="44.75385" lon="-0.07486">
        <ele>24.17</ele>
        <time>2014-11-23T14:48:39Z</time>
      </trkpt>
      <trkpt lat="44.75384" lon="-0.07482">
        <ele>24.65</ele>
        <time>2014-11-23T14:49:02Z</time>
      </trkpt>
      <trkpt lat="44.75386" lon="-0.07479">
        <ele>24.65</ele>
        <time>2014-11-23T14:49:29Z</time>
      </trkpt>
      <trkpt lat="44.75383" lon="-0.0748">
        <ele>24.65</ele>
        <time>2014-11-23T14:49:53Z</time>
      </trkpt>
      <trkpt lat="44.75383" lon="-0.0748">
        <ele>24.65</ele>
        <time>2014-11-23T14:50:10Z</time>
      </trkpt>
      <trkpt lat="44.75384" lon="-0.07477">
        <ele>25.13</ele>
        <time>2014-11-23T14:50:35Z</time>
      </trkpt>
      <trkpt lat="44.75383" lon="-0.07479">
        <ele>24.65</ele>
        <time>2014-11-23T14:50:54Z</time>
      </trkpt>
      <trkpt lat="44.75387" lon="-0.07485">
        <ele>24.65</ele>
        <time>2014-11-23T14:51:18Z</time>
      </trkpt>
      <trkpt lat="44.75384" lon="-0.07495">
        <ele>24.65</ele>
        <time>2014-11-23T14:51:43Z</time>
      </trkpt>
      <trkpt lat="44.75382" lon="-0.07493">
        <ele>25.61</ele>
        <time>2014-11-23T14:52:08Z</time>
      </trkpt>
      <trkpt lat="44.7538" lon="-0.07487">
        <ele>25.61</ele>
        <time>2014-11-23T14:52:36Z</time>
      </trkpt>
      <trkpt lat="44.75381" lon="-0.07491">
        <ele>26.09</ele>
        <time>2014-11-23T14:52:58Z</time>
      </trkpt>
      <trkpt lat="44.75384" lon="-0.07491">
        <ele>26.09</ele>
        <time>2014-11-23T14:53:17Z</time>
      </trkpt>
      <trkpt lat="44.75384" lon="-0.07491">
        <ele>25.61</ele>
        <time>2014-11-23T14:53:37Z</time>
      </trkpt>
      <trkpt lat="44.75384" lon="-0.07489">
        <ele>25.61</ele>
        <time>2014-11-23T14:53:59Z</time>
      </trkpt>
      <trkpt lat="44.75383" lon="-0.07496">
        <ele>26.09</ele>
        <time>2014-11-23T14:54:16Z</time>
      </trkpt>
      <trkpt lat="44.75384" lon="-0.07496">
        <ele>26.57</ele>
        <time>2014-11-23T14:54:36Z</time>
      </trkpt>
      <trkpt lat="44.75384" lon="-0.0749">
        <ele>26.09</ele>
        <time>2014-11-23T14:55:02Z</time>
      </trkpt>
      <trkpt lat="44.75385" lon="-0.0749">
        <ele>26.09</ele>
        <time>2014-11-23T14:55:33Z</time>
      </trkpt>
      <trkpt lat="44.75385" lon="-0.07493">
        <ele>26.57</ele>
        <time>2014-11-23T14:55:53Z</time>
      </trkpt>
      <trkpt lat="44.75376" lon="-0.0749">
        <ele>26.09</ele>
        <time>2014-11-23T14:56:11Z</time>
      </trkpt>
      <trkpt lat="44.75378" lon="-0.07494">
        <ele>26.09</ele>
        <time>2014-11-23T14:56:28Z</time>
      </trkpt>
      <trkpt lat="44.75382" lon="-0.07487">
        <ele>26.09</ele>
        <time>2014-11-23T14:56:44Z</time>
      </trkpt>
      <trkpt lat="44.75379" lon="-0.07487">
        <ele>26.57</ele>
        <time>2014-11-23T14:57:03Z</time>
      </trkpt>
      <trkpt lat="44.75381" lon="-0.07482">
        <ele>27.05</ele>
        <time>2014-11-23T14:57:25Z</time>
      </trkpt>
      <trkpt lat="44.75383" lon="-0.07475">
        <ele>27.05</ele>
        <time>2014-11-23T14:57:47Z</time>
      </trkpt>
      <trkpt lat="44.75387" lon="-0.07475">
        <ele>26.57</ele>
        <time>2014-11-23T14:59:24Z</time>
      </trkpt>
      <trkpt lat="44.75386" lon="-0.07488">
        <ele>26.09</ele>
        <time>2014-11-23T14:59:41Z</time>
      </trkpt>
      <trkpt lat="44.75385" lon="-0.07486">
        <ele>26.57</ele>
        <time>2014-11-23T15:00:03Z</time>
      </trkpt>
      <trkpt lat="44.75382" lon="-0.07486">
        <ele>26.57</ele>
        <time>2014-11-23T15:00:27Z</time>
      </trkpt>
      <trkpt lat="44.75382" lon="-0.07482">
        <ele>26.57</ele>
        <time>2014-11-23T15:00:46Z</time>
      </trkpt>
      <trkpt lat="44.75382" lon="-0.07489">
        <ele>27.05</ele>
        <time>2014-11-23T15:01:05Z</time>
      </trkpt>
      <trkpt lat="44.75376" lon="-0.07487">
        <ele>27.05</ele>
        <time>2014-11-23T15:01:24Z</time>
      </trkpt>
      <trkpt lat="44.75374" lon="-0.07483">
        <ele>26.57</ele>
        <time>2014-11-23T15:01:36Z</time>
      </trkpt>
      <trkpt lat="44.75369" lon="-0.0748">
        <ele>27.05</ele>
        <time>2014-11-23T15:01:57Z</time>
      </trkpt>
      <trkpt lat="44.75374" lon="-0.07479">
        <ele>27.05</ele>
        <time>2014-11-23T15:02:15Z</time>
      </trkpt>
      <trkpt lat="44.75373" lon="-0.07483">
        <ele>27.53</ele>
        <time>2014-11-23T15:02:32Z</time>
      </trkpt>
      <trkpt lat="44.75371" lon="-0.0748">
        <ele>27.05</ele>
        <time>2014-11-23T15:02:52Z</time>
      </trkpt>
      <trkpt lat="44.75369" lon="-0.07479">
        <ele>27.05</ele>
        <time>2014-11-23T15:03:20Z</time>
      </trkpt>
      <trkpt lat="44.7537" lon="-0.07481">
        <ele>27.05</ele>
        <time>2014-11-23T15:03:42Z</time>
      </trkpt>
      <trkpt lat="44.75369" lon="-0.07479">
        <ele>26.57</ele>
        <time>2014-11-23T15:04:05Z</time>
      </trkpt>
      <trkpt lat="44.75368" lon="-0.07481">
        <ele>27.05</ele>
        <time>2014-11-23T15:04:33Z</time>
      </trkpt>
      <trkpt lat="44.75369" lon="-0.07481">
        <ele>27.05</ele>
        <time>2014-11-23T15:04:54Z</time>
      </trkpt>
      <trkpt lat="44.7537" lon="-0.07483">
        <ele>27.05</ele>
        <time>2014-11-23T15:05:12Z</time>
      </trkpt>
      <trkpt lat="44.75369" lon="-0.07488">
        <ele>27.05</ele>
        <time>2014-11-23T15:05:24Z</time>
      </trkpt>
      <trkpt lat="44.75369" lon="-0.07485">
        <ele>26.57</ele>
        <time>2014-11-23T15:05:51Z</time>
      </trkpt>
      <trkpt lat="44.75373" lon="-0.07491">
        <ele>26.09</ele>
        <time>2014-11-23T15:06:15Z</time>
      </trkpt>
      <trkpt lat="44.75369" lon="-0.07499">
        <ele>26.57</ele>
        <time>2014-11-23T15:06:22Z</time>
      </trkpt>
      <trkpt lat="44.75361" lon="-0.07509">
        <ele>26.57</ele>
        <time>2014-11-23T15:06:30Z</time>
      </trkpt>
      <trkpt lat="44.75341" lon="-0.07509">
        <ele>27.05</ele>
        <time>2014-11-23T15:06:47Z</time>
      </trkpt>
      <trkpt lat="44.75334" lon="-0.07508">
        <ele>27.05</ele>
        <time>2014-11-23T15:07:00Z</time>
      </trkpt>
      <trkpt lat="44.75321" lon="-0.07511">
        <ele>27.05</ele>
        <time>2014-11-23T15:07:14Z</time>
      </trkpt>
      <trkpt lat="44.75317" lon="-0.07514">
        <ele>27.05</ele>
        <time>2014-11-23T15:07:27Z</time>
      </trkpt>
      <trkpt lat="44.75315" lon="-0.0751">
        <ele>27.05</ele>
        <time>2014-11-23T15:07:42Z</time>
      </trkpt>
      <trkpt lat="44.75315" lon="-0.07517">
        <ele>27.05</ele>
        <time>2014-11-23T15:08:09Z</time>
      </trkpt>
      <trkpt lat="44.75307" lon="-0.07521">
        <ele>27.53</ele>
        <time>2014-11-23T15:08:23Z</time>
      </trkpt>
      <trkpt lat="44.75292" lon="-0.07515">
        <ele>27.05</ele>
        <time>2014-11-23T15:08:39Z</time>
      </trkpt>
      <trkpt lat="44.75291" lon="-0.07514">
        <ele>27.05</ele>
        <time>2014-11-23T15:08:40Z</time>
      </trkpt>
      <trkpt lat="44.75272" lon="-0.07511">
        <ele>27.05</ele>
        <time>2014-11-23T15:08:58Z</time>
      </trkpt>
      <trkpt lat="44.75255" lon="-0.07508">
        <ele>27.53</ele>
        <time>2014-11-23T15:09:13Z</time>
      </trkpt>
      <trkpt lat="44.75238" lon="-0.07507">
        <ele>27.53</ele>
        <time>2014-11-23T15:09:29Z</time>
      </trkpt>
      <trkpt lat="44.75229" lon="-0.07516">
        <ele>27.53</ele>
        <time>2014-11-23T15:09:41Z</time>
      </trkpt>
      <trkpt lat="44.75223" lon="-0.07539">
        <ele>28.02</ele>
        <time>2014-11-23T15:09:59Z</time>
      </trkpt>
      <trkpt lat="44.75215" lon="-0.07568">
        <ele>28.5</ele>
        <time>2014-11-23T15:10:21Z</time>
      </trkpt>
      <trkpt lat="44.7521" lon="-0.07588">
        <ele>28.02</ele>
        <time>2014-11-23T15:10:34Z</time>
      </trkpt>
      <trkpt lat="44.75207" lon="-0.07594">
        <ele>28.02</ele>
        <time>2014-11-23T15:10:38Z</time>
      </trkpt>
      <trkpt lat="44.75201" lon="-0.07621">
        <ele>28.5</ele>
        <time>2014-11-23T15:10:57Z</time>
      </trkpt>
      <trkpt lat="44.75201" lon="-0.07623">
        <ele>28.02</ele>
        <time>2014-11-23T15:10:58Z</time>
      </trkpt>
      <trkpt lat="44.75198" lon="-0.07635">
        <ele>28.98</ele>
        <time>2014-11-23T15:11:07Z</time>
      </trkpt>
      <trkpt lat="44.7519" lon="-0.07672">
        <ele>28.5</ele>
        <time>2014-11-23T15:11:30Z</time>
      </trkpt>
      <trkpt lat="44.75183" lon="-0.07699">
        <ele>28.5</ele>
        <time>2014-11-23T15:11:48Z</time>
      </trkpt>
      <trkpt lat="44.75175" lon="-0.07728">
        <ele>28.5</ele>
        <time>2014-11-23T15:12:07Z</time>
      </trkpt>
      <trkpt lat="44.75168" lon="-0.07758">
        <ele>28.98</ele>
        <time>2014-11-23T15:12:27Z</time>
      </trkpt>
      <trkpt lat="44.75166" lon="-0.07767">
        <ele>28.5</ele>
        <time>2014-11-23T15:12:33Z</time>
      </trkpt>
      <trkpt lat="44.75159" lon="-0.078">
        <ele>28.5</ele>
        <time>2014-11-23T15:12:54Z</time>
      </trkpt>
      <trkpt lat="44.75153" lon="-0.07828">
        <ele>28.5</ele>
        <time>2014-11-23T15:13:12Z</time>
      </trkpt>
      <trkpt lat="44.75146" lon="-0.07859">
        <ele>28.5</ele>
        <time>2014-11-23T15:13:32Z</time>
      </trkpt>
      <trkpt lat="44.75142" lon="-0.07877">
        <ele>28.98</ele>
        <time>2014-11-23T15:13:45Z</time>
      </trkpt>
      <trkpt lat="44.75117" lon="-0.07878">
        <ele>30.42</ele>
        <time>2014-11-23T15:14:05Z</time>
      </trkpt>
      <trkpt lat="44.75102" lon="-0.07872">
        <ele>32.82</ele>
        <time>2014-11-23T15:14:21Z</time>
      </trkpt>
      <trkpt lat="44.75098" lon="-0.0787">
        <ele>32.82</ele>
        <time>2014-11-23T15:14:25Z</time>
      </trkpt>
      <trkpt lat="44.75087" lon="-0.07868">
        <ele>35.23</ele>
        <time>2014-11-23T15:14:37Z</time>
      </trkpt>
      <trkpt lat="44.75077" lon="-0.07862">
        <ele>36.67</ele>
        <time>2014-11-23T15:14:47Z</time>
      </trkpt>
      <trkpt lat="44.75073" lon="-0.0784">
        <ele>38.11</ele>
        <time>2014-11-23T15:15:05Z</time>
      </trkpt>
      <trkpt lat="44.75071" lon="-0.07814">
        <ele>38.11</ele>
        <time>2014-11-23T15:15:23Z</time>
      </trkpt>
      <trkpt lat="44.75068" lon="-0.07793">
        <ele>39.07</ele>
        <time>2014-11-23T15:15:41Z</time>
      </trkpt>
      <trkpt lat="44.75063" lon="-0.07771">
        <ele>41.47</ele>
        <time>2014-11-23T15:15:58Z</time>
      </trkpt>
      <trkpt lat="44.75059" lon="-0.07753">
        <ele>42.92</ele>
        <time>2014-11-23T15:16:13Z</time>
      </trkpt>
      <trkpt lat="44.75053" lon="-0.07735">
        <ele>44.84</ele>
        <time>2014-11-23T15:16:30Z</time>
      </trkpt>
      <trkpt lat="44.75045" lon="-0.07717">
        <ele>46.28</ele>
        <time>2014-11-23T15:16:47Z</time>
      </trkpt>
      <trkpt lat="44.75038" lon="-0.07704">
        <ele>47.72</ele>
        <time>2014-11-23T15:17:02Z</time>
      </trkpt>
      <trkpt lat="44.75032" lon="-0.07696">
        <ele>49.65</ele>
        <time>2014-11-23T15:17:18Z</time>
      </trkpt>
      <trkpt lat="44.75023" lon="-0.07695">
        <ele>50.61</ele>
        <time>2014-11-23T15:17:35Z</time>
      </trkpt>
      <trkpt lat="44.75024" lon="-0.07687">
        <ele>50.61</ele>
        <time>2014-11-23T15:17:55Z</time>
      </trkpt>
      <trkpt lat="44.75026" lon="-0.07684">
        <ele>50.61</ele>
        <time>2014-11-23T15:18:15Z</time>
      </trkpt>
      <trkpt lat="44.75029" lon="-0.07688">
        <ele>50.13</ele>
        <time>2014-11-23T15:18:36Z</time>
      </trkpt>
      <trkpt lat="44.75027" lon="-0.07684">
        <ele>50.61</ele>
        <time>2014-11-23T15:19:10Z</time>
      </trkpt>
      <trkpt lat="44.75023" lon="-0.07682">
        <ele>50.61</ele>
        <time>2014-11-23T15:19:33Z</time>
      </trkpt>
      <trkpt lat="44.75023" lon="-0.07684">
        <ele>50.61</ele>
        <time>2014-11-23T15:19:50Z</time>
      </trkpt>
      <trkpt lat="44.75022" lon="-0.07684">
        <ele>50.61</ele>
        <time>2014-11-23T15:20:02Z</time>
      </trkpt>
      <trkpt lat="44.75008" lon="-0.07677">
        <ele>51.57</ele>
        <time>2014-11-23T15:20:17Z</time>
      </trkpt>
      <trkpt lat="44.74999" lon="-0.07654">
        <ele>53.49</ele>
        <time>2014-11-23T15:20:36Z</time>
      </trkpt>
      <trkpt lat="44.74997" lon="-0.07633">
        <ele>53.97</ele>
        <time>2014-11-23T15:20:52Z</time>
      </trkpt>
      <trkpt lat="44.74987" lon="-0.07608">
        <ele>53.97</ele>
        <time>2014-11-23T15:21:09Z</time>
      </trkpt>
      <trkpt lat="44.74969" lon="-0.07577">
        <ele>54.93</ele>
        <time>2014-11-23T15:21:27Z</time>
      </trkpt>
      <trkpt lat="44.74966" lon="-0.07549">
        <ele>56.37</ele>
        <time>2014-11-23T15:21:46Z</time>
      </trkpt>
      <trkpt lat="44.74957" lon="-0.07528">
        <ele>55.41</ele>
        <time>2014-11-23T15:22:02Z</time>
      </trkpt>
      <trkpt lat="44.74951" lon="-0.07528">
        <ele>56.37</ele>
        <time>2014-11-23T15:22:07Z</time>
      </trkpt>
      <trkpt lat="44.74932" lon="-0.07501">
        <ele>56.37</ele>
        <time>2014-11-23T15:22:28Z</time>
      </trkpt>
      <trkpt lat="44.74923" lon="-0.07489">
        <ele>56.37</ele>
        <time>2014-11-23T15:22:42Z</time>
      </trkpt>
      <trkpt lat="44.74921" lon="-0.07486">
        <ele>55.89</ele>
        <time>2014-11-23T15:22:59Z</time>
      </trkpt>
      <trkpt lat="44.74917" lon="-0.07487">
        <ele>55.41</ele>
        <time>2014-11-23T15:23:16Z</time>
      </trkpt>
      <trkpt lat="44.74914" lon="-0.07484">
        <ele>55.41</ele>
        <time>2014-11-23T15:23:53Z</time>
      </trkpt>
    </trkseg>
  </trk>
</gpx>